Darstellungsparameter: Aktuell verwendete Einstellungen:
Skalierung der Graphiken ... ?
xyx+y,   Skalierungsfaktor:      Skalierung: Modus: x, Faktor: 1
Darstellungszeitraum ... ?
Vom - - bis: - -   Zeitraum: 02.06.2014 - 08.06.2014
Min/Max/Avg-Anzeige ... ?
Zeige MMA aktuell
Zeige MMA Monat
Zeige MMA alles
Zeige --A aktuell
Zeige --A Monat
Zeige --A alles
Keine MMA-Anzeige
MMA:
Keine MMA-Graphiken
MMA-Basis: 02.06.2014 - 08.06.2014
Quicknavigation für Darstellung... ?
Tage:      1T, 2T, 3T, 5T -1T -2T -3T -5T +1T +2T +3T +5T
Wochen: 1W, 2W, 3W -1W -2W -3W +1W +2W +3W
Monate: 1M, 3M, 6M -1M -3M -6M +1M +3M +6M
Jahre:    1J, 3J, 5J, 10J -1J -3J -5J -10J +1J +3J +5J +10J
Nutze für die Darstellung ... ?
Originaldaten oder Mittelwerte auf ...
Stundenbasis Tagesbasis Wochenbasis
Monatsbasis Jahresbasis      Datenbasis: Original-Daten
Darstellen als:
Statistik (Auto) Statistik J:M      Darstellung:
Zur Graphik,    zurück zur Übersicht aller Sensoren.
 
Tabellarische Datenbersicht: ?
 
Sensor: Nr:Datum:Temp:Abs-Feuchte:Windchill:Wind:
Aussen-T/F 1 02-06-2014 00:00:00 13.7 C 9.24 g/m*3 13.7 C 0 km/h
2 02-06-2014 00:05:00 13.7 C 9.24 g/m*3 13.7 C 0 km/h
3 02-06-2014 00:10:00 13.6 C 8.94 g/m*3 13.6 C 0 km/h
4 02-06-2014 00:15:00 13.6 C 9.06 g/m*3 13.6 C 0 km/h
5 02-06-2014 00:20:00 13.5 C 9.01 g/m*3 13.5 C 0 km/h
6 02-06-2014 00:25:00 13.5 C 9.01 g/m*3 13.5 C 0 km/h
7 02-06-2014 00:30:00 13.4 C 8.83 g/m*3 13.4 C 0 km/h
8 02-06-2014 00:35:00 13.4 C 8.95 g/m*3 13.4 C 0 km/h
9 02-06-2014 00:40:00 13.3 C 8.9 g/m*3 13.3 C 0 km/h
10 02-06-2014 00:45:00 13.3 C 9.01 g/m*3 13.3 C 0 km/h
11 02-06-2014 00:50:00 13.2 C 8.84 g/m*3 13.2 C 0 km/h
12 02-06-2014 00:55:00 13.2 C 9.07 g/m*3 13.2 C 0 km/h
13 02-06-2014 01:00:00 13.1 C 8.9 g/m*3 13.1 C 0 km/h
14 02-06-2014 01:05:00 13.1 C 8.9 g/m*3 13.1 C 0 km/h
15 02-06-2014 01:10:00 13.1 C 9.01 g/m*3 13.1 C 0 km/h
16 02-06-2014 01:15:00 13.1 C 8.56 g/m*3 13.1 C 0 km/h
17 02-06-2014 01:20:00 13.2 C 8.73 g/m*3 13.2 C 1.6 km/h
18 02-06-2014 01:25:00 13.2 C 8.73 g/m*3 13.2 C 1.6 km/h
19 02-06-2014 01:30:00 13.3 C 9.01 g/m*3 13.3 C 0 km/h
20 02-06-2014 01:35:00 13.2 C 8.84 g/m*3 13.2 C 0 km/h
21 02-06-2014 01:40:00 13.1 C 8.79 g/m*3 13.1 C 0 km/h
22 02-06-2014 01:45:00 12.9 C 8.9 g/m*3 12.9 C 0 km/h
23 02-06-2014 01:50:00 12.7 C 8.68 g/m*3 12.7 C 0 km/h
24 02-06-2014 01:55:00 12.3 C 8.47 g/m*3 12.3 C 0 km/h
25 02-06-2014 02:00:00 12.2 C 8.52 g/m*3 12.2 C 1.6 km/h
Sensor: Nr:Datum:Temp:Abs-Feuchte:Windchill:Wind:
Aussen-T/F 26 02-06-2014 02:05:00 12.1 C 8.47 g/m*3 12.1 C 0 km/h
27 02-06-2014 02:10:00 12 C 8.42 g/m*3 12 C 0 km/h
28 02-06-2014 02:15:00 11.9 C 8.37 g/m*3 11.9 C 0 km/h
29 02-06-2014 02:20:00 11.8 C 8.42 g/m*3 11.8 C 0 km/h
30 02-06-2014 02:25:00 11.7 C 8.47 g/m*3 11.7 C 0 km/h
31 02-06-2014 02:30:00 11.6 C 8.42 g/m*3 11.6 C 0 km/h
32 02-06-2014 02:35:00 11.4 C 8.31 g/m*3 11.4 C 0 km/h
33 02-06-2014 02:40:00 11.3 C 8.36 g/m*3 11.3 C 0 km/h
34 02-06-2014 02:45:00 11.2 C 8.21 g/m*3 11.2 C 0 km/h
35 02-06-2014 02:50:00 11.1 C 8.26 g/m*3 11.1 C 0 km/h
36 02-06-2014 02:55:00 10.9 C 8.26 g/m*3 10.9 C 0 km/h
37 02-06-2014 03:00:00 10.8 C 8.2 g/m*3 10.8 C 0 km/h
38 02-06-2014 03:05:00 10.7 C 8.25 g/m*3 10.7 C 0 km/h
39 02-06-2014 03:10:00 10.6 C 8.2 g/m*3 10.6 C 0 km/h
40 02-06-2014 03:15:00 10.5 C 8.15 g/m*3 10.5 C 0 km/h
41 02-06-2014 03:20:00 10.4 C 8.19 g/m*3 10.4 C 0 km/h
42 02-06-2014 03:25:00 10.3 C 8.14 g/m*3 10.3 C 0 km/h
43 02-06-2014 03:30:00 10.2 C 8.18 g/m*3 10.2 C 0 km/h
44 02-06-2014 03:35:00 10.1 C 8.13 g/m*3 10.1 C 0 km/h
45 02-06-2014 03:40:00 10.1 C 8.13 g/m*3 10.1 C 0 km/h
46 02-06-2014 03:45:00 10 C 8.08 g/m*3 10 C 0 km/h
47 02-06-2014 03:50:00 9.9 C 8.12 g/m*3 9.9 C 0 km/h
48 02-06-2014 03:55:00 9.8 C 8.07 g/m*3 9.8 C 0 km/h
49 02-06-2014 04:00:00 9.7 C 8.02 g/m*3 9.7 C 0 km/h
50 02-06-2014 04:05:00 9.7 C 8.02 g/m*3 9.7 C 0 km/h
Sensor: Nr:Datum:Temp:Abs-Feuchte:Windchill:Wind:
Aussen-T/F 51 02-06-2014 04:10:00 9.6 C 8.06 g/m*3 9.6 C 0 km/h
52 02-06-2014 04:15:00 9.5 C 8.01 g/m*3 9.5 C 0 km/h
53 02-06-2014 04:20:00 9.4 C 8.05 g/m*3 9.4 C 0 km/h
54 02-06-2014 04:25:00 9.4 C 8.05 g/m*3 9.4 C 0 km/h
55 02-06-2014 04:30:00 9.3 C 8 g/m*3 9.3 C 0 km/h
56 02-06-2014 04:35:00 9.3 C 8 g/m*3 9.3 C 0 km/h
57 02-06-2014 04:40:00 9.2 C 8.04 g/m*3 9.2 C 0 km/h
58 02-06-2014 04:45:00 9.2 C 8.04 g/m*3 9.2 C 0 km/h
59 02-06-2014 04:50:00 9.1 C 7.9 g/m*3 9.1 C 0 km/h
60 02-06-2014 04:55:00 9.1 C 7.99 g/m*3 9.1 C 0 km/h
61 02-06-2014 05:00:00 9.1 C 7.99 g/m*3 9.1 C 0 km/h
62 02-06-2014 05:05:00 8.9 C 7.88 g/m*3 8.9 C 0 km/h
63 02-06-2014 05:10:00 8.9 C 7.88 g/m*3 8.9 C 0 km/h
64 02-06-2014 05:15:00 8.8 C 7.92 g/m*3 8.8 C 0 km/h
65 02-06-2014 05:20:00 8.8 C 7.92 g/m*3 8.8 C 0 km/h
66 02-06-2014 05:25:00 8.8 C 7.92 g/m*3 8.8 C 0 km/h
67 02-06-2014 05:30:00 8.7 C 7.87 g/m*3 8.7 C 0 km/h
68 02-06-2014 05:35:00 8.7 C 7.96 g/m*3 8.7 C 0 km/h
69 02-06-2014 05:40:00 8.7 C 7.96 g/m*3 8.7 C 0 km/h
70 02-06-2014 05:45:00 8.7 C 7.96 g/m*3 8.7 C 0 km/h
71 02-06-2014 05:50:00 8.7 C 7.96 g/m*3 8.7 C 0 km/h
72 02-06-2014 05:55:00 8.7 C 7.96 g/m*3 8.7 C 0 km/h
73 02-06-2014 06:00:00 8.7 C 7.96 g/m*3 8.7 C 0 km/h
74 02-06-2014 06:05:00 8.7 C 7.96 g/m*3 8.7 C 0 km/h
75 02-06-2014 06:10:00 8.7 C 7.96 g/m*3 8.7 C 0 km/h
Sensor: Nr:Datum:Temp:Abs-Feuchte:Windchill:Wind:
Aussen-T/F 76 02-06-2014 06:15:00 8.7 C 7.96 g/m*3 8.7 C 0 km/h
77 02-06-2014 06:20:00 8.7 C 7.96 g/m*3 8.7 C 1.6 km/h
78 02-06-2014 06:25:00 8.8 C 8.01 g/m*3 8.8 C 0 km/h
79 02-06-2014 06:30:00 8.8 C 8.09 g/m*3 8.8 C 0 km/h
80 02-06-2014 06:35:00 8.8 C 8.09 g/m*3 8.8 C 0 km/h
81 02-06-2014 06:40:00 8.8 C 8.09 g/m*3 8.8 C 0 km/h
82 02-06-2014 06:45:00 8.9 C 8.15 g/m*3 8.9 C 1.6 km/h
83 02-06-2014 06:50:00 8.9 C 8.15 g/m*3 8.9 C 0 km/h
84 02-06-2014 06:55:00 9 C 8.11 g/m*3 9 C 0 km/h
85 02-06-2014 07:00:00 9.1 C 8.16 g/m*3 9.1 C 0 km/h
86 02-06-2014 07:05:00 9.2 C 8.3 g/m*3 9.2 C 3.2 km/h
87 02-06-2014 07:10:00 9.4 C 8.32 g/m*3 8.68 C 6.4 km/h
88 02-06-2014 07:15:00 9.5 C 8.28 g/m*3 9.5 C 4.8 km/h
89 02-06-2014 07:20:00 9.6 C 8.34 g/m*3 9.6 C 1.6 km/h
90 02-06-2014 07:25:00 9.7 C 8.3 g/m*3 9.7 C 3.2 km/h
91 02-06-2014 07:30:00 9.8 C 8.35 g/m*3 9.8 C 4.8 km/h
92 02-06-2014 07:35:00 9.8 C 8.26 g/m*3 9.8 C 0 km/h
93 02-06-2014 07:40:00 9.9 C 8.31 g/m*3 9.9 C 0 km/h
94 02-06-2014 07:45:00 9.9 C 8.4 g/m*3 9.9 C 3.2 km/h
95 02-06-2014 07:50:00 10.2 C 8.56 g/m*3 10.2 C 0 km/h
96 02-06-2014 07:55:00 10.4 C 8.67 g/m*3 10.4 C 0 km/h
97 02-06-2014 08:00:00 10.7 C 8.74 g/m*3 10.7 C 0 km/h
98 02-06-2014 08:05:00 11.1 C 8.96 g/m*3 11.1 C 0 km/h
99 02-06-2014 08:10:00 11.2 C 8.92 g/m*3 11.2 C 0 km/h
100 02-06-2014 08:15:00 11.4 C 9.03 g/m*3 11.4 C 0 km/h
Sensor: Nr:Datum:Temp:Abs-Feuchte:Windchill:Wind:
Aussen-T/F 101 02-06-2014 08:20:00 11.6 C 8.94 g/m*3 11.6 C 0 km/h
102 02-06-2014 08:25:00 11.8 C 9.05 g/m*3 11.8 C 0 km/h
103 02-06-2014 08:30:00 11.9 C 9 g/m*3 11.9 C 0 km/h
104 02-06-2014 08:35:00 11.9 C 9 g/m*3 11.9 C 0 km/h
105 02-06-2014 08:40:00 11.9 C 9 g/m*3 11.9 C 0 km/h
106 02-06-2014 09:15:00 14.2 C 12.21 g/m*3 14.2 C 0 km/h
107 02-06-2014 09:20:00 14.2 C 9.65 g/m*3 14.2 C 0 km/h
108 02-06-2014 09:25:00 14.1 C 9.34 g/m*3 14.1 C 0 km/h
109 02-06-2014 09:30:00 14.1 C 9.47 g/m*3 14.1 C 0 km/h
110 02-06-2014 09:35:00 14.2 C 9.52 g/m*3 14.2 C 3.2 km/h
111 02-06-2014 09:40:00 14.5 C 9.7 g/m*3 14.5 C 3.2 km/h
112 02-06-2014 09:45:00 14.7 C 9.44 g/m*3 14.7 C 1.6 km/h
113 02-06-2014 09:50:00 14.8 C 9.5 g/m*3 14.8 C 1.6 km/h
114 02-06-2014 09:55:00 14.9 C 9.43 g/m*3 14.9 C 3.2 km/h
115 02-06-2014 10:00:00 15.2 C 9.73 g/m*3 15.2 C 4.8 km/h
116 02-06-2014 10:05:00 15.2 C 9.73 g/m*3 15.2 C 3.2 km/h
117 02-06-2014 10:10:00 15.5 C 9.52 g/m*3 15.5 C 1.6 km/h
118 02-06-2014 10:15:00 15.6 C 9.31 g/m*3 15.6 C 3.2 km/h
119 02-06-2014 10:20:00 15.7 C 9.77 g/m*3 15.7 C 3.2 km/h
120 02-06-2014 10:25:00 15.9 C 9.34 g/m*3 15.9 C 1.6 km/h
121 02-06-2014 10:30:00 16 C 9.95 g/m*3 16 C 1.6 km/h
122 02-06-2014 10:35:00 16.1 C 9.87 g/m*3 16.1 C 3.2 km/h
123 02-06-2014 10:40:00 16.1 C 9.87 g/m*3 16.1 C 3.2 km/h
124 02-06-2014 12:25:00 20.8 C 9.05 g/m*3 20.8 C 4.8 km/h
125 02-06-2014 12:30:00 20.8 C 9.05 g/m*3 20.8 C 8.1 km/h
Sensor: Nr:Datum:Temp:Abs-Feuchte:Windchill:Wind:
Aussen-T/F 126 02-06-2014 12:35:00 20.8 C 9.05 g/m*3 20.8 C 9.7 km/h
127 02-06-2014 13:25:00 20.9 C 8.92 g/m*3 20.9 C 3.2 km/h
128 02-06-2014 13:30:00 20.8 C 8.87 g/m*3 20.8 C 6.4 km/h
129 02-06-2014 13:35:00 20.8 C 8.87 g/m*3 20.8 C 6.4 km/h
130 02-06-2014 13:40:00 21.2 C 8.71 g/m*3 21.2 C 9.7 km/h
131 02-06-2014 13:45:00 21.2 C 8.71 g/m*3 21.2 C 8.1 km/h
132 02-06-2014 13:50:00 21.3 C 8.39 g/m*3 21.3 C 3.2 km/h
133 02-06-2014 13:55:00 21.3 C 9.13 g/m*3 21.3 C 9.7 km/h
134 02-06-2014 14:00:00 21.3 C 9.13 g/m*3 21.3 C 9.7 km/h
135 02-06-2014 14:05:00 21.3 C 9.13 g/m*3 21.3 C 9.7 km/h
136 02-06-2014 14:10:00 21.4 C 9.19 g/m*3 21.4 C 8.1 km/h
137 02-06-2014 14:15:00 21.4 C 9.56 g/m*3 21.4 C 3.2 km/h
138 02-06-2014 14:20:00 21.7 C 8.97 g/m*3 21.7 C 4.8 km/h
139 02-06-2014 14:25:00 21.8 C 9.59 g/m*3 21.8 C 9.7 km/h
140 02-06-2014 14:30:00 22.2 C 9.03 g/m*3 22.2 C 9.7 km/h
141 02-06-2014 14:35:00 22 C 8.73 g/m*3 22 C 6.4 km/h
142 02-06-2014 14:40:00 21.9 C 8.68 g/m*3 21.9 C 4.8 km/h
143 02-06-2014 14:45:00 22.2 C 9.03 g/m*3 22.2 C 6.4 km/h
144 02-06-2014 14:50:00 22.4 C 8.94 g/m*3 22.4 C 11.3 km/h
145 02-06-2014 14:55:00 22.6 C 8.84 g/m*3 22.6 C 4.8 km/h
146 02-06-2014 15:00:00 22.7 C 8.89 g/m*3 22.7 C 12.9 km/h
147 02-06-2014 15:05:00 22.6 C 8.64 g/m*3 22.6 C 12.9 km/h
148 02-06-2014 15:10:00 22.1 C 8.39 g/m*3 22.1 C 6.4 km/h
149 02-06-2014 15:15:00 21.9 C 8.68 g/m*3 21.9 C 6.4 km/h
150 02-06-2014 15:20:00 22.1 C 8.78 g/m*3 22.1 C 6.4 km/h
Sensor: Nr:Datum:Temp:Abs-Feuchte:Windchill:Wind:
Aussen-T/F 151 02-06-2014 15:25:00 22.3 C 8.69 g/m*3 22.3 C 6.4 km/h
152 02-06-2014 15:30:00 22.6 C 8.84 g/m*3 22.6 C 6.4 km/h
153 02-06-2014 15:35:00 22.6 C 8.84 g/m*3 22.6 C 4.8 km/h
154 02-06-2014 15:40:00 22.7 C 8.69 g/m*3 22.7 C 4.8 km/h
155 02-06-2014 15:45:00 22.8 C 9.14 g/m*3 22.8 C 4.8 km/h
156 02-06-2014 15:50:00 23.2 C 8.52 g/m*3 23.2 C 1.6 km/h
157 02-06-2014 15:55:00 23.2 C 8.11 g/m*3 23.2 C 4.8 km/h
158 02-06-2014 16:00:00 22.5 C 8.59 g/m*3 22.5 C 1.6 km/h
159 02-06-2014 16:05:00 22.1 C 8.2 g/m*3 22.1 C 4.8 km/h
160 02-06-2014 16:10:00 21.8 C 8.06 g/m*3 21.8 C 8.1 km/h
161 02-06-2014 16:15:00 21.8 C 8.06 g/m*3 21.8 C 6.4 km/h
162 02-06-2014 16:20:00 22.5 C 8.99 g/m*3 22.5 C 8.1 km/h
163 02-06-2014 16:25:00 23.1 C 8.68 g/m*3 23.1 C 9.7 km/h
164 02-06-2014 16:30:00 23.2 C 8.52 g/m*3 23.2 C 9.7 km/h
165 02-06-2014 16:35:00 23.4 C 9.46 g/m*3 23.4 C 9.7 km/h
166 02-06-2014 16:40:00 23.8 C 8.6 g/m*3 23.8 C 6.4 km/h
167 02-06-2014 16:45:00 23.6 C 8.72 g/m*3 23.6 C 6.4 km/h
168 02-06-2014 16:50:00 23.7 C 8.77 g/m*3 23.7 C 6.4 km/h
169 02-06-2014 16:55:00 23.6 C 8.29 g/m*3 23.6 C 8.1 km/h
170 02-06-2014 17:00:00 23.4 C 8.83 g/m*3 23.4 C 6.4 km/h
171 02-06-2014 17:05:00 23.6 C 8.93 g/m*3 23.6 C 11.3 km/h
172 02-06-2014 17:10:00 23.8 C 8.39 g/m*3 23.8 C 8.1 km/h
173 02-06-2014 17:15:00 23.7 C 8.13 g/m*3 23.7 C 11.3 km/h
174 02-06-2014 17:20:00 23.7 C 8.56 g/m*3 23.7 C 8.1 km/h
175 02-06-2014 17:25:00 23.7 C 8.56 g/m*3 23.7 C 8.1 km/h
Sensor: Nr:Datum:Temp:Abs-Feuchte:Windchill:Wind:
Aussen-T/F 176 02-06-2014 17:30:00 23.8 C 8.82 g/m*3 23.8 C 11.3 km/h
177 02-06-2014 17:35:00 23.8 C 8.82 g/m*3 23.8 C 6.4 km/h
178 02-06-2014 17:40:00 23.8 C 8.39 g/m*3 23.8 C 4.8 km/h
179 02-06-2014 17:45:00 24 C 8.27 g/m*3 24 C 8.1 km/h
180 02-06-2014 17:50:00 24 C 8.27 g/m*3 24 C 6.4 km/h
181 02-06-2014 18:30:00 23.7 C 8.56 g/m*3 23.7 C 6.4 km/h
182 02-06-2014 18:35:00 23.6 C 8.93 g/m*3 23.6 C 9.7 km/h
183 02-06-2014 18:40:00 23.6 C 8.29 g/m*3 23.6 C 8.1 km/h
184 02-06-2014 18:45:00 23.7 C 8.56 g/m*3 23.7 C 6.4 km/h
185 02-06-2014 18:50:00 23.6 C 8.29 g/m*3 23.6 C 8.1 km/h
186 02-06-2014 18:55:00 23.5 C 8.46 g/m*3 23.5 C 4.8 km/h
187 02-06-2014 19:00:00 23.5 C 8.46 g/m*3 23.5 C 4.8 km/h
188 02-06-2014 19:05:00 23.4 C 8.41 g/m*3 23.4 C 8.1 km/h
189 02-06-2014 19:10:00 23.4 C 8.2 g/m*3 23.4 C 9.7 km/h
190 02-06-2014 19:15:00 22.8 C 8.13 g/m*3 22.8 C 6.4 km/h
191 02-06-2014 19:20:00 22.5 C 8.19 g/m*3 22.5 C 8.1 km/h
192 02-06-2014 19:25:00 22.4 C 8.14 g/m*3 22.4 C 8.1 km/h
193 02-06-2014 19:30:00 22.3 C 8.29 g/m*3 22.3 C 9.7 km/h
194 02-06-2014 19:35:00 22.1 C 8.39 g/m*3 22.1 C 8.1 km/h
195 02-06-2014 19:40:00 22 C 8.15 g/m*3 22 C 4.8 km/h
196 02-06-2014 19:45:00 21.8 C 8.25 g/m*3 21.8 C 6.4 km/h
197 02-06-2014 19:50:00 21.7 C 8.01 g/m*3 21.7 C 6.4 km/h
198 02-06-2014 19:55:00 21.6 C 7.97 g/m*3 21.6 C 3.2 km/h
199 02-06-2014 20:00:00 21.4 C 7.87 g/m*3 21.4 C 4.8 km/h
200 02-06-2014 20:05:00 21.3 C 8.02 g/m*3 21.3 C 4.8 km/h
Sensor: Nr:Datum:Temp:Abs-Feuchte:Windchill:Wind:
Aussen-T/F 201 02-06-2014 20:10:00 21.2 C 7.97 g/m*3 21.2 C 4.8 km/h
202 02-06-2014 20:15:00 21.1 C 7.92 g/m*3 21.1 C 6.4 km/h
203 02-06-2014 20:20:00 20.9 C 8.2 g/m*3 20.9 C 3.2 km/h
204 02-06-2014 20:25:00 20.8 C 7.97 g/m*3 20.8 C 3.2 km/h
205 02-06-2014 20:30:00 20.4 C 9.73 g/m*3 20.4 C 6.4 km/h
206 02-06-2014 20:35:00 19.7 C 9.51 g/m*3 19.7 C 1.6 km/h
207 02-06-2014 20:40:00 19.3 C 9.79 g/m*3 19.3 C 1.6 km/h
208 02-06-2014 20:45:00 18.9 C 10.53 g/m*3 18.9 C 0 km/h
209 02-06-2014 20:50:00 18.6 C 10.35 g/m*3 18.6 C 0 km/h
210 02-06-2014 20:55:00 18.2 C 10.26 g/m*3 18.2 C 0 km/h
211 02-06-2014 21:00:00 17.8 C 10.17 g/m*3 17.8 C 0 km/h
212 02-06-2014 21:05:00 17.6 C 9.9 g/m*3 17.6 C 0 km/h
213 02-06-2014 21:10:00 17.4 C 9.93 g/m*3 17.4 C 0 km/h
214 02-06-2014 21:15:00 17.2 C 9.96 g/m*3 17.2 C 0 km/h
215 02-06-2014 21:20:00 17 C 9.98 g/m*3 17 C 0 km/h
216 02-06-2014 21:25:00 16.8 C 10.01 g/m*3 16.8 C 1.6 km/h
217 02-06-2014 21:30:00 16.7 C 9.81 g/m*3 16.7 C 0 km/h
218 02-06-2014 21:35:00 16.6 C 9.89 g/m*3 16.6 C 1.6 km/h
219 02-06-2014 21:40:00 16.5 C 9.97 g/m*3 16.5 C 1.6 km/h
220 02-06-2014 21:45:00 16.4 C 9.35 g/m*3 16.4 C 0 km/h
221 02-06-2014 21:50:00 16.3 C 9.57 g/m*3 16.3 C 0 km/h
222 02-06-2014 21:55:00 16.3 C 9.57 g/m*3 16.3 C 0 km/h
223 02-06-2014 22:00:00 16.3 C 9.57 g/m*3 16.3 C 0 km/h
224 02-06-2014 22:05:00 16.2 C 9.38 g/m*3 16.2 C 0 km/h
225 02-06-2014 22:10:00 16.2 C 9.24 g/m*3 16.2 C 0 km/h
Sensor: Nr:Datum:Temp:Abs-Feuchte:Windchill:Wind:
Aussen-T/F 226 02-06-2014 22:15:00 16.1 C 9.46 g/m*3 16.1 C 0 km/h
227 02-06-2014 22:20:00 16 C 9.4 g/m*3 16 C 0 km/h
228 02-06-2014 22:25:00 15.9 C 9.48 g/m*3 15.9 C 0 km/h
229 02-06-2014 22:30:00 15.9 C 9.48 g/m*3 15.9 C 0 km/h
230 02-06-2014 22:35:00 15.9 C 9.48 g/m*3 15.9 C 0 km/h
231 02-06-2014 22:40:00 15.9 C 9.75 g/m*3 15.9 C 0 km/h
232 02-06-2014 22:45:00 15.9 C 9.75 g/m*3 15.9 C 0 km/h
233 02-06-2014 22:50:00 15.9 C 9.34 g/m*3 15.9 C 0 km/h
234 02-06-2014 22:55:00 15.9 C 9.62 g/m*3 15.9 C 0 km/h
235 02-06-2014 23:00:00 15.9 C 9.34 g/m*3 15.9 C 0 km/h
236 02-06-2014 23:05:00 15.8 C 9.42 g/m*3 15.8 C 0 km/h
237 02-06-2014 23:10:00 15.8 C 9.29 g/m*3 15.8 C 0 km/h
238 02-06-2014 23:15:00 15.8 C 9.29 g/m*3 15.8 C 0 km/h
239 02-06-2014 23:20:00 15.8 C 9.69 g/m*3 15.8 C 0 km/h
240 02-06-2014 23:25:00 15.7 C 9.37 g/m*3 15.7 C 0 km/h
241 02-06-2014 23:30:00 15.7 C 9.5 g/m*3 15.7 C 0 km/h
242 02-06-2014 23:35:00 15.5 C 9.25 g/m*3 15.5 C 1.6 km/h
243 02-06-2014 23:40:00 15.4 C 9.2 g/m*3 15.4 C 0 km/h
244 02-06-2014 23:45:00 15.3 C 9.14 g/m*3 15.3 C 1.6 km/h
245 02-06-2014 23:50:00 15.2 C 9.35 g/m*3 15.2 C 0 km/h
246 02-06-2014 23:55:00 15.1 C 9.16 g/m*3 15.1 C 0 km/h
247 03-06-2014 00:00:00 15 C 9.23 g/m*3 15 C 0 km/h
248 03-06-2014 00:05:00 14.9 C 9.3 g/m*3 14.9 C 0 km/h
249 03-06-2014 00:10:00 14.8 C 9.25 g/m*3 14.8 C 0 km/h
250 03-06-2014 00:15:00 14.8 C 9.37 g/m*3 14.8 C 0 km/h
Sensor: Nr:Datum:Temp:Abs-Feuchte:Windchill:Wind:
Aussen-T/F 251 03-06-2014 00:20:00 14.7 C 9.19 g/m*3 14.7 C 0 km/h
252 03-06-2014 00:25:00 14.7 C 9.32 g/m*3 14.7 C 0 km/h
253 03-06-2014 00:30:00 14.6 C 9.26 g/m*3 14.6 C 0 km/h
254 03-06-2014 00:35:00 14.6 C 9.39 g/m*3 14.6 C 0 km/h
255 03-06-2014 00:40:00 14.4 C 9.27 g/m*3 14.4 C 0 km/h
256 03-06-2014 00:45:00 14.2 C 9.16 g/m*3 14.2 C 0 km/h
257 03-06-2014 00:50:00 14.1 C 9.22 g/m*3 14.1 C 0 km/h
258 03-06-2014 00:55:00 14 C 9.17 g/m*3 14 C 0 km/h
259 03-06-2014 01:00:00 13.9 C 9.11 g/m*3 13.9 C 0 km/h
260 03-06-2014 01:05:00 13.8 C 9.17 g/m*3 13.8 C 0 km/h
261 03-06-2014 01:10:00 13.7 C 9.24 g/m*3 13.7 C 0 km/h
262 03-06-2014 01:15:00 13.7 C 9.24 g/m*3 13.7 C 0 km/h
263 03-06-2014 01:20:00 13.6 C 9.18 g/m*3 13.6 C 0 km/h
264 03-06-2014 01:25:00 13.4 C 9.18 g/m*3 13.4 C 0 km/h
265 03-06-2014 01:30:00 13.4 C 9.18 g/m*3 13.4 C 0 km/h
266 03-06-2014 01:35:00 13.3 C 9.13 g/m*3 13.3 C 0 km/h
267 03-06-2014 01:40:00 13.2 C 9.07 g/m*3 13.2 C 0 km/h
268 03-06-2014 01:45:00 13.2 C 9.07 g/m*3 13.2 C 0 km/h
269 03-06-2014 01:50:00 13.1 C 9.13 g/m*3 13.1 C 0 km/h
270 03-06-2014 01:55:00 12.9 C 9.02 g/m*3 12.9 C 0 km/h
271 03-06-2014 02:00:00 12.8 C 9.07 g/m*3 12.8 C 0 km/h
272 03-06-2014 02:05:00 12.7 C 9.02 g/m*3 12.7 C 3.2 km/h
273 03-06-2014 02:10:00 12.7 C 9.02 g/m*3 12.7 C 3.2 km/h
274 03-06-2014 02:15:00 12.5 C 8.91 g/m*3 12.5 C 0 km/h
275 03-06-2014 02:20:00 12.4 C 8.96 g/m*3 12.4 C 0 km/h
Sensor: Nr:Datum:Temp:Abs-Feuchte:Windchill:Wind:
Aussen-T/F 276 03-06-2014 02:25:00 12.3 C 8.9 g/m*3 12.3 C 0 km/h
277 03-06-2014 02:30:00 12.2 C 8.85 g/m*3 12.2 C 0 km/h
278 03-06-2014 02:35:00 12.1 C 8.79 g/m*3 12.1 C 0 km/h
279 03-06-2014 02:40:00 11.9 C 8.79 g/m*3 11.9 C 0 km/h
280 03-06-2014 02:45:00 11.8 C 8.74 g/m*3 11.8 C 0 km/h
281 03-06-2014 02:50:00 11.8 C 8.74 g/m*3 11.8 C 0 km/h
282 03-06-2014 02:55:00 11.7 C 8.79 g/m*3 11.7 C 0 km/h
283 03-06-2014 03:00:00 11.7 C 8.79 g/m*3 11.7 C 0 km/h
284 03-06-2014 03:05:00 11.5 C 8.78 g/m*3 11.5 C 0 km/h
285 03-06-2014 03:10:00 11.4 C 8.72 g/m*3 11.4 C 0 km/h
286 03-06-2014 03:15:00 11.3 C 8.67 g/m*3 11.3 C 0 km/h
287 03-06-2014 03:20:00 11.2 C 8.62 g/m*3 11.2 C 0 km/h
288 03-06-2014 03:25:00 11.1 C 8.66 g/m*3 11.1 C 0 km/h
289 03-06-2014 03:30:00 11.1 C 8.66 g/m*3 11.1 C 0 km/h
290 03-06-2014 03:35:00 10.9 C 8.55 g/m*3 10.9 C 0 km/h
291 03-06-2014 03:40:00 10.9 C 8.55 g/m*3 10.9 C 0 km/h
292 03-06-2014 03:45:00 10.8 C 8.6 g/m*3 10.8 C 0 km/h
293 03-06-2014 03:50:00 10.8 C 8.6 g/m*3 10.8 C 0 km/h
294 03-06-2014 03:55:00 10.8 C 8.6 g/m*3 10.8 C 0 km/h
295 03-06-2014 04:00:00 10.7 C 8.55 g/m*3 10.7 C 0 km/h
296 03-06-2014 04:05:00 10.6 C 8.49 g/m*3 10.6 C 0 km/h
297 03-06-2014 04:10:00 10.5 C 8.53 g/m*3 10.5 C 0 km/h
298 03-06-2014 04:15:00 10.4 C 8.48 g/m*3 10.4 C 0 km/h
299 03-06-2014 04:20:00 10.4 C 8.48 g/m*3 10.4 C 0 km/h
300 03-06-2014 04:25:00 10.3 C 8.52 g/m*3 10.3 C 0 km/h
Sensor: Nr:Datum:Temp:Abs-Feuchte:Windchill:Wind:
Aussen-T/F 301 03-06-2014 04:30:00 10.3 C 8.52 g/m*3 10.3 C 0 km/h
302 03-06-2014 04:35:00 10.2 C 8.47 g/m*3 10.2 C 0 km/h
303 03-06-2014 04:40:00 10.2 C 8.47 g/m*3 10.2 C 0 km/h
304 03-06-2014 04:45:00 10.1 C 8.51 g/m*3 10.1 C 0 km/h
305 03-06-2014 04:50:00 10.1 C 8.51 g/m*3 10.1 C 0 km/h
306 03-06-2014 04:55:00 10 C 8.46 g/m*3 10 C 0 km/h
307 03-06-2014 05:00:00 9.9 C 8.4 g/m*3 9.9 C 0 km/h
308 03-06-2014 05:05:00 9.9 C 8.5 g/m*3 9.9 C 0 km/h
309 03-06-2014 05:10:00 9.9 C 8.5 g/m*3 9.9 C 0 km/h
310 03-06-2014 05:15:00 9.9 C 8.5 g/m*3 9.9 C 0 km/h
311 03-06-2014 05:20:00 9.8 C 8.44 g/m*3 9.8 C 0 km/h
312 03-06-2014 05:25:00 9.8 C 8.44 g/m*3 9.8 C 0 km/h
313 03-06-2014 05:30:00 9.8 C 8.54 g/m*3 9.8 C 0 km/h
314 03-06-2014 05:35:00 9.8 C 8.54 g/m*3 9.8 C 0 km/h
315 03-06-2014 05:40:00 9.8 C 8.54 g/m*3 9.8 C 0 km/h
316 03-06-2014 05:45:00 9.8 C 8.54 g/m*3 9.8 C 0 km/h
317 03-06-2014 05:50:00 9.8 C 8.54 g/m*3 9.8 C 0 km/h
318 03-06-2014 05:55:00 9.8 C 8.54 g/m*3 9.8 C 0 km/h
319 03-06-2014 06:00:00 9.8 C 8.54 g/m*3 9.8 C 0 km/h
320 03-06-2014 06:05:00 9.8 C 8.54 g/m*3 9.8 C 0 km/h
321 03-06-2014 06:10:00 9.9 C 8.68 g/m*3 9.25 C 6.4 km/h
322 03-06-2014 06:15:00 10 C 8.74 g/m*3 9.37 C 6.4 km/h
323 03-06-2014 06:20:00 10.1 C 8.7 g/m*3 10.1 C 0 km/h
324 03-06-2014 06:25:00 10.1 C 8.7 g/m*3 10.1 C 0 km/h
325 03-06-2014 06:30:00 10.2 C 8.76 g/m*3 10.2 C 0 km/h
Sensor: Nr:Datum:Temp:Abs-Feuchte:Windchill:Wind:
Aussen-T/F 326 03-06-2014 06:35:00 10.2 C 8.76 g/m*3 10.2 C 0 km/h
327 03-06-2014 06:40:00 10.3 C 8.81 g/m*3 10.3 C 0 km/h
328 03-06-2014 06:45:00 10.4 C 8.87 g/m*3 10.4 C 0 km/h
329 03-06-2014 06:50:00 10.5 C 8.92 g/m*3 10.5 C 3.2 km/h
330 03-06-2014 06:55:00 10.6 C 8.88 g/m*3 10.6 C 0 km/h
331 03-06-2014 07:00:00 10.7 C 8.94 g/m*3 10.7 C 0 km/h
332 03-06-2014 07:05:00 10.8 C 8.99 g/m*3 10.8 C 0 km/h
333 03-06-2014 07:10:00 10.9 C 9.05 g/m*3 10.9 C 1.6 km/h
334 03-06-2014 07:15:00 11 C 9.01 g/m*3 11 C 3.2 km/h
335 03-06-2014 07:20:00 11.1 C 9.07 g/m*3 11.1 C 3.2 km/h
336 03-06-2014 07:25:00 11.3 C 9.18 g/m*3 11.3 C 4.8 km/h
337 03-06-2014 07:30:00 11.4 C 9.14 g/m*3 11.4 C 4.8 km/h
338 03-06-2014 07:35:00 11.6 C 9.25 g/m*3 11.6 C 3.2 km/h
339 03-06-2014 07:40:00 11.7 C 9.2 g/m*3 11.7 C 4.8 km/h
340 03-06-2014 07:45:00 11.8 C 9.26 g/m*3 11.8 C 4.8 km/h
341 03-06-2014 07:50:00 12.1 C 9.44 g/m*3 12.1 C 3.2 km/h
342 03-06-2014 07:55:00 12.2 C 9.28 g/m*3 12.2 C 4.8 km/h
343 03-06-2014 08:00:00 12.3 C 9.34 g/m*3 12.3 C 4.8 km/h
344 03-06-2014 08:05:00 12.4 C 9.4 g/m*3 12.4 C 3.2 km/h
345 03-06-2014 08:10:00 12.5 C 9.35 g/m*3 12.5 C 3.2 km/h
346 03-06-2014 08:15:00 12.6 C 9.4 g/m*3 12.6 C 1.6 km/h
347 03-06-2014 08:20:00 12.7 C 9.46 g/m*3 12.7 C 1.6 km/h
348 03-06-2014 08:25:00 12.9 C 9.58 g/m*3 12.9 C 1.6 km/h
349 03-06-2014 08:30:00 13.1 C 9.47 g/m*3 13.1 C 3.2 km/h
350 03-06-2014 08:35:00 13.3 C 9.59 g/m*3 13.3 C 1.6 km/h
Sensor: Nr:Datum:Temp:Abs-Feuchte:Windchill:Wind:
Aussen-T/F 351 03-06-2014 08:40:00 13.4 C 9.65 g/m*3 13.4 C 3.2 km/h
352 03-06-2014 08:45:00 13.6 C 9.53 g/m*3 13.6 C 3.2 km/h
353 03-06-2014 08:50:00 13.7 C 9.59 g/m*3 13.7 C 4.8 km/h
354 03-06-2014 08:55:00 13.7 C 9.47 g/m*3 13.7 C 1.6 km/h
355 03-06-2014 09:00:00 13.8 C 9.53 g/m*3 13.8 C 3.2 km/h
356 03-06-2014 09:05:00 13.9 C 9.59 g/m*3 13.9 C 3.2 km/h
357 03-06-2014 09:10:00 14.1 C 9.71 g/m*3 14.1 C 3.2 km/h
358 03-06-2014 09:15:00 14.2 C 9.77 g/m*3 14.2 C 0 km/h
359 03-06-2014 09:20:00 14.3 C 9.95 g/m*3 14.3 C 1.6 km/h
360 03-06-2014 09:25:00 14.4 C 10.01 g/m*3 14.4 C 1.6 km/h
361 03-06-2014 09:30:00 14.4 C 10.01 g/m*3 14.4 C 0 km/h
362 03-06-2014 09:35:00 14.6 C 10.26 g/m*3 14.6 C 0 km/h
363 03-06-2014 09:40:00 14.7 C 10.2 g/m*3 14.7 C 1.6 km/h
364 03-06-2014 09:45:00 14.8 C 10.13 g/m*3 14.8 C 0 km/h
365 03-06-2014 09:50:00 15.1 C 10.19 g/m*3 15.1 C 1.6 km/h
366 03-06-2014 09:55:00 15.5 C 10.18 g/m*3 15.5 C 1.6 km/h
367 03-06-2014 10:00:00 16 C 10.63 g/m*3 16 C 1.6 km/h
368 03-06-2014 10:05:00 16.5 C 10.95 g/m*3 16.5 C 0 km/h
369 03-06-2014 10:10:00 17.1 C 10.77 g/m*3 17.1 C 1.6 km/h
370 03-06-2014 10:15:00 17.4 C 10.67 g/m*3 17.4 C 3.2 km/h
371 03-06-2014 10:20:00 17.8 C 10.62 g/m*3 17.8 C 3.2 km/h
372 03-06-2014 10:25:00 17.9 C 10.69 g/m*3 17.9 C 1.6 km/h
373 03-06-2014 10:30:00 18.2 C 10.72 g/m*3 18.2 C 0 km/h
374 03-06-2014 10:35:00 18.4 C 10.85 g/m*3 18.4 C 4.8 km/h
375 03-06-2014 10:40:00 18.7 C 10.89 g/m*3 18.7 C 3.2 km/h
Sensor: Nr:Datum:Temp:Abs-Feuchte:Windchill:Wind:
Aussen-T/F 376 03-06-2014 10:45:00 18.9 C 10.37 g/m*3 18.9 C 3.2 km/h
377 03-06-2014 10:50:00 18.9 C 11.02 g/m*3 18.9 C 3.2 km/h
378 03-06-2014 10:55:00 18.9 C 10.85 g/m*3 18.9 C 1.6 km/h
379 03-06-2014 11:00:00 18.8 C 10.79 g/m*3 18.8 C 1.6 km/h
380 03-06-2014 11:05:00 18.7 C 10.73 g/m*3 18.7 C 0 km/h
381 03-06-2014 11:10:00 18.6 C 11.46 g/m*3 18.6 C 0 km/h
382 03-06-2014 11:15:00 18.6 C 11.14 g/m*3 18.6 C 3.2 km/h
383 03-06-2014 11:20:00 18.6 C 11.14 g/m*3 18.6 C 3.2 km/h
384 03-06-2014 11:25:00 18.9 C 11.18 g/m*3 18.9 C 3.2 km/h
385 03-06-2014 11:30:00 19.3 C 10.78 g/m*3 19.3 C 3.2 km/h
386 03-06-2014 11:35:00 19.7 C 11.21 g/m*3 19.7 C 3.2 km/h
387 03-06-2014 11:40:00 20.1 C 10.95 g/m*3 20.1 C 3.2 km/h
388 03-06-2014 11:45:00 20.6 C 11.1 g/m*3 20.6 C 6.4 km/h
389 03-06-2014 11:50:00 20.9 C 11.47 g/m*3 20.9 C 4.8 km/h
390 03-06-2014 11:55:00 20.8 C 10.5 g/m*3 20.8 C 4.8 km/h
391 03-06-2014 12:00:00 20.7 C 11.34 g/m*3 20.7 C 1.6 km/h
392 03-06-2014 12:05:00 20.1 C 11.47 g/m*3 20.1 C 0 km/h
393 03-06-2014 12:10:00 19.2 C 11.87 g/m*3 19.2 C 0 km/h
394 03-06-2014 12:15:00 18.6 C 11.62 g/m*3 18.6 C 0 km/h
395 03-06-2014 12:20:00 18 C 11.52 g/m*3 18 C 0 km/h
396 03-06-2014 12:25:00 17.7 C 11.62 g/m*3 17.7 C 0 km/h
397 03-06-2014 12:30:00 17.6 C 11.7 g/m*3 17.6 C 0 km/h
398 03-06-2014 12:35:00 17.6 C 11.55 g/m*3 17.6 C 0 km/h
399 03-06-2014 12:40:00 17.8 C 11.84 g/m*3 17.8 C 0 km/h
400 03-06-2014 12:45:00 18.5 C 11.08 g/m*3 18.5 C 4.8 km/h
Sensor: Nr:Datum:Temp:Abs-Feuchte:Windchill:Wind:
Aussen-T/F 401 03-06-2014 12:50:00 19.7 C 10.53 g/m*3 19.7 C 3.2 km/h
402 03-06-2014 12:55:00 20.4 C 9.73 g/m*3 20.4 C 4.8 km/h
403 03-06-2014 13:00:00 21.1 C 9.58 g/m*3 21.1 C 3.2 km/h
404 03-06-2014 13:05:00 21.8 C 9.98 g/m*3 21.8 C 3.2 km/h
405 03-06-2014 13:10:00 22.2 C 9.42 g/m*3 22.2 C 6.4 km/h
406 03-06-2014 13:15:00 22.4 C 9.14 g/m*3 22.4 C 4.8 km/h
407 03-06-2014 13:20:00 22.7 C 9.5 g/m*3 22.7 C 4.8 km/h
408 03-06-2014 13:25:00 22.9 C 8.99 g/m*3 22.9 C 1.6 km/h
409 03-06-2014 13:30:00 23.1 C 8.27 g/m*3 23.1 C 6.4 km/h
410 03-06-2014 13:35:00 23.3 C 8.36 g/m*3 23.3 C 8.1 km/h
411 03-06-2014 13:40:00 23 C 8.22 g/m*3 23 C 4.8 km/h
412 03-06-2014 13:45:00 23.1 C 8.27 g/m*3 23.1 C 4.8 km/h
413 03-06-2014 13:50:00 23.3 C 8.36 g/m*3 23.3 C 8.1 km/h
414 03-06-2014 13:55:00 23.3 C 8.36 g/m*3 23.3 C 6.4 km/h
415 03-06-2014 14:20:00 21.7 C 10.68 g/m*3 21.7 C 1.6 km/h
416 03-06-2014 14:25:00 21 C 10.62 g/m*3 21 C 4.8 km/h
417 03-06-2014 14:30:00 20.9 C 11.11 g/m*3 20.9 C 1.6 km/h
418 03-06-2014 14:35:00 20.8 C 10.5 g/m*3 20.8 C 1.6 km/h
419 03-06-2014 14:40:00 20.8 C 9.6 g/m*3 20.8 C 14.5 km/h
420 03-06-2014 14:45:00 20.7 C 9.72 g/m*3 20.7 C 14.5 km/h
421 03-06-2014 14:50:00 20.6 C 9.84 g/m*3 20.6 C 6.4 km/h
422 03-06-2014 14:55:00 20.4 C 9.91 g/m*3 20.4 C 4.8 km/h
423 03-06-2014 15:00:00 20.2 C 9.79 g/m*3 20.2 C 6.4 km/h
424 03-06-2014 15:05:00 19.9 C 9.97 g/m*3 19.9 C 9.7 km/h
425 03-06-2014 15:10:00 19.7 C 9.85 g/m*3 19.7 C 8.1 km/h
Sensor: Nr:Datum:Temp:Abs-Feuchte:Windchill:Wind:
Aussen-T/F 426 03-06-2014 15:15:00 19.6 C 9.79 g/m*3 19.6 C 6.4 km/h
427 03-06-2014 15:20:00 19.6 C 9.79 g/m*3 19.6 C 8.1 km/h
428 03-06-2014 15:25:00 19.7 C 9.85 g/m*3 19.7 C 11.3 km/h
429 03-06-2014 15:30:00 19.8 C 9.57 g/m*3 19.8 C 6.4 km/h
430 03-06-2014 15:35:00 19.9 C 9.45 g/m*3 19.9 C 3.2 km/h
431 03-06-2014 15:40:00 20.1 C 9.73 g/m*3 20.1 C 6.4 km/h
432 03-06-2014 15:45:00 20.3 C 10.02 g/m*3 20.3 C 8.1 km/h
433 03-06-2014 15:50:00 20.5 C 9.25 g/m*3 20.5 C 9.7 km/h
434 03-06-2014 15:55:00 20.3 C 9.32 g/m*3 20.3 C 8.1 km/h
435 03-06-2014 16:00:00 20.3 C 9.32 g/m*3 20.3 C 3.2 km/h
436 03-06-2014 16:05:00 20.3 C 9.32 g/m*3 20.3 C 1.6 km/h
437 03-06-2014 16:10:00 20.4 C 9.73 g/m*3 20.4 C 8.1 km/h
438 03-06-2014 16:15:00 20.4 C 10.08 g/m*3 20.4 C 3.2 km/h
439 03-06-2014 16:20:00 20.4 C 9.91 g/m*3 20.4 C 0 km/h
440 03-06-2014 16:25:00 20.3 C 10.55 g/m*3 20.3 C 0 km/h
441 03-06-2014 16:30:00 20.1 C 11.65 g/m*3 20.1 C 0 km/h
442 03-06-2014 16:35:00 19.7 C 11.72 g/m*3 19.7 C 0 km/h
443 03-06-2014 16:40:00 19.4 C 11.51 g/m*3 19.4 C 0 km/h
444 03-06-2014 16:45:00 19.2 C 11.71 g/m*3 19.2 C 0 km/h
445 03-06-2014 16:50:00 19 C 11.41 g/m*3 19 C 0 km/h
446 03-06-2014 16:55:00 18.8 C 11.6 g/m*3 18.8 C 0 km/h
447 03-06-2014 17:00:00 18.8 C 11.6 g/m*3 18.8 C 0 km/h
448 03-06-2014 17:05:00 18.8 C 11.43 g/m*3 18.8 C 0 km/h
449 03-06-2014 17:10:00 18.9 C 11.66 g/m*3 18.9 C 0 km/h
450 03-06-2014 17:15:00 18.9 C 11.83 g/m*3 18.9 C 0 km/h
Sensor: Nr:Datum:Temp:Abs-Feuchte:Windchill:Wind:
Aussen-T/F 451 03-06-2014 17:20:00 18.9 C 11.99 g/m*3 18.9 C 0 km/h
452 03-06-2014 17:25:00 18.9 C 11.99 g/m*3 18.9 C 0 km/h
453 03-06-2014 17:30:00 18.8 C 11.92 g/m*3 18.8 C 0 km/h
454 03-06-2014 17:35:00 18.8 C 12.08 g/m*3 18.8 C 0 km/h
455 03-06-2014 17:40:00 18.9 C 11.99 g/m*3 18.9 C 0 km/h
456 03-06-2014 17:45:00 19.1 C 10.82 g/m*3 19.1 C 0 km/h
457 03-06-2014 17:50:00 19.4 C 11.68 g/m*3 19.4 C 1.6 km/h
458 03-06-2014 17:55:00 19.8 C 11.44 g/m*3 19.8 C 1.6 km/h
459 03-06-2014 18:00:00 20.1 C 10.95 g/m*3 20.1 C 3.2 km/h
460 03-06-2014 18:05:00 20.1 C 10.08 g/m*3 20.1 C 6.4 km/h
461 03-06-2014 18:10:00 20.2 C 10.14 g/m*3 20.2 C 4.8 km/h
462 03-06-2014 18:15:00 20.3 C 10.2 g/m*3 20.3 C 3.2 km/h
463 03-06-2014 18:20:00 20.4 C 11.85 g/m*3 20.4 C 1.6 km/h
464 03-06-2014 18:25:00 20.4 C 12.21 g/m*3 20.4 C 0 km/h
465 03-06-2014 18:30:00 20.3 C 12.31 g/m*3 20.3 C 1.6 km/h
466 03-06-2014 18:35:00 20.4 C 9.91 g/m*3 20.4 C 4.8 km/h
467 03-06-2014 18:40:00 20.9 C 9.83 g/m*3 20.9 C 4.8 km/h
468 03-06-2014 18:45:00 21.4 C 9.75 g/m*3 21.4 C 4.8 km/h
469 03-06-2014 18:50:00 21.7 C 9.73 g/m*3 21.7 C 1.6 km/h
470 03-06-2014 18:55:00 21.5 C 11.5 g/m*3 21.5 C 0 km/h
471 03-06-2014 19:00:00 21.2 C 11.68 g/m*3 21.2 C 0 km/h
472 03-06-2014 19:05:00 20.9 C 11.47 g/m*3 20.9 C 0 km/h
473 03-06-2014 19:10:00 20.5 C 11.57 g/m*3 20.5 C 0 km/h
474 03-06-2014 19:15:00 20.1 C 11.99 g/m*3 20.1 C 0 km/h
475 03-06-2014 19:20:00 19.8 C 11.61 g/m*3 19.8 C 1.6 km/h
Sensor: Nr:Datum:Temp:Abs-Feuchte:Windchill:Wind:
Aussen-T/F 476 03-06-2014 19:25:00 19.6 C 11.48 g/m*3 19.6 C 1.6 km/h
477 03-06-2014 19:30:00 19.3 C 11.78 g/m*3 19.3 C 0 km/h
478 03-06-2014 19:35:00 18.9 C 11.66 g/m*3 18.9 C 0 km/h
479 03-06-2014 19:40:00 18.4 C 11.48 g/m*3 18.4 C 0 km/h
480 03-06-2014 19:45:00 18.1 C 11.59 g/m*3 18.1 C 0 km/h
481 03-06-2014 19:50:00 17.8 C 11.38 g/m*3 17.8 C 0 km/h
482 03-06-2014 19:55:00 17.6 C 11.4 g/m*3 17.6 C 1.6 km/h
483 03-06-2014 20:00:00 17.5 C 11.33 g/m*3 17.5 C 1.6 km/h
484 03-06-2014 20:05:00 17.3 C 11.2 g/m*3 17.3 C 0 km/h
485 03-06-2014 20:10:00 17.2 C 11.28 g/m*3 17.2 C 1.6 km/h
486 03-06-2014 20:15:00 17.2 C 11.13 g/m*3 17.2 C 0 km/h
487 03-06-2014 20:20:00 17.1 C 11.21 g/m*3 17.1 C 0 km/h
488 03-06-2014 20:25:00 16.9 C 11.22 g/m*3 16.9 C 0 km/h
489 03-06-2014 20:30:00 16.9 C 11.08 g/m*3 16.9 C 0 km/h
490 03-06-2014 20:35:00 16.8 C 11.01 g/m*3 16.8 C 0 km/h
491 03-06-2014 20:40:00 16.8 C 11.01 g/m*3 16.8 C 1.6 km/h
492 03-06-2014 20:45:00 16.8 C 11.01 g/m*3 16.8 C 0 km/h
493 03-06-2014 20:50:00 16.9 C 11.22 g/m*3 16.9 C 0 km/h
494 03-06-2014 20:55:00 16.9 C 11.22 g/m*3 16.9 C 0 km/h
495 03-06-2014 21:00:00 16.8 C 11.29 g/m*3 16.8 C 0 km/h
496 03-06-2014 21:05:00 16.8 C 11.29 g/m*3 16.8 C 0 km/h
497 03-06-2014 21:10:00 16.7 C 11.23 g/m*3 16.7 C 1.6 km/h
498 03-06-2014 21:15:00 16.5 C 11.09 g/m*3 16.5 C 0 km/h
499 03-06-2014 21:20:00 16.4 C 10.89 g/m*3 16.4 C 1.6 km/h
500 03-06-2014 21:25:00 16.2 C 10.76 g/m*3 16.2 C 0 km/h
Sensor: Nr:Datum:Temp:Abs-Feuchte:Windchill:Wind:
Aussen-T/F 501 03-06-2014 21:30:00 16.1 C 10.69 g/m*3 16.1 C 0 km/h
502 03-06-2014 21:35:00 15.9 C 10.56 g/m*3 15.9 C 0 km/h
503 03-06-2014 21:40:00 15.8 C 10.36 g/m*3 15.8 C 0 km/h
504 03-06-2014 21:45:00 15.7 C 10.3 g/m*3 15.7 C 0 km/h
505 03-06-2014 21:50:00 15.6 C 10.24 g/m*3 15.6 C 0 km/h
506 03-06-2014 21:55:00 15.4 C 10.12 g/m*3 15.4 C 0 km/h
507 03-06-2014 22:00:00 15.3 C 10.06 g/m*3 15.3 C 0 km/h
508 03-06-2014 22:05:00 15.2 C 10.12 g/m*3 15.2 C 0 km/h
509 03-06-2014 22:10:00 15.1 C 10.06 g/m*3 15.1 C 0 km/h
510 03-06-2014 22:15:00 14.9 C 9.94 g/m*3 14.9 C 0 km/h
511 03-06-2014 22:20:00 14.8 C 10.01 g/m*3 14.8 C 0 km/h
512 03-06-2014 22:25:00 14.7 C 9.95 g/m*3 14.7 C 0 km/h
513 03-06-2014 22:30:00 14.6 C 9.89 g/m*3 14.6 C 0 km/h
514 03-06-2014 22:35:00 14.4 C 9.77 g/m*3 14.4 C 0 km/h
515 03-06-2014 22:40:00 14.3 C 9.83 g/m*3 14.3 C 0 km/h
516 03-06-2014 22:45:00 14.2 C 9.89 g/m*3 14.2 C 0 km/h
517 03-06-2014 22:50:00 14.2 C 9.89 g/m*3 14.2 C 0 km/h
518 03-06-2014 22:55:00 14.1 C 9.83 g/m*3 14.1 C 0 km/h
519 03-06-2014 23:00:00 14 C 9.77 g/m*3 14 C 1.6 km/h
520 03-06-2014 23:05:00 13.9 C 9.71 g/m*3 13.9 C 0 km/h
521 03-06-2014 23:10:00 13.9 C 9.83 g/m*3 13.9 C 0 km/h
522 03-06-2014 23:15:00 13.8 C 9.77 g/m*3 13.8 C 0 km/h
523 03-06-2014 23:20:00 13.7 C 9.71 g/m*3 13.7 C 0 km/h
524 03-06-2014 23:25:00 13.6 C 9.77 g/m*3 13.6 C 0 km/h
525 03-06-2014 23:30:00 13.6 C 9.77 g/m*3 13.6 C 0 km/h
Sensor: Nr:Datum:Temp:Abs-Feuchte:Windchill:Wind:
Aussen-T/F 526 03-06-2014 23:35:00 13.4 C 9.65 g/m*3 13.4 C 0 km/h
527 03-06-2014 23:40:00 13.4 C 9.88 g/m*3 13.4 C 0 km/h
528 03-06-2014 23:45:00 13.5 C 9.83 g/m*3 13.5 C 6.4 km/h
529 03-06-2014 23:50:00 13.4 C 9.76 g/m*3 13.4 C 0 km/h
530 03-06-2014 23:55:00 13.4 C 9.76 g/m*3 13.4 C 0 km/h
531 04-06-2014 00:00:00 13.2 C 9.76 g/m*3 13.2 C 0 km/h
532 04-06-2014 00:05:00 13.2 C 9.76 g/m*3 13.2 C 0 km/h
533 04-06-2014 00:10:00 13.1 C 9.81 g/m*3 13.1 C 1.6 km/h
534 04-06-2014 00:15:00 13.1 C 9.81 g/m*3 13.1 C 0 km/h
535 04-06-2014 00:20:00 13 C 9.75 g/m*3 13 C 0 km/h
536 04-06-2014 00:25:00 13 C 9.75 g/m*3 13 C 0 km/h
537 04-06-2014 00:30:00 12.9 C 9.81 g/m*3 12.9 C 0 km/h
538 04-06-2014 00:35:00 12.9 C 9.69 g/m*3 12.9 C 0 km/h
539 04-06-2014 00:40:00 12.8 C 9.74 g/m*3 12.8 C 0 km/h
540 04-06-2014 00:45:00 12.8 C 9.74 g/m*3 12.8 C 0 km/h
541 04-06-2014 00:50:00 12.8 C 9.74 g/m*3 12.8 C 0 km/h
542 04-06-2014 00:55:00 12.8 C 9.74 g/m*3 12.8 C 0 km/h
543 04-06-2014 01:00:00 12.7 C 9.68 g/m*3 12.7 C 0 km/h
544 04-06-2014 01:05:00 12.7 C 9.68 g/m*3 12.7 C 0 km/h
545 04-06-2014 01:10:00 12.5 C 9.68 g/m*3 12.5 C 0 km/h
546 04-06-2014 01:15:00 12.4 C 9.62 g/m*3 12.4 C 0 km/h
547 04-06-2014 01:20:00 12.3 C 9.56 g/m*3 12.3 C 0 km/h
548 04-06-2014 01:25:00 12.3 C 9.66 g/m*3 12.3 C 0 km/h
549 04-06-2014 01:30:00 12.2 C 9.5 g/m*3 12.2 C 0 km/h
550 04-06-2014 01:35:00 12.1 C 9.54 g/m*3 12.1 C 0 km/h
Sensor: Nr:Datum:Temp:Abs-Feuchte:Windchill:Wind:
Aussen-T/F 551 04-06-2014 01:40:00 11.9 C 9.43 g/m*3 11.9 C 0 km/h
552 04-06-2014 01:45:00 11.9 C 9.43 g/m*3 11.9 C 0 km/h
553 04-06-2014 01:50:00 11.9 C 9.43 g/m*3 11.9 C 0 km/h
554 04-06-2014 01:55:00 11.9 C 9.43 g/m*3 11.9 C 0 km/h
555 04-06-2014 02:00:00 11.8 C 9.47 g/m*3 11.8 C 1.6 km/h
556 04-06-2014 02:05:00 11.8 C 9.47 g/m*3 11.8 C 1.6 km/h
557 04-06-2014 02:10:00 11.8 C 9.47 g/m*3 11.8 C 0 km/h
558 04-06-2014 02:15:00 11.8 C 9.47 g/m*3 11.8 C 0 km/h
559 04-06-2014 02:20:00 11.7 C 9.52 g/m*3 11.7 C 0 km/h
560 04-06-2014 02:25:00 11.7 C 9.52 g/m*3 11.7 C 0 km/h
561 04-06-2014 02:30:00 11.6 C 9.46 g/m*3 11.6 C 0 km/h
562 04-06-2014 02:35:00 11.5 C 9.4 g/m*3 11.5 C 0 km/h
563 04-06-2014 02:40:00 11.4 C 9.34 g/m*3 11.4 C 0 km/h
564 04-06-2014 02:45:00 11.4 C 9.34 g/m*3 11.4 C 0 km/h
565 04-06-2014 02:50:00 11.3 C 9.38 g/m*3 11.3 C 0 km/h
566 04-06-2014 02:55:00 11.3 C 9.38 g/m*3 11.3 C 0 km/h
567 04-06-2014 03:00:00 11.3 C 9.38 g/m*3 11.3 C 0 km/h
568 04-06-2014 03:05:00 11.3 C 9.38 g/m*3 11.3 C 0 km/h
569 04-06-2014 03:10:00 11.2 C 9.33 g/m*3 11.2 C 0 km/h
570 04-06-2014 03:15:00 11.1 C 9.27 g/m*3 11.1 C 0 km/h
571 04-06-2014 03:20:00 11.1 C 9.27 g/m*3 11.1 C 0 km/h
572 04-06-2014 03:25:00 11 C 9.31 g/m*3 11 C 0 km/h
573 04-06-2014 03:30:00 10.9 C 9.25 g/m*3 10.9 C 0 km/h
574 04-06-2014 03:35:00 10.9 C 9.25 g/m*3 10.9 C 0 km/h
575 04-06-2014 03:40:00 10.8 C 9.19 g/m*3 10.8 C 0 km/h
Sensor: Nr:Datum:Temp:Abs-Feuchte:Windchill:Wind:
Aussen-T/F 576 04-06-2014 03:45:00 10.8 C 9.19 g/m*3 10.8 C 0 km/h
577 04-06-2014 03:50:00 10.8 C 9.19 g/m*3 10.8 C 0 km/h
578 04-06-2014 03:55:00 10.8 C 9.19 g/m*3 10.8 C 0 km/h
579 04-06-2014 04:00:00 10.8 C 9.19 g/m*3 10.8 C 0 km/h
580 04-06-2014 04:05:00 10.8 C 9.29 g/m*3 10.8 C 0 km/h
581 04-06-2014 04:10:00 10.8 C 9.29 g/m*3 10.8 C 1.6 km/h
582 04-06-2014 04:15:00 10.7 C 9.23 g/m*3 10.7 C 1.6 km/h
583 04-06-2014 04:20:00 10.7 C 9.23 g/m*3 10.7 C 0 km/h
584 04-06-2014 04:25:00 10.7 C 9.23 g/m*3 10.7 C 0 km/h
585 04-06-2014 04:30:00 10.6 C 9.17 g/m*3 10.6 C 0 km/h
586 04-06-2014 04:35:00 10.5 C 9.12 g/m*3 10.5 C 0 km/h
587 04-06-2014 04:40:00 10.5 C 9.12 g/m*3 10.5 C 0 km/h
588 04-06-2014 04:45:00 10.6 C 9.17 g/m*3 10.6 C 1.6 km/h
589 04-06-2014 04:50:00 10.6 C 9.17 g/m*3 10.6 C 0 km/h
590 04-06-2014 04:55:00 10.6 C 9.17 g/m*3 10.6 C 0 km/h
591 04-06-2014 05:00:00 10.7 C 9.23 g/m*3 10.7 C 0 km/h
592 04-06-2014 05:05:00 10.7 C 9.23 g/m*3 10.7 C 0 km/h
593 04-06-2014 05:10:00 10.8 C 9.39 g/m*3 10.8 C 0 km/h
594 04-06-2014 05:15:00 10.8 C 9.39 g/m*3 10.8 C 0 km/h
595 04-06-2014 05:20:00 10.9 C 9.45 g/m*3 10.9 C 0 km/h
596 04-06-2014 05:25:00 10.9 C 9.35 g/m*3 10.9 C 0 km/h
597 04-06-2014 05:30:00 10.9 C 9.35 g/m*3 10.9 C 0 km/h
598 04-06-2014 05:35:00 10.9 C 9.35 g/m*3 10.9 C 0 km/h
599 04-06-2014 05:40:00 10.9 C 9.35 g/m*3 10.9 C 0 km/h
600 04-06-2014 05:45:00 10.9 C 9.35 g/m*3 10.9 C 0 km/h
Sensor: Nr:Datum:Temp:Abs-Feuchte:Windchill:Wind:
Aussen-T/F 601 04-06-2014 05:50:00 10.9 C 9.35 g/m*3 10.9 C 0 km/h
602 04-06-2014 05:55:00 10.9 C 9.35 g/m*3 10.9 C 0 km/h
603 04-06-2014 06:00:00 10.9 C 9.35 g/m*3 10.9 C 0 km/h
604 04-06-2014 06:05:00 11.1 C 9.47 g/m*3 11.1 C 0 km/h
605 04-06-2014 06:10:00 11.2 C 9.53 g/m*3 11.2 C 1.6 km/h
606 04-06-2014 06:15:00 11.3 C 9.59 g/m*3 11.3 C 0 km/h
607 04-06-2014 06:20:00 11.4 C 9.65 g/m*3 11.4 C 1.6 km/h
608 04-06-2014 06:25:00 11.6 C 9.67 g/m*3 11.6 C 0 km/h
609 04-06-2014 06:30:00 11.7 C 9.73 g/m*3 11.7 C 0 km/h
610 04-06-2014 06:35:00 11.8 C 9.79 g/m*3 11.8 C 0 km/h
611 04-06-2014 06:40:00 11.9 C 9.74 g/m*3 11.9 C 1.6 km/h
612 04-06-2014 06:45:00 12.1 C 9.87 g/m*3 12.1 C 0 km/h
613 04-06-2014 06:50:00 12.1 C 9.76 g/m*3 12.1 C 0 km/h
614 04-06-2014 06:55:00 12.2 C 9.82 g/m*3 12.2 C 0 km/h
615 04-06-2014 07:00:00 12.3 C 9.77 g/m*3 12.3 C 0 km/h
616 04-06-2014 07:05:00 12.4 C 9.83 g/m*3 12.4 C 0 km/h
617 04-06-2014 07:10:00 12.5 C 9.89 g/m*3 12.5 C 0 km/h
618 04-06-2014 07:15:00 12.6 C 9.85 g/m*3 12.6 C 0 km/h
619 04-06-2014 07:20:00 12.7 C 9.91 g/m*3 12.7 C 0 km/h
620 04-06-2014 07:25:00 12.8 C 10.08 g/m*3 12.8 C 1.6 km/h
621 04-06-2014 07:30:00 12.9 C 10.03 g/m*3 12.9 C 0 km/h
622 04-06-2014 07:35:00 13.1 C 10.16 g/m*3 13.1 C 0 km/h
623 04-06-2014 07:40:00 13.3 C 10.17 g/m*3 13.3 C 0 km/h
624 04-06-2014 07:45:00 13.4 C 10.23 g/m*3 13.4 C 0 km/h
625 04-06-2014 07:50:00 13.6 C 10.36 g/m*3 13.6 C 0 km/h
Sensor: Nr:Datum:Temp:Abs-Feuchte:Windchill:Wind:
Aussen-T/F 626 04-06-2014 07:55:00 13.7 C 10.3 g/m*3 13.7 C 0 km/h
627 04-06-2014 08:00:00 13.8 C 10.37 g/m*3 13.8 C 0 km/h
628 04-06-2014 08:05:00 14 C 10.49 g/m*3 14 C 0 km/h
629 04-06-2014 08:10:00 14.4 C 10.75 g/m*3 14.4 C 0 km/h
630 04-06-2014 08:15:00 14.8 C 10.77 g/m*3 14.8 C 1.6 km/h
631 04-06-2014 08:20:00 15.3 C 10.97 g/m*3 15.3 C 1.6 km/h
632 04-06-2014 08:25:00 15.7 C 11.11 g/m*3 15.7 C 1.6 km/h
633 04-06-2014 08:30:00 15.9 C 11.1 g/m*3 15.9 C 1.6 km/h
634 04-06-2014 08:35:00 16.2 C 11.17 g/m*3 16.2 C 1.6 km/h
635 04-06-2014 08:40:00 16.4 C 11.17 g/m*3 16.4 C 1.6 km/h
636 04-06-2014 08:45:00 16.8 C 11.58 g/m*3 16.8 C 1.6 km/h
637 04-06-2014 08:50:00 17.1 C 11.21 g/m*3 17.1 C 6.4 km/h
638 04-06-2014 08:55:00 17.4 C 11.12 g/m*3 17.4 C 4.8 km/h
639 04-06-2014 09:00:00 17.5 C 11.18 g/m*3 17.5 C 3.2 km/h
640 04-06-2014 09:05:00 17.6 C 11.1 g/m*3 17.6 C 1.6 km/h
641 04-06-2014 09:10:00 17.7 C 10.86 g/m*3 17.7 C 9.7 km/h
642 04-06-2014 09:15:00 17.8 C 11.08 g/m*3 17.8 C 3.2 km/h
643 04-06-2014 09:20:00 17.8 C 11.08 g/m*3 17.8 C 4.8 km/h
644 04-06-2014 09:25:00 17.8 C 10.93 g/m*3 17.8 C 3.2 km/h
645 04-06-2014 09:30:00 17.9 C 11.15 g/m*3 17.9 C 8.1 km/h
646 04-06-2014 09:35:00 18.1 C 11.43 g/m*3 18.1 C 4.8 km/h
647 04-06-2014 09:40:00 18.3 C 11.26 g/m*3 18.3 C 4.8 km/h
648 04-06-2014 09:45:00 18.3 C 11.1 g/m*3 18.3 C 14.5 km/h
649 04-06-2014 09:50:00 18.3 C 11.1 g/m*3 18.3 C 12.9 km/h
650 04-06-2014 09:55:00 18.3 C 11.1 g/m*3 18.3 C 4.8 km/h
Sensor: Nr:Datum:Temp:Abs-Feuchte:Windchill:Wind:
Aussen-T/F 651 04-06-2014 11:40:00 20.4 C 12.21 g/m*3 20.4 C 6.4 km/h
652 04-06-2014 11:45:00 20.6 C 12.17 g/m*3 20.6 C 3.2 km/h
653 04-06-2014 11:50:00 20.8 C 11.77 g/m*3 20.8 C 3.2 km/h
654 04-06-2014 11:55:00 20.9 C 11.84 g/m*3 20.9 C 3.2 km/h
655 04-06-2014 12:00:00 21 C 11.54 g/m*3 21 C 8.1 km/h
656 04-06-2014 12:05:00 20.9 C 11.47 g/m*3 20.9 C 3.2 km/h
657 04-06-2014 12:10:00 20.9 C 11.84 g/m*3 20.9 C 3.2 km/h
658 04-06-2014 12:15:00 20.8 C 11.59 g/m*3 20.8 C 3.2 km/h
659 04-06-2014 12:20:00 20.6 C 12.35 g/m*3 20.6 C 1.6 km/h
660 04-06-2014 12:25:00 20.3 C 11.61 g/m*3 20.3 C 3.2 km/h
661 04-06-2014 12:30:00 20.1 C 12.34 g/m*3 20.1 C 0 km/h
662 04-06-2014 12:35:00 19.8 C 11.27 g/m*3 19.8 C 3.2 km/h
663 04-06-2014 12:40:00 19.7 C 11.04 g/m*3 19.7 C 6.4 km/h
664 04-06-2014 12:45:00 19.5 C 10.91 g/m*3 19.5 C 11.3 km/h
665 04-06-2014 12:50:00 19.3 C 10.78 g/m*3 19.3 C 9.7 km/h
666 04-06-2014 12:55:00 19.1 C 10.66 g/m*3 19.1 C 14.5 km/h
667 04-06-2014 13:00:00 18.8 C 10.79 g/m*3 18.8 C 19.3 km/h
668 04-06-2014 13:05:00 18.4 C 10.85 g/m*3 18.4 C 14.5 km/h
669 04-06-2014 13:10:00 18.2 C 11.19 g/m*3 18.2 C 11.3 km/h
670 04-06-2014 13:15:00 17.9 C 11.15 g/m*3 17.9 C 8.1 km/h
671 04-06-2014 13:20:00 17.8 C 10.93 g/m*3 17.8 C 4.8 km/h
672 04-06-2014 13:25:00 17.9 C 11.15 g/m*3 17.9 C 6.4 km/h
673 04-06-2014 13:30:00 18 C 11.21 g/m*3 18 C 9.7 km/h
674 04-06-2014 13:35:00 17.9 C 11.3 g/m*3 17.9 C 12.9 km/h
675 04-06-2014 13:40:00 17.8 C 11.23 g/m*3 17.8 C 8.1 km/h
Sensor: Nr:Datum:Temp:Abs-Feuchte:Windchill:Wind:
Aussen-T/F 676 04-06-2014 13:45:00 17.7 C 11.47 g/m*3 17.7 C 9.7 km/h
677 04-06-2014 13:50:00 17.7 C 12.07 g/m*3 17.7 C 8.1 km/h
678 04-06-2014 13:55:00 17.6 C 12 g/m*3 17.6 C 3.2 km/h
679 04-06-2014 14:00:00 17.5 C 11.63 g/m*3 17.5 C 4.8 km/h
680 04-06-2014 14:05:00 17.4 C 11.71 g/m*3 17.4 C 6.4 km/h
681 04-06-2014 14:10:00 17.3 C 11.93 g/m*3 17.3 C 6.4 km/h
682 04-06-2014 14:15:00 17.2 C 12.01 g/m*3 17.2 C 0 km/h
683 04-06-2014 14:20:00 17.1 C 11.94 g/m*3 17.1 C 0 km/h
684 04-06-2014 14:25:00 16.9 C 11.94 g/m*3 16.9 C 0 km/h
685 04-06-2014 14:30:00 16.7 C 11.94 g/m*3 16.7 C 0 km/h
686 04-06-2014 14:35:00 16.5 C 12.08 g/m*3 16.5 C 0 km/h
687 04-06-2014 14:40:00 16.4 C 12.14 g/m*3 16.4 C 0 km/h
688 04-06-2014 14:45:00 16.5 C 12.36 g/m*3 16.5 C 0 km/h
689 04-06-2014 14:50:00 16.8 C 12.87 g/m*3 16.8 C 0 km/h
690 04-06-2014 14:55:00 17.1 C 13.1 g/m*3 17.1 C 3.2 km/h
691 04-06-2014 15:00:00 17.4 C 13.19 g/m*3 17.4 C 4.8 km/h
692 04-06-2014 15:05:00 17.6 C 12.9 g/m*3 17.6 C 3.2 km/h
693 04-06-2014 15:10:00 17.8 C 12.9 g/m*3 17.8 C 4.8 km/h
694 04-06-2014 15:15:00 17.9 C 12.83 g/m*3 17.9 C 1.6 km/h
695 04-06-2014 15:20:00 17.8 C 12.9 g/m*3 17.8 C 0 km/h
696 04-06-2014 15:25:00 17.6 C 13.05 g/m*3 17.6 C 0 km/h
697 04-06-2014 15:30:00 17.2 C 12.89 g/m*3 17.2 C 0 km/h
698 04-06-2014 15:35:00 17.1 C 13.1 g/m*3 17.1 C 0 km/h
699 04-06-2014 15:40:00 17.2 C 13.33 g/m*3 17.2 C 0 km/h
700 04-06-2014 15:45:00 17.2 C 13.18 g/m*3 17.2 C 4.8 km/h
Sensor: Nr:Datum:Temp:Abs-Feuchte:Windchill:Wind:
Aussen-T/F 701 04-06-2014 15:50:00 17.2 C 13.18 g/m*3 17.2 C 3.2 km/h
702 04-06-2014 15:55:00 17.3 C 13.26 g/m*3 17.3 C 0 km/h
703 04-06-2014 16:00:00 17.4 C 13.34 g/m*3 17.4 C 0 km/h
704 04-06-2014 16:05:00 17.5 C 13.42 g/m*3 17.5 C 0 km/h
705 04-06-2014 16:10:00 17.4 C 13.34 g/m*3 17.4 C 0 km/h
706 04-06-2014 16:15:00 17.4 C 13.34 g/m*3 17.4 C 0 km/h
707 04-06-2014 16:20:00 17.4 C 13.49 g/m*3 17.4 C 0 km/h
708 04-06-2014 16:25:00 17.3 C 13.41 g/m*3 17.3 C 0 km/h
709 04-06-2014 16:30:00 17.2 C 13.33 g/m*3 17.2 C 0 km/h
710 04-06-2014 16:35:00 17.1 C 13.39 g/m*3 17.1 C 0 km/h
711 04-06-2014 16:40:00 16.7 C 13.07 g/m*3 16.7 C 0 km/h
712 04-06-2014 16:45:00 16.6 C 13.14 g/m*3 16.6 C 0 km/h
713 04-06-2014 16:50:00 16.5 C 13.06 g/m*3 16.5 C 1.6 km/h
714 04-06-2014 16:55:00 16.6 C 13.28 g/m*3 16.6 C 0 km/h
715 04-06-2014 17:00:00 16.4 C 12.98 g/m*3 16.4 C 0 km/h
716 04-06-2014 17:05:00 16.6 C 13.28 g/m*3 16.6 C 0 km/h
717 04-06-2014 17:10:00 16.6 C 13.28 g/m*3 16.6 C 0 km/h
718 04-06-2014 17:15:00 16.7 C 13.36 g/m*3 16.7 C 0 km/h
719 04-06-2014 17:20:00 16.8 C 13.58 g/m*3 16.8 C 0 km/h
720 04-06-2014 17:25:00 16.8 C 13.58 g/m*3 16.8 C 0 km/h
721 04-06-2014 17:30:00 16.8 C 13.58 g/m*3 16.8 C 0 km/h
722 04-06-2014 17:35:00 16.8 C 13.58 g/m*3 16.8 C 4.8 km/h
723 04-06-2014 17:40:00 16.8 C 13.58 g/m*3 16.8 C 0 km/h
724 04-06-2014 17:45:00 16.5 C 13.06 g/m*3 16.5 C 3.2 km/h
725 04-06-2014 17:50:00 16.3 C 12.9 g/m*3 16.3 C 1.6 km/h
Sensor: Nr:Datum:Temp:Abs-Feuchte:Windchill:Wind:
Aussen-T/F 726 04-06-2014 17:55:00 16.2 C 12.82 g/m*3 16.2 C 0 km/h
727 04-06-2014 18:00:00 16.1 C 12.75 g/m*3 16.1 C 0 km/h
728 04-06-2014 18:05:00 16.1 C 12.88 g/m*3 16.1 C 0 km/h
729 04-06-2014 18:10:00 16.2 C 12.96 g/m*3 16.2 C 0 km/h
730 04-06-2014 18:15:00 16.2 C 13.1 g/m*3 16.2 C 0 km/h
731 04-06-2014 18:20:00 16.3 C 13.18 g/m*3 16.3 C 0 km/h
732 04-06-2014 18:25:00 16.5 C 13.34 g/m*3 16.5 C 0 km/h
733 04-06-2014 18:30:00 16.6 C 13.28 g/m*3 16.6 C 0 km/h
734 04-06-2014 18:35:00 16.9 C 13.38 g/m*3 16.9 C 6.4 km/h
735 04-06-2014 18:40:00 17.2 C 13.47 g/m*3 17.2 C 0 km/h
736 04-06-2014 18:45:00 17.4 C 13.34 g/m*3 17.4 C 1.6 km/h
737 04-06-2014 18:50:00 17.8 C 13.36 g/m*3 17.8 C 1.6 km/h
738 04-06-2014 18:55:00 17.9 C 13.59 g/m*3 17.9 C 0 km/h
739 04-06-2014 19:00:00 17.9 C 13.44 g/m*3 17.9 C 0 km/h
740 04-06-2014 19:05:00 18.1 C 13.44 g/m*3 18.1 C 1.6 km/h
741 04-06-2014 19:10:00 18.1 C 13.75 g/m*3 18.1 C 3.2 km/h
742 04-06-2014 19:15:00 18.1 C 13.13 g/m*3 18.1 C 1.6 km/h
743 04-06-2014 19:20:00 18 C 13.52 g/m*3 18 C 0 km/h
744 04-06-2014 19:25:00 17.8 C 13.51 g/m*3 17.8 C 0 km/h
745 04-06-2014 19:30:00 17.6 C 13.5 g/m*3 17.6 C 0 km/h
746 04-06-2014 19:35:00 17.6 C 13.5 g/m*3 17.6 C 1.6 km/h
747 04-06-2014 21:45:00 14.6 C 11.89 g/m*3 14.6 C 0 km/h
748 04-06-2014 21:50:00 14.5 C 11.69 g/m*3 14.5 C 0 km/h
749 04-06-2014 21:55:00 14.5 C 11.69 g/m*3 14.5 C 1.6 km/h
750 05-06-2014 00:35:00 13.4 C 10.69 g/m*3 13.4 C 11.3 km/h
Sensor: Nr:Datum:Temp:Abs-Feuchte:Windchill:Wind:
Aussen-T/F 751 05-06-2014 00:40:00 13.4 C 10.69 g/m*3 13.4 C 6.4 km/h
752 05-06-2014 00:45:00 13.2 C 10.22 g/m*3 13.2 C 19.3 km/h
753 05-06-2014 00:50:00 13.2 C 10.1 g/m*3 13.2 C 16.1 km/h
754 05-06-2014 00:55:00 13 C 9.98 g/m*3 13 C 8.1 km/h
755 05-06-2014 01:00:00 12.9 C 10.03 g/m*3 12.9 C 4.8 km/h
756 05-06-2014 01:05:00 12.8 C 9.86 g/m*3 12.8 C 9.7 km/h
757 05-06-2014 01:10:00 12.7 C 9.8 g/m*3 12.7 C 14.5 km/h
758 05-06-2014 01:15:00 12.7 C 10.02 g/m*3 12.7 C 3.2 km/h
759 05-06-2014 01:20:00 12.7 C 10.02 g/m*3 12.7 C 1.6 km/h
760 05-06-2014 01:25:00 12.5 C 9.89 g/m*3 12.5 C 1.6 km/h
761 05-06-2014 01:30:00 12.4 C 9.72 g/m*3 12.4 C 4.8 km/h
762 05-06-2014 01:35:00 12.4 C 9.62 g/m*3 12.4 C 3.2 km/h
763 05-06-2014 01:40:00 12.4 C 9.62 g/m*3 12.4 C 8.1 km/h
764 05-06-2014 01:45:00 12.4 C 9.62 g/m*3 12.4 C 3.2 km/h
765 05-06-2014 01:50:00 12.3 C 9.66 g/m*3 12.3 C 1.6 km/h
766 05-06-2014 01:55:00 12.3 C 9.66 g/m*3 12.3 C 1.6 km/h
767 05-06-2014 02:00:00 12.2 C 9.71 g/m*3 12.2 C 1.6 km/h
768 05-06-2014 02:05:00 12.1 C 9.65 g/m*3 12.1 C 1.6 km/h
769 05-06-2014 02:10:00 12.1 C 9.54 g/m*3 12.1 C 1.6 km/h
770 05-06-2014 02:15:00 12.1 C 9.54 g/m*3 12.1 C 9.7 km/h
771 05-06-2014 02:20:00 12.1 C 9.54 g/m*3 12.1 C 3.2 km/h
772 05-06-2014 02:25:00 12.1 C 9.33 g/m*3 12.1 C 1.6 km/h
773 05-06-2014 02:30:00 12.1 C 9.44 g/m*3 12.1 C 1.6 km/h
774 05-06-2014 02:35:00 12.1 C 9.44 g/m*3 12.1 C 1.6 km/h
775 05-06-2014 02:40:00 12 C 9.38 g/m*3 12 C 1.6 km/h
Sensor: Nr:Datum:Temp:Abs-Feuchte:Windchill:Wind:
Aussen-T/F 776 05-06-2014 02:45:00 11.9 C 9.43 g/m*3 11.9 C 0 km/h
777 05-06-2014 02:50:00 11.8 C 9.16 g/m*3 11.8 C 9.7 km/h
778 05-06-2014 02:55:00 11.8 C 8.95 g/m*3 11.8 C 16.1 km/h
779 05-06-2014 03:00:00 11.9 C 8.79 g/m*3 11.9 C 14.5 km/h
780 05-06-2014 03:05:00 11.8 C 8.42 g/m*3 11.8 C 11.3 km/h
781 05-06-2014 03:10:00 11.6 C 8 g/m*3 11.6 C 20.9 km/h
782 05-06-2014 03:15:00 11.4 C 7.8 g/m*3 11.4 C 20.9 km/h
783 05-06-2014 03:20:00 11.3 C 7.65 g/m*3 11.3 C 16.1 km/h
784 05-06-2014 03:25:00 11.2 C 7.7 g/m*3 11.2 C 16.1 km/h
785 05-06-2014 03:30:00 11.1 C 7.76 g/m*3 11.1 C 8.1 km/h
786 05-06-2014 03:35:00 11.1 C 7.76 g/m*3 11.1 C 9.7 km/h
787 05-06-2014 03:40:00 11.1 C 7.76 g/m*3 11.1 C 1.6 km/h
788 05-06-2014 03:45:00 10 C 8.08 g/m*3 10 C 1.6 km/h
789 05-06-2014 03:50:00 9.7 C 8.11 g/m*3 9.7 C 3.2 km/h
790 05-06-2014 03:55:00 9.4 C 8.05 g/m*3 9.4 C 1.6 km/h
791 05-06-2014 04:00:00 9.1 C 7.99 g/m*3 9.1 C 1.6 km/h
792 05-06-2014 04:05:00 8.9 C 7.97 g/m*3 8.9 C 1.6 km/h
793 05-06-2014 04:10:00 8.8 C 7.92 g/m*3 8.8 C 1.6 km/h
794 05-06-2014 04:15:00 8.8 C 8.01 g/m*3 8.8 C 1.6 km/h
795 05-06-2014 04:20:00 8.8 C 8.01 g/m*3 8.8 C 1.6 km/h
796 05-06-2014 04:25:00 8.7 C 7.96 g/m*3 8.7 C 0 km/h
797 05-06-2014 04:30:00 8.7 C 7.96 g/m*3 8.7 C 1.6 km/h
798 05-06-2014 04:35:00 8.7 C 7.96 g/m*3 8.7 C 0 km/h
799 05-06-2014 04:40:00 8.7 C 7.96 g/m*3 8.7 C 1.6 km/h
800 05-06-2014 04:45:00 8.8 C 8.01 g/m*3 8.8 C 3.2 km/h
Sensor: Nr:Datum:Temp:Abs-Feuchte:Windchill:Wind:
Aussen-T/F 801 05-06-2014 04:50:00 8.9 C 7.97 g/m*3 8.9 C 3.2 km/h
802 05-06-2014 04:55:00 9.1 C 7.99 g/m*3 9.1 C 3.2 km/h
803 05-06-2014 05:00:00 9.2 C 8.04 g/m*3 9.2 C 3.2 km/h
804 05-06-2014 05:05:00 9.1 C 7.99 g/m*3 9.1 C 1.6 km/h
805 05-06-2014 05:10:00 9 C 7.93 g/m*3 9 C 0 km/h
806 05-06-2014 05:15:00 8.9 C 7.97 g/m*3 8.9 C 0 km/h
807 05-06-2014 05:20:00 8.8 C 7.92 g/m*3 8.8 C 0 km/h
808 05-06-2014 05:25:00 8.7 C 7.87 g/m*3 8.7 C 0 km/h
809 05-06-2014 05:30:00 8.6 C 7.82 g/m*3 8.6 C 0 km/h
810 05-06-2014 05:35:00 8.6 C 7.91 g/m*3 8.6 C 1.6 km/h
811 05-06-2014 05:40:00 8.5 C 7.94 g/m*3 8.5 C 0 km/h
812 05-06-2014 05:45:00 8.5 C 7.94 g/m*3 8.5 C 0 km/h
813 05-06-2014 05:50:00 8.5 C 7.94 g/m*3 8.5 C 0 km/h
814 05-06-2014 05:55:00 8.5 C 8.03 g/m*3 8.5 C 0 km/h
815 05-06-2014 06:00:00 8.5 C 8.03 g/m*3 8.5 C 0 km/h
816 05-06-2014 06:05:00 8.5 C 8.03 g/m*3 8.5 C 0 km/h
817 05-06-2014 06:10:00 8.5 C 8.11 g/m*3 8.5 C 0 km/h
818 05-06-2014 06:15:00 8.5 C 8.11 g/m*3 8.5 C 0 km/h
819 05-06-2014 06:20:00 8.6 C 8.16 g/m*3 8.6 C 0 km/h
820 05-06-2014 06:25:00 8.7 C 8.22 g/m*3 8.7 C 0 km/h
821 05-06-2014 06:30:00 8.7 C 8.22 g/m*3 8.7 C 0 km/h
822 05-06-2014 06:35:00 8.7 C 8.22 g/m*3 8.7 C 0 km/h
823 05-06-2014 06:40:00 8.7 C 8.22 g/m*3 8.7 C 0 km/h
824 05-06-2014 06:45:00 8.8 C 8.27 g/m*3 8.8 C 0 km/h
825 05-06-2014 06:50:00 8.8 C 8.27 g/m*3 8.8 C 0 km/h
Sensor: Nr:Datum:Temp:Abs-Feuchte:Windchill:Wind:
Aussen-T/F 826 05-06-2014 06:55:00 8.9 C 8.32 g/m*3 8.9 C 0 km/h
827 05-06-2014 07:00:00 8.9 C 8.32 g/m*3 8.9 C 1.6 km/h
828 05-06-2014 07:05:00 9 C 8.38 g/m*3 9 C 0 km/h
829 05-06-2014 07:10:00 9.1 C 8.43 g/m*3 9.1 C 0 km/h
830 05-06-2014 07:15:00 9.1 C 8.43 g/m*3 9.1 C 0 km/h
831 05-06-2014 07:20:00 9.2 C 8.48 g/m*3 9.2 C 3.2 km/h
832 05-06-2014 07:25:00 9.3 C 8.54 g/m*3 8.56 C 6.4 km/h
833 05-06-2014 07:30:00 9.4 C 8.5 g/m*3 7.97 C 9.7 km/h
834 05-06-2014 07:35:00 9.7 C 8.57 g/m*3 8.33 C 9.7 km/h
835 05-06-2014 07:40:00 9.9 C 8.59 g/m*3 9.25 C 6.4 km/h
836 05-06-2014 07:45:00 10.3 C 8.71 g/m*3 9.34 C 8.1 km/h
837 05-06-2014 07:50:00 10.6 C 8.59 g/m*3 9.69 C 8.1 km/h
838 05-06-2014 07:55:00 10.9 C 8.65 g/m*3 9.28 C 12.9 km/h
839 05-06-2014 08:00:00 11.2 C 8.62 g/m*3 11.2 C 14.5 km/h
840 05-06-2014 08:05:00 11.4 C 8.72 g/m*3 11.4 C 12.9 km/h
841 05-06-2014 08:10:00 11.6 C 8.73 g/m*3 11.6 C 8.1 km/h
842 05-06-2014 08:15:00 11.7 C 8.79 g/m*3 11.7 C 4.8 km/h
843 05-06-2014 08:20:00 11.8 C 8.74 g/m*3 11.8 C 20.9 km/h
844 05-06-2014 08:25:00 11.8 C 8.74 g/m*3 11.8 C 8.1 km/h
845 05-06-2014 08:30:00 12 C 8.85 g/m*3 12 C 4.8 km/h
846 05-06-2014 08:35:00 12.2 C 8.85 g/m*3 12.2 C 8.1 km/h
847 05-06-2014 08:40:00 12.2 C 8.85 g/m*3 12.2 C 6.4 km/h
848 05-06-2014 08:45:00 12.3 C 8.69 g/m*3 12.3 C 8.1 km/h
849 05-06-2014 08:50:00 12.6 C 8.85 g/m*3 12.6 C 6.4 km/h
850 05-06-2014 08:55:00 12.8 C 9.07 g/m*3 12.8 C 6.4 km/h
Sensor: Nr:Datum:Temp:Abs-Feuchte:Windchill:Wind:
Aussen-T/F 851 05-06-2014 09:00:00 12.9 C 8.9 g/m*3 12.9 C 3.2 km/h
852 05-06-2014 09:05:00 13.1 C 8.9 g/m*3 13.1 C 8.1 km/h
853 05-06-2014 09:10:00 13.1 C 8.9 g/m*3 13.1 C 9.7 km/h
854 05-06-2014 09:15:00 13.2 C 8.61 g/m*3 13.2 C 17.7 km/h
855 05-06-2014 09:20:00 13.1 C 8.56 g/m*3 13.1 C 9.7 km/h
856 05-06-2014 09:25:00 13.2 C 8.61 g/m*3 13.2 C 12.9 km/h
857 05-06-2014 09:30:00 13.3 C 8.43 g/m*3 13.3 C 11.3 km/h
858 05-06-2014 09:35:00 13.4 C 8.6 g/m*3 13.4 C 12.9 km/h
859 05-06-2014 09:40:00 13.6 C 8.24 g/m*3 13.6 C 22.5 km/h
860 05-06-2014 09:45:00 13.7 C 8.53 g/m*3 13.7 C 17.7 km/h
861 05-06-2014 09:50:00 13.9 C 8.15 g/m*3 13.9 C 16.1 km/h
862 05-06-2014 09:55:00 14.2 C 8.3 g/m*3 14.2 C 22.5 km/h
863 05-06-2014 10:00:00 14.3 C 8.23 g/m*3 14.3 C 27.4 km/h
864 05-06-2014 10:05:00 14.5 C 8.46 g/m*3 14.5 C 14.5 km/h
865 05-06-2014 10:10:00 14.7 C 8.44 g/m*3 14.7 C 19.3 km/h
866 05-06-2014 10:15:00 14.8 C 8.36 g/m*3 14.8 C 16.1 km/h
867 05-06-2014 10:20:00 15 C 8.21 g/m*3 15 C 20.9 km/h
868 05-06-2014 10:25:00 15.1 C 8.26 g/m*3 15.1 C 16.1 km/h
869 05-06-2014 10:30:00 14.8 C 8.23 g/m*3 14.8 C 14.5 km/h
870 05-06-2014 10:35:00 14.6 C 8.13 g/m*3 14.6 C 12.9 km/h
871 05-06-2014 10:40:00 14.7 C 8.31 g/m*3 14.7 C 8.1 km/h
872 05-06-2014 10:45:00 14.8 C 8.23 g/m*3 14.8 C 19.3 km/h
873 05-06-2014 10:50:00 14.8 C 8.23 g/m*3 14.8 C 20.9 km/h
874 05-06-2014 10:55:00 15 C 8.21 g/m*3 15 C 19.3 km/h
875 05-06-2014 11:00:00 15.2 C 8.44 g/m*3 15.2 C 16.1 km/h
Sensor: Nr:Datum:Temp:Abs-Feuchte:Windchill:Wind:
Aussen-T/F 876 05-06-2014 11:05:00 15.3 C 8.1 g/m*3 15.3 C 24.1 km/h
877 05-06-2014 11:10:00 15.3 C 8.1 g/m*3 15.3 C 17.7 km/h
878 05-06-2014 11:15:00 15.5 C 8.33 g/m*3 15.5 C 12.9 km/h
879 05-06-2014 11:20:00 15.7 C 8.03 g/m*3 15.7 C 20.9 km/h
880 05-06-2014 11:25:00 15.5 C 8.06 g/m*3 15.5 C 19.3 km/h
881 05-06-2014 11:30:00 15.6 C 8.38 g/m*3 15.6 C 14.5 km/h
882 05-06-2014 11:35:00 16.1 C 8.5 g/m*3 16.1 C 16.1 km/h
883 05-06-2014 11:40:00 16.4 C 8.1 g/m*3 16.4 C 20.9 km/h
884 05-06-2014 11:45:00 16.6 C 8.05 g/m*3 16.6 C 17.7 km/h
885 05-06-2014 11:50:00 16.6 C 8.05 g/m*3 16.6 C 19.3 km/h
886 05-06-2014 11:55:00 16.8 C 8.29 g/m*3 16.8 C 16.1 km/h
887 05-06-2014 12:00:00 16.8 C 7.72 g/m*3 16.8 C 16.1 km/h
888 05-06-2014 12:05:00 16.7 C 7.82 g/m*3 16.7 C 29 km/h
889 05-06-2014 12:10:00 16.4 C 7.82 g/m*3 16.4 C 19.3 km/h
890 05-06-2014 12:15:00 16.6 C 7.91 g/m*3 16.6 C 20.9 km/h
891 05-06-2014 12:20:00 16.7 C 7.96 g/m*3 16.7 C 14.5 km/h
892 05-06-2014 12:25:00 16.7 C 8.24 g/m*3 16.7 C 9.7 km/h
893 05-06-2014 12:30:00 16.7 C 8.1 g/m*3 16.7 C 17.7 km/h
894 05-06-2014 12:35:00 17.1 C 7.86 g/m*3 17.1 C 20.9 km/h
895 05-06-2014 12:40:00 17.1 C 8.15 g/m*3 17.1 C 16.1 km/h
896 05-06-2014 12:45:00 17 C 7.81 g/m*3 17 C 20.9 km/h
897 05-06-2014 12:50:00 17.1 C 7.86 g/m*3 17.1 C 17.7 km/h
898 05-06-2014 12:55:00 17.3 C 7.96 g/m*3 17.3 C 24.1 km/h
899 05-06-2014 13:00:00 17.3 C 7.96 g/m*3 17.3 C 16.1 km/h
900 05-06-2014 13:05:00 17.4 C 7.85 g/m*3 17.4 C 16.1 km/h
Sensor: Nr:Datum:Temp:Abs-Feuchte:Windchill:Wind:
Aussen-T/F 901 05-06-2014 13:10:00 17.6 C 7.95 g/m*3 17.6 C 16.1 km/h
902 05-06-2014 13:15:00 17.8 C 7.74 g/m*3 17.8 C 16.1 km/h
903 05-06-2014 13:20:00 17.9 C 7.79 g/m*3 17.9 C 20.9 km/h
904 05-06-2014 13:25:00 17.9 C 7.79 g/m*3 17.9 C 19.3 km/h
905 05-06-2014 13:30:00 17.6 C 7.65 g/m*3 17.6 C 12.9 km/h
906 05-06-2014 13:35:00 17.6 C 7.35 g/m*3 17.6 C 11.3 km/h
907 05-06-2014 13:40:00 17.5 C 7.6 g/m*3 17.5 C 14.5 km/h
908 05-06-2014 13:45:00 17.6 C 7.95 g/m*3 17.6 C 14.5 km/h
909 05-06-2014 13:50:00 18 C 7.83 g/m*3 18 C 11.3 km/h
910 05-06-2014 13:55:00 18.1 C 7.73 g/m*3 18.1 C 14.5 km/h
911 05-06-2014 14:00:00 18.1 C 7.57 g/m*3 18.1 C 17.7 km/h
912 05-06-2014 14:05:00 17.9 C 7.48 g/m*3 17.9 C 16.1 km/h
913 05-06-2014 14:10:00 17.9 C 7.48 g/m*3 17.9 C 12.9 km/h
914 05-06-2014 14:15:00 17.8 C 7.74 g/m*3 17.8 C 16.1 km/h
915 05-06-2014 14:20:00 18.2 C 7.93 g/m*3 18.2 C 14.5 km/h
916 05-06-2014 14:25:00 18.4 C 7.71 g/m*3 18.4 C 12.9 km/h
917 05-06-2014 14:30:00 18.3 C 7.35 g/m*3 18.3 C 14.5 km/h
918 05-06-2014 14:35:00 18.1 C 7.57 g/m*3 18.1 C 16.1 km/h
919 05-06-2014 14:40:00 17.9 C 7.33 g/m*3 17.9 C 17.7 km/h
920 05-06-2014 14:45:00 17.7 C 7.39 g/m*3 17.7 C 14.5 km/h
921 05-06-2014 14:50:00 17.7 C 7.85 g/m*3 17.7 C 8.1 km/h
922 05-06-2014 14:55:00 17.8 C 7.89 g/m*3 17.8 C 6.4 km/h
923 05-06-2014 15:00:00 17.9 C 7.79 g/m*3 17.9 C 12.9 km/h
924 05-06-2014 15:05:00 18.4 C 7.71 g/m*3 18.4 C 11.3 km/h
925 05-06-2014 15:10:00 18.9 C 7.94 g/m*3 18.9 C 12.9 km/h
Sensor: Nr:Datum:Temp:Abs-Feuchte:Windchill:Wind:
Aussen-T/F 926 05-06-2014 15:15:00 19 C 7.33 g/m*3 19 C 19.3 km/h
927 05-06-2014 15:20:00 18.7 C 7.36 g/m*3 18.7 C 12.9 km/h
928 05-06-2014 15:25:00 18.4 C 7.24 g/m*3 18.4 C 9.7 km/h
929 05-06-2014 15:30:00 18.3 C 7.51 g/m*3 18.3 C 14.5 km/h
930 05-06-2014 15:35:00 18.1 C 7.73 g/m*3 18.1 C 14.5 km/h
931 05-06-2014 15:40:00 18.3 C 7.66 g/m*3 18.3 C 19.3 km/h
932 05-06-2014 15:45:00 18.9 C 7.61 g/m*3 18.9 C 14.5 km/h
933 05-06-2014 15:50:00 18.9 C 7.61 g/m*3 18.9 C 12.9 km/h
934 05-06-2014 15:55:00 18.7 C 7.52 g/m*3 18.7 C 22.5 km/h
935 05-06-2014 16:00:00 18.6 C 7.48 g/m*3 18.6 C 20.9 km/h
936 05-06-2014 16:05:00 19.2 C 7.42 g/m*3 19.2 C 16.1 km/h
937 05-06-2014 16:10:00 19.7 C 7.47 g/m*3 19.7 C 24.1 km/h
938 05-06-2014 16:15:00 20.1 C 7.65 g/m*3 20.1 C 16.1 km/h
939 05-06-2014 16:20:00 20.1 C 7.3 g/m*3 20.1 C 12.9 km/h
940 05-06-2014 16:25:00 19.7 C 7.81 g/m*3 19.7 C 12.9 km/h
941 05-06-2014 16:30:00 19.6 C 7.43 g/m*3 19.6 C 12.9 km/h
942 05-06-2014 16:35:00 19.8 C 7.52 g/m*3 19.8 C 14.5 km/h
943 05-06-2014 16:40:00 19.8 C 7.34 g/m*3 19.8 C 17.7 km/h
944 05-06-2014 16:45:00 19.6 C 6.92 g/m*3 19.6 C 16.1 km/h
945 05-06-2014 16:50:00 19.8 C 7.52 g/m*3 19.8 C 12.9 km/h
946 05-06-2014 16:55:00 20.1 C 6.95 g/m*3 20.1 C 11.3 km/h
947 05-06-2014 17:00:00 19.6 C 7.09 g/m*3 19.6 C 11.3 km/h
948 05-06-2014 17:05:00 19.2 C 7.09 g/m*3 19.2 C 11.3 km/h
949 05-06-2014 17:10:00 18.8 C 7.25 g/m*3 18.8 C 4.8 km/h
950 05-06-2014 17:15:00 18.6 C 7.48 g/m*3 18.6 C 6.4 km/h
Sensor: Nr:Datum:Temp:Abs-Feuchte:Windchill:Wind:
Aussen-T/F 951 05-06-2014 17:20:00 18.6 C 7.48 g/m*3 18.6 C 8.1 km/h
952 05-06-2014 17:25:00 18.7 C 7.52 g/m*3 18.7 C 11.3 km/h
953 05-06-2014 17:30:00 18.7 C 7.84 g/m*3 18.7 C 9.7 km/h
954 05-06-2014 17:35:00 18.7 C 7.36 g/m*3 18.7 C 9.7 km/h
955 05-06-2014 17:40:00 18.6 C 7.64 g/m*3 18.6 C 9.7 km/h
956 05-06-2014 17:45:00 19.2 C 7.42 g/m*3 19.2 C 12.9 km/h
957 05-06-2014 17:50:00 20.1 C 7.3 g/m*3 20.1 C 14.5 km/h
958 05-06-2014 17:55:00 20.5 C 6.94 g/m*3 20.5 C 17.7 km/h
959 05-06-2014 18:00:00 20.8 C 7.42 g/m*3 20.8 C 16.1 km/h
960 05-06-2014 18:05:00 20.8 C 7.24 g/m*3 20.8 C 14.5 km/h
961 05-06-2014 18:10:00 21 C 7.14 g/m*3 21 C 19.3 km/h
962 05-06-2014 18:15:00 20.8 C 7.42 g/m*3 20.8 C 17.7 km/h
963 05-06-2014 18:20:00 20.7 C 7.02 g/m*3 20.7 C 19.3 km/h
964 05-06-2014 18:25:00 20.7 C 7.38 g/m*3 20.7 C 11.3 km/h
965 05-06-2014 18:30:00 20.7 C 7.38 g/m*3 20.7 C 16.1 km/h
966 05-06-2014 18:35:00 20.6 C 7.34 g/m*3 20.6 C 24.1 km/h
967 05-06-2014 18:40:00 20.7 C 7.02 g/m*3 20.7 C 17.7 km/h
968 05-06-2014 18:45:00 20.7 C 7.02 g/m*3 20.7 C 14.5 km/h
969 05-06-2014 18:50:00 20.7 C 6.84 g/m*3 20.7 C 11.3 km/h
970 05-06-2014 18:55:00 20.5 C 7.12 g/m*3 20.5 C 9.7 km/h
971 05-06-2014 19:00:00 20.6 C 7.16 g/m*3 20.6 C 11.3 km/h
972 05-06-2014 19:05:00 20.6 C 6.8 g/m*3 20.6 C 14.5 km/h
973 05-06-2014 19:10:00 20.3 C 7.03 g/m*3 20.3 C 17.7 km/h
974 05-06-2014 19:15:00 20.1 C 7.13 g/m*3 20.1 C 9.7 km/h
975 05-06-2014 19:20:00 19.9 C 6.87 g/m*3 19.9 C 16.1 km/h
Sensor: Nr:Datum:Temp:Abs-Feuchte:Windchill:Wind:
Aussen-T/F 976 05-06-2014 19:25:00 19.8 C 6.66 g/m*3 19.8 C 14.5 km/h
977 05-06-2014 19:30:00 19.7 C 6.62 g/m*3 19.7 C 9.7 km/h
978 05-06-2014 19:35:00 19.6 C 6.92 g/m*3 19.6 C 12.9 km/h
979 05-06-2014 19:40:00 19.6 C 7.09 g/m*3 19.6 C 14.5 km/h
980 05-06-2014 19:45:00 19.4 C 6.51 g/m*3 19.4 C 14.5 km/h
981 05-06-2014 19:50:00 19.3 C 6.63 g/m*3 19.3 C 20.9 km/h
982 05-06-2014 19:55:00 19.2 C 6.6 g/m*3 19.2 C 9.7 km/h
983 05-06-2014 20:00:00 19.2 C 6.76 g/m*3 19.2 C 14.5 km/h
984 05-06-2014 20:05:00 19.1 C 6.56 g/m*3 19.1 C 8.1 km/h
985 05-06-2014 20:10:00 19 C 6.68 g/m*3 19 C 11.3 km/h
986 05-06-2014 20:15:00 19 C 6.68 g/m*3 19 C 11.3 km/h
987 05-06-2014 20:20:00 18.9 C 6.97 g/m*3 18.9 C 4.8 km/h
988 05-06-2014 20:25:00 18.8 C 7.57 g/m*3 18.8 C 4.8 km/h
989 05-06-2014 20:30:00 18.7 C 7.68 g/m*3 18.7 C 6.4 km/h
990 05-06-2014 20:35:00 18.5 C 7.44 g/m*3 18.5 C 8.1 km/h
991 05-06-2014 20:40:00 18.3 C 8.6 g/m*3 18.3 C 1.6 km/h
992 05-06-2014 20:45:00 17.8 C 8.8 g/m*3 17.8 C 1.6 km/h
993 05-06-2014 20:50:00 17.4 C 8.45 g/m*3 17.4 C 1.6 km/h
994 05-06-2014 20:55:00 17.1 C 8.73 g/m*3 17.1 C 1.6 km/h
995 05-06-2014 21:00:00 16.8 C 8.72 g/m*3 16.8 C 1.6 km/h
996 05-06-2014 21:05:00 16.4 C 9.07 g/m*3 16.4 C 0 km/h
997 05-06-2014 21:10:00 15.9 C 8.94 g/m*3 15.9 C 1.6 km/h
998 05-06-2014 21:15:00 15.6 C 8.64 g/m*3 15.6 C 1.6 km/h
999 05-06-2014 21:20:00 15.4 C 8.15 g/m*3 15.4 C 1.6 km/h
1000 05-06-2014 21:25:00 15.1 C 8.64 g/m*3 15.1 C 1.6 km/h
Sensor: Nr:Datum:Temp:Abs-Feuchte:Windchill:Wind:
Aussen-T/F 1001 05-06-2014 21:30:00 14.8 C 8.49 g/m*3 14.8 C 1.6 km/h
1002 05-06-2014 21:35:00 14.6 C 8.51 g/m*3 14.6 C 1.6 km/h
1003 05-06-2014 21:40:00 14.3 C 8.48 g/m*3 14.3 C 1.6 km/h
1004 05-06-2014 21:45:00 14.2 C 8.43 g/m*3 14.2 C 1.6 km/h
1005 05-06-2014 21:50:00 14.1 C 8.37 g/m*3 14.1 C 1.6 km/h
1006 05-06-2014 21:55:00 13.9 C 8.39 g/m*3 13.9 C 1.6 km/h
1007 05-06-2014 22:00:00 13.7 C 8.41 g/m*3 13.7 C 0 km/h
1008 05-06-2014 22:05:00 13.6 C 8.36 g/m*3 13.6 C 0 km/h
1009 05-06-2014 22:10:00 13.4 C 8.37 g/m*3 13.4 C 0 km/h
1010 05-06-2014 22:15:00 13.2 C 8.38 g/m*3 13.2 C 0 km/h
1011 05-06-2014 22:20:00 12.9 C 8.23 g/m*3 12.9 C 0 km/h
1012 05-06-2014 22:25:00 12.8 C 8.29 g/m*3 12.8 C 0 km/h
1013 05-06-2014 22:30:00 12.7 C 8.24 g/m*3 12.7 C 0 km/h
1014 05-06-2014 22:35:00 12.6 C 8.3 g/m*3 12.6 C 0 km/h
1015 05-06-2014 22:40:00 12.4 C 8.3 g/m*3 12.4 C 0 km/h
1016 05-06-2014 22:45:00 12.3 C 8.25 g/m*3 12.3 C 0 km/h
1017 05-06-2014 22:50:00 12.1 C 8.26 g/m*3 12.1 C 0 km/h
1018 05-06-2014 22:55:00 11.9 C 8.05 g/m*3 11.9 C 0 km/h
1019 05-06-2014 23:00:00 11.8 C 8 g/m*3 11.8 C 0 km/h
1020 05-06-2014 23:05:00 11.7 C 7.95 g/m*3 11.7 C 0 km/h
1021 05-06-2014 23:10:00 11.6 C 8 g/m*3 11.6 C 0 km/h
1022 05-06-2014 23:15:00 11.5 C 7.85 g/m*3 11.5 C 0 km/h
1023 05-06-2014 23:20:00 11.3 C 7.75 g/m*3 11.3 C 0 km/h
1024 05-06-2014 23:25:00 11.2 C 7.91 g/m*3 11.2 C 0 km/h
1025 05-06-2014 23:30:00 11.1 C 7.96 g/m*3 11.1 C 0 km/h
Sensor: Nr:Datum:Temp:Abs-Feuchte:Windchill:Wind:
Aussen-T/F 1026 05-06-2014 23:35:00 10.9 C 7.76 g/m*3 10.9 C 0 km/h
1027 05-06-2014 23:40:00 10.8 C 7.71 g/m*3 10.8 C 0 km/h
1028 05-06-2014 23:45:00 10.8 C 7.81 g/m*3 10.8 C 3.2 km/h
1029 05-06-2014 23:50:00 10.8 C 7.81 g/m*3 10.8 C 3.2 km/h
1030 05-06-2014 23:55:00 10.8 C 7.81 g/m*3 10.8 C 0 km/h
1031 06-06-2014 00:00:00 10.6 C 7.81 g/m*3 10.6 C 1.6 km/h
1032 06-06-2014 00:05:00 10.5 C 7.86 g/m*3 10.5 C 0 km/h
1033 06-06-2014 00:10:00 10.3 C 7.76 g/m*3 10.3 C 0 km/h
1034 06-06-2014 00:15:00 10.2 C 7.71 g/m*3 10.2 C 0 km/h
1035 06-06-2014 00:20:00 10.1 C 7.75 g/m*3 10.1 C 0 km/h
1036 06-06-2014 00:25:00 10 C 7.71 g/m*3 10 C 0 km/h
1037 06-06-2014 00:30:00 9.9 C 7.66 g/m*3 9.9 C 0 km/h
1038 06-06-2014 00:35:00 9.9 C 7.66 g/m*3 9.9 C 0 km/h
1039 06-06-2014 00:40:00 9.8 C 7.7 g/m*3 9.8 C 0 km/h
1040 06-06-2014 00:45:00 9.7 C 7.65 g/m*3 9.7 C 0 km/h
1041 06-06-2014 00:50:00 9.7 C 7.74 g/m*3 9.7 C 0 km/h
1042 06-06-2014 00:55:00 9.6 C 7.69 g/m*3 9.6 C 0 km/h
1043 06-06-2014 01:00:00 9.5 C 7.65 g/m*3 9.5 C 0 km/h
1044 06-06-2014 01:05:00 9.4 C 7.6 g/m*3 9.4 C 0 km/h
1045 06-06-2014 01:10:00 9.3 C 7.64 g/m*3 9.3 C 0 km/h
1046 06-06-2014 01:15:00 9.3 C 7.64 g/m*3 9.3 C 0 km/h
1047 06-06-2014 01:20:00 9.2 C 7.68 g/m*3 9.2 C 0 km/h
1048 06-06-2014 01:25:00 9.1 C 7.63 g/m*3 9.1 C 0 km/h
1049 06-06-2014 01:30:00 9.1 C 7.63 g/m*3 9.1 C 0 km/h
1050 06-06-2014 01:35:00 9.1 C 7.63 g/m*3 9.1 C 0 km/h
Sensor: Nr:Datum:Temp:Abs-Feuchte:Windchill:Wind:
Aussen-T/F 1051 06-06-2014 01:40:00 9.1 C 7.54 g/m*3 9.1 C 0 km/h
1052 06-06-2014 01:45:00 8.9 C 7.53 g/m*3 8.9 C 0 km/h
1053 06-06-2014 01:50:00 8.9 C 7.53 g/m*3 8.9 C 0 km/h
1054 06-06-2014 01:55:00 8.8 C 7.57 g/m*3 8.8 C 0 km/h
1055 06-06-2014 02:00:00 8.7 C 7.52 g/m*3 8.7 C 0 km/h
1056 06-06-2014 02:05:00 8.7 C 7.44 g/m*3 8.7 C 0 km/h
1057 06-06-2014 02:10:00 8.7 C 7.52 g/m*3 8.7 C 0 km/h
1058 06-06-2014 02:15:00 8.7 C 7.44 g/m*3 8.7 C 0 km/h
1059 06-06-2014 02:20:00 8.7 C 7.52 g/m*3 8.7 C 0 km/h
1060 06-06-2014 02:25:00 8.6 C 7.39 g/m*3 8.6 C 0 km/h
1061 06-06-2014 02:30:00 8.4 C 7.38 g/m*3 8.4 C 0 km/h
1062 06-06-2014 02:35:00 8.4 C 7.38 g/m*3 8.4 C 0 km/h
1063 06-06-2014 02:40:00 8.4 C 7.38 g/m*3 8.4 C 0 km/h
1064 06-06-2014 02:45:00 8.3 C 7.33 g/m*3 8.3 C 0 km/h
1065 06-06-2014 02:50:00 8.3 C 7.42 g/m*3 8.3 C 0 km/h
1066 06-06-2014 02:55:00 8.3 C 7.42 g/m*3 8.3 C 0 km/h
1067 06-06-2014 03:00:00 8.3 C 7.42 g/m*3 8.3 C 0 km/h
1068 06-06-2014 03:05:00 8.2 C 7.37 g/m*3 8.2 C 0 km/h
1069 06-06-2014 03:10:00 8.2 C 7.37 g/m*3 8.2 C 0 km/h
1070 06-06-2014 03:15:00 8.1 C 7.32 g/m*3 8.1 C 0 km/h
1071 06-06-2014 03:20:00 8.1 C 7.41 g/m*3 8.1 C 0 km/h
1072 06-06-2014 03:25:00 7.9 C 7.31 g/m*3 7.9 C 0 km/h
1073 06-06-2014 03:30:00 7.9 C 7.31 g/m*3 7.9 C 0 km/h
1074 06-06-2014 03:35:00 7.8 C 7.26 g/m*3 7.8 C 0 km/h
1075 06-06-2014 03:40:00 7.8 C 7.35 g/m*3 7.8 C 0 km/h
Sensor: Nr:Datum:Temp:Abs-Feuchte:Windchill:Wind:
Aussen-T/F 1076 06-06-2014 03:45:00 7.7 C 7.3 g/m*3 7.7 C 0 km/h
1077 06-06-2014 03:50:00 7.7 C 7.3 g/m*3 7.7 C 0 km/h
1078 06-06-2014 03:55:00 7.7 C 7.3 g/m*3 7.7 C 0 km/h
1079 06-06-2014 04:00:00 7.6 C 7.25 g/m*3 7.6 C 0 km/h
1080 06-06-2014 04:05:00 7.5 C 7.2 g/m*3 7.5 C 0 km/h
1081 06-06-2014 04:10:00 7.4 C 7.24 g/m*3 7.4 C 0 km/h
1082 06-06-2014 04:15:00 7.4 C 7.24 g/m*3 7.4 C 1.6 km/h
1083 06-06-2014 04:20:00 7.3 C 7.19 g/m*3 7.3 C 0 km/h
1084 06-06-2014 04:25:00 7.3 C 7.19 g/m*3 7.3 C 0 km/h
1085 06-06-2014 04:30:00 7.3 C 7.19 g/m*3 7.3 C 0 km/h
1086 06-06-2014 04:35:00 7.2 C 7.22 g/m*3 7.2 C 0 km/h
1087 06-06-2014 04:40:00 7.2 C 7.22 g/m*3 7.2 C 0 km/h
1088 06-06-2014 04:45:00 7.2 C 7.22 g/m*3 7.2 C 0 km/h
1089 06-06-2014 04:50:00 7.2 C 7.22 g/m*3 7.2 C 0 km/h
1090 06-06-2014 04:55:00 7.1 C 7.18 g/m*3 7.1 C 0 km/h
1091 06-06-2014 05:00:00 7.1 C 7.18 g/m*3 7.1 C 0 km/h
1092 06-06-2014 05:05:00 7 C 7.13 g/m*3 7 C 0 km/h
1093 06-06-2014 05:10:00 7.1 C 7.25 g/m*3 7.1 C 0 km/h
1094 06-06-2014 05:15:00 7 C 7.21 g/m*3 7 C 0 km/h
1095 06-06-2014 05:20:00 7 C 7.21 g/m*3 7 C 0 km/h
1096 06-06-2014 05:25:00 6.9 C 7.16 g/m*3 6.9 C 0 km/h
1097 06-06-2014 05:30:00 6.8 C 7.11 g/m*3 6.8 C 0 km/h
1098 06-06-2014 05:35:00 6.8 C 7.11 g/m*3 6.8 C 0 km/h
1099 06-06-2014 05:40:00 6.8 C 7.11 g/m*3 6.8 C 0 km/h
1100 06-06-2014 05:45:00 6.8 C 7.11 g/m*3 6.8 C 0 km/h
Sensor: Nr:Datum:Temp:Abs-Feuchte:Windchill:Wind:
Aussen-T/F 1101 06-06-2014 05:50:00 6.8 C 7.11 g/m*3 6.8 C 0 km/h
1102 06-06-2014 05:55:00 6.8 C 7.11 g/m*3 6.8 C 0 km/h
1103 06-06-2014 06:00:00 6.8 C 7.19 g/m*3 6.8 C 0 km/h
1104 06-06-2014 06:05:00 6.8 C 7.19 g/m*3 6.8 C 0 km/h
1105 06-06-2014 06:10:00 6.8 C 7.19 g/m*3 6.8 C 0 km/h
1106 06-06-2014 06:15:00 6.8 C 7.19 g/m*3 6.8 C 0 km/h
1107 06-06-2014 06:20:00 6.8 C 7.19 g/m*3 6.8 C 0 km/h
1108 06-06-2014 06:25:00 6.8 C 7.19 g/m*3 6.8 C 0 km/h
1109 06-06-2014 06:30:00 6.9 C 7.24 g/m*3 6.9 C 0 km/h
1110 06-06-2014 06:35:00 6.9 C 7.24 g/m*3 6.9 C 0 km/h
1111 06-06-2014 06:40:00 6.9 C 7.24 g/m*3 6.9 C 0 km/h
1112 06-06-2014 06:45:00 7 C 7.28 g/m*3 7 C 0 km/h
1113 06-06-2014 06:50:00 7.1 C 7.33 g/m*3 7.1 C 0 km/h
1114 06-06-2014 06:55:00 7.1 C 7.33 g/m*3 7.1 C 0 km/h
1115 06-06-2014 07:00:00 7.2 C 7.38 g/m*3 7.2 C 0 km/h
1116 06-06-2014 07:05:00 7.2 C 7.38 g/m*3 7.2 C 0 km/h
1117 06-06-2014 07:10:00 7.3 C 7.43 g/m*3 7.3 C 0 km/h
1118 06-06-2014 07:15:00 7.4 C 7.48 g/m*3 7.4 C 0 km/h
1119 06-06-2014 07:20:00 7.5 C 7.52 g/m*3 7.5 C 1.6 km/h
1120 06-06-2014 07:25:00 7.6 C 7.57 g/m*3 7.6 C 0 km/h
1121 06-06-2014 07:30:00 7.7 C 7.62 g/m*3 7.7 C 0 km/h
1122 06-06-2014 07:35:00 7.8 C 7.67 g/m*3 7.8 C 0 km/h
1123 06-06-2014 07:40:00 8 C 7.77 g/m*3 8 C 0 km/h
1124 06-06-2014 07:45:00 8.2 C 7.87 g/m*3 8.2 C 0 km/h
1125 06-06-2014 07:50:00 8.5 C 8.03 g/m*3 8.5 C 0 km/h
Sensor: Nr:Datum:Temp:Abs-Feuchte:Windchill:Wind:
Aussen-T/F 1126 06-06-2014 07:55:00 8.8 C 8.09 g/m*3 8.8 C 0 km/h
1127 06-06-2014 08:00:00 9.1 C 8.25 g/m*3 9.1 C 0 km/h
1128 06-06-2014 08:05:00 9.5 C 8.37 g/m*3 9.5 C 0 km/h
1129 06-06-2014 08:10:00 9.8 C 8.44 g/m*3 9.8 C 0 km/h
1130 06-06-2014 08:15:00 10.2 C 8.37 g/m*3 10.2 C 0 km/h
1131 06-06-2014 08:20:00 10.4 C 8.29 g/m*3 10.4 C 0 km/h
1132 06-06-2014 08:25:00 10.7 C 8.35 g/m*3 10.7 C 0 km/h
1133 06-06-2014 08:30:00 10.9 C 8.36 g/m*3 10.9 C 0 km/h
1134 06-06-2014 08:35:00 11.2 C 8.51 g/m*3 11.2 C 0 km/h
1135 06-06-2014 08:40:00 11.5 C 8.78 g/m*3 11.5 C 0 km/h
1136 06-06-2014 08:45:00 11.9 C 8.9 g/m*3 11.9 C 1.6 km/h
1137 06-06-2014 08:50:00 12.4 C 9.07 g/m*3 12.4 C 0 km/h
1138 06-06-2014 08:55:00 13 C 9.19 g/m*3 13 C 0 km/h
1139 06-06-2014 09:00:00 13.3 C 9.01 g/m*3 13.3 C 1.6 km/h
1140 06-06-2014 09:05:00 13.3 C 8.9 g/m*3 13.3 C 0 km/h
1141 06-06-2014 09:10:00 13.3 C 8.9 g/m*3 13.3 C 1.6 km/h
1142 06-06-2014 09:15:00 13.3 C 9.13 g/m*3 13.3 C 0 km/h
1143 06-06-2014 09:20:00 13.3 C 9.24 g/m*3 13.3 C 0 km/h
1144 06-06-2014 09:25:00 13.4 C 9.18 g/m*3 13.4 C 1.6 km/h
1145 06-06-2014 09:30:00 13.5 C 9.24 g/m*3 13.5 C 4.8 km/h
1146 06-06-2014 09:35:00 13.6 C 9.18 g/m*3 13.6 C 4.8 km/h
1147 06-06-2014 09:40:00 13.7 C 9.24 g/m*3 13.7 C 1.6 km/h
1148 06-06-2014 09:45:00 13.8 C 9.29 g/m*3 13.8 C 1.6 km/h
1149 06-06-2014 09:50:00 14.1 C 9.47 g/m*3 14.1 C 3.2 km/h
1150 06-06-2014 09:55:00 14.3 C 9.58 g/m*3 14.3 C 3.2 km/h
Sensor: Nr:Datum:Temp:Abs-Feuchte:Windchill:Wind:
Aussen-T/F 1151 06-06-2014 10:00:00 14.7 C 9.69 g/m*3 14.7 C 3.2 km/h
1152 06-06-2014 10:05:00 15.1 C 9.8 g/m*3 15.1 C 1.6 km/h
1153 06-06-2014 10:10:00 15.5 C 10.18 g/m*3 15.5 C 3.2 km/h
1154 06-06-2014 10:15:00 15.8 C 9.83 g/m*3 15.8 C 0 km/h
1155 06-06-2014 10:20:00 16.3 C 10.27 g/m*3 16.3 C 1.6 km/h
1156 06-06-2014 10:25:00 16.8 C 10.15 g/m*3 16.8 C 1.6 km/h
1157 06-06-2014 10:30:00 17.2 C 9.96 g/m*3 17.2 C 1.6 km/h
1158 06-06-2014 10:35:00 17.4 C 10.23 g/m*3 17.4 C 3.2 km/h
1159 06-06-2014 10:40:00 17.4 C 10.52 g/m*3 17.4 C 3.2 km/h
1160 06-06-2014 10:45:00 17.5 C 9.99 g/m*3 17.5 C 3.2 km/h
1161 06-06-2014 10:50:00 17.6 C 10.35 g/m*3 17.6 C 3.2 km/h
1162 06-06-2014 10:55:00 17.7 C 10.56 g/m*3 17.7 C 0 km/h
1163 06-06-2014 11:00:00 17.8 C 10.93 g/m*3 17.8 C 1.6 km/h
1164 06-06-2014 11:05:00 17.9 C 11.15 g/m*3 17.9 C 0 km/h
1165 06-06-2014 11:10:00 17.7 C 11.16 g/m*3 17.7 C 0 km/h
1166 06-06-2014 11:15:00 17.8 C 11.38 g/m*3 17.8 C 3.2 km/h
1167 06-06-2014 11:20:00 18.2 C 10.57 g/m*3 18.2 C 4.8 km/h
1168 06-06-2014 11:25:00 19.1 C 10.33 g/m*3 19.1 C 6.4 km/h
1169 06-06-2014 11:30:00 20.2 C 10.32 g/m*3 20.2 C 8.1 km/h
1170 06-06-2014 11:35:00 20.8 C 10.5 g/m*3 20.8 C 9.7 km/h
1171 06-06-2014 11:40:00 21.1 C 10.69 g/m*3 21.1 C 11.3 km/h
1172 06-06-2014 11:45:00 21.4 C 10.69 g/m*3 21.4 C 11.3 km/h
1173 06-06-2014 11:50:00 21.7 C 10.87 g/m*3 21.7 C 8.1 km/h
1174 06-06-2014 11:55:00 21.9 C 10.42 g/m*3 21.9 C 11.3 km/h
1175 06-06-2014 12:00:00 22.2 C 10.41 g/m*3 22.2 C 11.3 km/h
Sensor: Nr:Datum:Temp:Abs-Feuchte:Windchill:Wind:
Aussen-T/F 1176 06-06-2014 12:05:00 22.3 C 9.87 g/m*3 22.3 C 11.3 km/h
1177 06-06-2014 12:10:00 22.6 C 9.84 g/m*3 22.6 C 9.7 km/h
1178 06-06-2014 12:15:00 22.8 C 9.96 g/m*3 22.8 C 4.8 km/h
1179 06-06-2014 12:20:00 23.1 C 11.16 g/m*3 23.1 C 6.4 km/h
1180 06-06-2014 12:25:00 23.3 C 9.83 g/m*3 23.3 C 6.4 km/h
1181 06-06-2014 12:30:00 23.4 C 10.3 g/m*3 23.4 C 6.4 km/h
1182 06-06-2014 12:35:00 23.6 C 9.57 g/m*3 23.6 C 11.3 km/h
1183 06-06-2014 12:40:00 23.5 C 9.52 g/m*3 23.5 C 6.4 km/h
1184 06-06-2014 12:45:00 23.6 C 8.93 g/m*3 23.6 C 4.8 km/h
1185 06-06-2014 12:50:00 23.8 C 9.25 g/m*3 23.8 C 4.8 km/h
1186 06-06-2014 12:55:00 23.9 C 8.65 g/m*3 23.9 C 4.8 km/h
1187 06-06-2014 13:00:00 24.1 C 8.97 g/m*3 24.1 C 3.2 km/h
1188 06-06-2014 13:05:00 24.3 C 9.52 g/m*3 24.3 C 6.4 km/h
1189 06-06-2014 13:10:00 24.5 C 10.07 g/m*3 24.5 C 8.1 km/h
1190 06-06-2014 13:15:00 24.6 C 8.78 g/m*3 24.6 C 6.4 km/h
1191 06-06-2014 13:20:00 24.4 C 9.79 g/m*3 24.4 C 8.1 km/h
1192 06-06-2014 13:25:00 24.7 C 9.05 g/m*3 24.7 C 6.4 km/h
1193 06-06-2014 13:30:00 24.8 C 10.02 g/m*3 24.8 C 6.4 km/h
1194 06-06-2014 13:35:00 25 C 9.21 g/m*3 25 C 9.7 km/h
1195 06-06-2014 13:40:00 25 C 9.44 g/m*3 25 C 11.3 km/h
1196 06-06-2014 13:45:00 24.8 C 9.79 g/m*3 24.8 C 6.4 km/h
1197 06-06-2014 13:50:00 25 C 8.75 g/m*3 25 C 6.4 km/h
1198 06-06-2014 13:55:00 25.3 C 10.07 g/m*3 25.3 C 6.4 km/h
1199 06-06-2014 14:00:00 25.6 C 9.28 g/m*3 25.6 C 6.4 km/h
1200 06-06-2014 14:05:00 25.6 C 10 g/m*3 25.6 C 9.7 km/h
Sensor: Nr:Datum:Temp:Abs-Feuchte:Windchill:Wind:
Aussen-T/F 1201 06-06-2014 14:10:00 25.7 C 10.29 g/m*3 25.7 C 6.4 km/h
1202 06-06-2014 14:15:00 25.8 C 9.87 g/m*3 25.8 C 11.3 km/h
1203 06-06-2014 14:20:00 25.8 C 9.39 g/m*3 25.8 C 14.5 km/h
1204 06-06-2014 14:25:00 25.9 C 9.44 g/m*3 25.9 C 14.5 km/h
1205 06-06-2014 14:30:00 26 C 9.98 g/m*3 26 C 14.5 km/h
1206 06-06-2014 14:35:00 26.1 C 9.79 g/m*3 26.1 C 12.9 km/h
1207 06-06-2014 14:40:00 26.2 C 10.34 g/m*3 26.2 C 11.3 km/h
1208 06-06-2014 14:45:00 26.2 C 10.09 g/m*3 26.2 C 11.3 km/h
1209 06-06-2014 14:50:00 26.3 C 9.9 g/m*3 26.3 C 6.4 km/h
1210 06-06-2014 14:55:00 26.4 C 10.21 g/m*3 26.4 C 6.4 km/h
1211 06-06-2014 15:00:00 26.7 C 9.87 g/m*3 26.7 C 6.4 km/h
1212 06-06-2014 15:05:00 26.6 C 9.57 g/m*3 26.6 C 6.4 km/h
1213 06-06-2014 15:10:00 26.5 C 10.01 g/m*3 26.5 C 8.1 km/h
1214 06-06-2014 15:15:00 26.6 C 9.82 g/m*3 26.6 C 4.8 km/h
1215 06-06-2014 15:20:00 26.7 C 9.11 g/m*3 26.7 C 8.1 km/h
1216 06-06-2014 15:25:00 26.7 C 9.37 g/m*3 26.7 C 4.8 km/h
1217 06-06-2014 15:30:00 26.7 C 9.62 g/m*3 26.7 C 4.8 km/h
1218 06-06-2014 15:35:00 26.8 C 9.42 g/m*3 26.8 C 11.3 km/h
1219 06-06-2014 15:40:00 26.9 C 9.73 g/m*3 26.9 C 8.1 km/h
1220 06-06-2014 15:45:00 27.4 C 10.52 g/m*3 27.4 C 6.4 km/h
1221 06-06-2014 15:50:00 27.8 C 10.22 g/m*3 27.8 C 6.4 km/h
1222 06-06-2014 15:55:00 27.8 C 10.22 g/m*3 27.8 C 8.1 km/h
1223 06-06-2014 16:00:00 27.8 C 10.22 g/m*3 27.8 C 12.9 km/h
1224 06-06-2014 16:05:00 27.6 C 9.31 g/m*3 27.6 C 9.7 km/h
1225 06-06-2014 16:10:00 27.3 C 11.25 g/m*3 27.3 C 6.4 km/h
Sensor: Nr:Datum:Temp:Abs-Feuchte:Windchill:Wind:
Aussen-T/F 1226 06-06-2014 16:15:00 27.1 C 9.32 g/m*3 27.1 C 4.8 km/h
1227 06-06-2014 16:20:00 27.2 C 10.15 g/m*3 27.2 C 9.7 km/h
1228 06-06-2014 16:25:00 27.8 C 9.68 g/m*3 27.8 C 9.7 km/h
1229 06-06-2014 16:30:00 28.2 C 10.17 g/m*3 28.2 C 11.3 km/h
1230 06-06-2014 16:35:00 27.8 C 10.49 g/m*3 27.8 C 6.4 km/h
1231 06-06-2014 16:40:00 27.3 C 9.68 g/m*3 27.3 C 3.2 km/h
1232 06-06-2014 16:45:00 27.2 C 9.63 g/m*3 27.2 C 6.4 km/h
1233 06-06-2014 16:50:00 27.4 C 9.21 g/m*3 27.4 C 3.2 km/h
1234 06-06-2014 16:55:00 27.4 C 9.21 g/m*3 27.4 C 4.8 km/h
1235 06-06-2014 17:00:00 27.2 C 9.63 g/m*3 27.2 C 4.8 km/h
1236 06-06-2014 17:05:00 27.5 C 10.58 g/m*3 27.5 C 11.3 km/h
1237 06-06-2014 17:10:00 27.9 C 9.74 g/m*3 27.9 C 3.2 km/h
1238 06-06-2014 17:15:00 28.1 C 9.3 g/m*3 28.1 C 3.2 km/h
1239 06-06-2014 17:20:00 27.8 C 8.88 g/m*3 27.8 C 3.2 km/h
1240 06-06-2014 17:25:00 27.7 C 10.16 g/m*3 27.7 C 0 km/h
1241 06-06-2014 17:30:00 27.9 C 9.74 g/m*3 27.9 C 6.4 km/h
1242 06-06-2014 17:35:00 27.8 C 11.57 g/m*3 27.8 C 6.4 km/h
1243 06-06-2014 17:40:00 27 C 11.58 g/m*3 27 C 1.6 km/h
1244 06-06-2014 17:45:00 25.8 C 12.76 g/m*3 25.8 C 1.6 km/h
1245 06-06-2014 17:50:00 25.7 C 10.53 g/m*3 25.7 C 8.1 km/h
1246 06-06-2014 17:55:00 26.4 C 11.7 g/m*3 26.4 C 8.1 km/h
1247 06-06-2014 18:00:00 27.3 C 10.2 g/m*3 27.3 C 8.1 km/h
1248 06-06-2014 18:05:00 27.8 C 11.03 g/m*3 27.8 C 11.3 km/h
1249 06-06-2014 18:10:00 28.1 C 10.94 g/m*3 28.1 C 8.1 km/h
1250 06-06-2014 18:15:00 28.2 C 10.45 g/m*3 28.2 C 9.7 km/h
Sensor: Nr:Datum:Temp:Abs-Feuchte:Windchill:Wind:
Aussen-T/F 1251 06-06-2014 18:20:00 28.1 C 10.12 g/m*3 28.1 C 11.3 km/h
1252 06-06-2014 18:25:00 28.2 C 10.45 g/m*3 28.2 C 9.7 km/h
1253 06-06-2014 18:30:00 28.3 C 10.23 g/m*3 28.3 C 11.3 km/h
1254 06-06-2014 18:35:00 28.4 C 10.56 g/m*3 28.4 C 6.4 km/h
1255 06-06-2014 18:40:00 28.3 C 10.51 g/m*3 28.3 C 9.7 km/h
1256 06-06-2014 18:45:00 28 C 9.79 g/m*3 28 C 8.1 km/h
1257 06-06-2014 18:50:00 28.1 C 10.39 g/m*3 28.1 C 9.7 km/h
1258 06-06-2014 18:55:00 28.1 C 11.76 g/m*3 28.1 C 6.4 km/h
1259 06-06-2014 19:00:00 28 C 10.88 g/m*3 28 C 8.1 km/h
1260 06-06-2014 19:05:00 28.1 C 10.66 g/m*3 28.1 C 6.4 km/h
1261 06-06-2014 19:10:00 27.9 C 10.01 g/m*3 27.9 C 6.4 km/h
1262 06-06-2014 19:15:00 27.6 C 10.11 g/m*3 27.6 C 8.1 km/h
1263 06-06-2014 19:20:00 27.3 C 10.2 g/m*3 27.3 C 9.7 km/h
1264 06-06-2014 19:25:00 27.1 C 10.35 g/m*3 27.1 C 9.7 km/h
1265 06-06-2014 19:30:00 26.7 C 12.4 g/m*3 26.7 C 6.4 km/h
1266 06-06-2014 19:35:00 26 C 12.17 g/m*3 26 C 0 km/h
1267 06-06-2014 19:40:00 25.3 C 12.17 g/m*3 25.3 C 1.6 km/h
1268 06-06-2014 19:45:00 24.8 C 11.61 g/m*3 24.8 C 4.8 km/h
1269 06-06-2014 19:50:00 24.6 C 10.58 g/m*3 24.6 C 4.8 km/h
1270 06-06-2014 19:55:00 24.6 C 13.05 g/m*3 24.6 C 1.6 km/h
1271 06-06-2014 20:00:00 24.2 C 12.76 g/m*3 24.2 C 1.6 km/h
1272 06-06-2014 20:05:00 23.9 C 12.55 g/m*3 23.9 C 1.6 km/h
1273 06-06-2014 20:10:00 23.6 C 12.97 g/m*3 23.6 C 3.2 km/h
1274 06-06-2014 20:15:00 23 C 12.74 g/m*3 23 C 0 km/h
1275 06-06-2014 20:20:00 22.6 C 12.86 g/m*3 22.6 C 1.6 km/h
Sensor: Nr:Datum:Temp:Abs-Feuchte:Windchill:Wind:
Aussen-T/F 1276 06-06-2014 20:25:00 22.3 C 12.64 g/m*3 22.3 C 0 km/h
1277 06-06-2014 20:30:00 22 C 12.42 g/m*3 22 C 1.6 km/h
1278 06-06-2014 20:35:00 21.8 C 12.66 g/m*3 21.8 C 0 km/h
1279 06-06-2014 20:40:00 21.6 C 12.52 g/m*3 21.6 C 0 km/h
1280 06-06-2014 20:45:00 21.4 C 12.19 g/m*3 21.4 C 1.6 km/h
1281 06-06-2014 20:50:00 21.3 C 12.49 g/m*3 21.3 C 1.6 km/h
1282 06-06-2014 20:55:00 21.2 C 12.6 g/m*3 21.2 C 0 km/h
1283 06-06-2014 21:00:00 21 C 12.27 g/m*3 21 C 1.6 km/h
1284 06-06-2014 21:05:00 20.8 C 12.31 g/m*3 20.8 C 1.6 km/h
1285 06-06-2014 21:10:00 20.4 C 12.21 g/m*3 20.4 C 0 km/h
1286 06-06-2014 21:15:00 20.2 C 11.89 g/m*3 20.2 C 1.6 km/h
1287 06-06-2014 21:20:00 19.9 C 11.85 g/m*3 19.9 C 0 km/h
1288 06-06-2014 21:25:00 19.7 C 11.89 g/m*3 19.7 C 1.6 km/h
1289 06-06-2014 21:30:00 19.6 C 11.99 g/m*3 19.6 C 1.6 km/h
1290 06-06-2014 21:35:00 19.3 C 11.61 g/m*3 19.3 C 1.6 km/h
1291 06-06-2014 21:40:00 19.2 C 11.71 g/m*3 19.2 C 1.6 km/h
1292 06-06-2014 21:45:00 19.1 C 11.8 g/m*3 19.1 C 1.6 km/h
1293 06-06-2014 21:50:00 18.9 C 11.5 g/m*3 18.9 C 1.6 km/h
1294 06-06-2014 21:55:00 18.8 C 11.76 g/m*3 18.8 C 1.6 km/h
1295 06-06-2014 22:00:00 18.7 C 11.53 g/m*3 18.7 C 1.6 km/h
1296 06-06-2014 22:05:00 18.6 C 11.62 g/m*3 18.6 C 1.6 km/h
1297 06-06-2014 22:10:00 18.4 C 11.32 g/m*3 18.4 C 1.6 km/h
1298 06-06-2014 22:15:00 18.4 C 11.48 g/m*3 18.4 C 0 km/h
1299 06-06-2014 22:20:00 18.3 C 11.26 g/m*3 18.3 C 0 km/h
1300 06-06-2014 22:25:00 18.2 C 11.35 g/m*3 18.2 C 0 km/h
Sensor: Nr:Datum:Temp:Abs-Feuchte:Windchill:Wind:
Aussen-T/F 1301 06-06-2014 22:30:00 18.1 C 11.59 g/m*3 18.1 C 1.6 km/h
1302 06-06-2014 22:35:00 18 C 11.37 g/m*3 18 C 1.6 km/h
1303 06-06-2014 22:40:00 17.9 C 11.15 g/m*3 17.9 C 0 km/h
1304 06-06-2014 22:45:00 17.9 C 10.84 g/m*3 17.9 C 0 km/h
1305 06-06-2014 22:50:00 17.9 C 11.15 g/m*3 17.9 C 0 km/h
1306 06-06-2014 22:55:00 17.8 C 11.38 g/m*3 17.8 C 1.6 km/h
1307 06-06-2014 23:00:00 17.7 C 11.32 g/m*3 17.7 C 1.6 km/h
1308 06-06-2014 23:05:00 17.6 C 11.1 g/m*3 17.6 C 1.6 km/h
1309 06-06-2014 23:10:00 17.5 C 10.88 g/m*3 17.5 C 0 km/h
1310 06-06-2014 23:15:00 17.4 C 11.26 g/m*3 17.4 C 0 km/h
1311 06-06-2014 23:20:00 17.4 C 11.26 g/m*3 17.4 C 0 km/h
1312 06-06-2014 23:25:00 17.3 C 11.34 g/m*3 17.3 C 1.6 km/h
1313 06-06-2014 23:30:00 17.2 C 10.84 g/m*3 17.2 C 0 km/h
1314 06-06-2014 23:35:00 17.2 C 10.69 g/m*3 17.2 C 0 km/h
1315 06-06-2014 23:40:00 17.2 C 11.13 g/m*3 17.2 C 0 km/h
1316 06-06-2014 23:45:00 17.1 C 10.92 g/m*3 17.1 C 0 km/h
1317 06-06-2014 23:50:00 16.8 C 10.87 g/m*3 16.8 C 0 km/h
1318 06-06-2014 23:55:00 16.7 C 10.94 g/m*3 16.7 C 0 km/h
1319 07-06-2014 00:00:00 16.5 C 10.81 g/m*3 16.5 C 0 km/h
1320 07-06-2014 00:05:00 16.4 C 10.47 g/m*3 16.4 C 0 km/h
1321 07-06-2014 00:10:00 16.4 C 10.47 g/m*3 16.4 C 0 km/h
1322 07-06-2014 00:15:00 16.3 C 10.54 g/m*3 16.3 C 0 km/h
1323 07-06-2014 00:20:00 16.2 C 10.48 g/m*3 16.2 C 3.2 km/h
1324 07-06-2014 00:25:00 16.1 C 10.55 g/m*3 16.1 C 1.6 km/h
1325 07-06-2014 00:30:00 15.9 C 10.43 g/m*3 15.9 C 0 km/h
Sensor: Nr:Datum:Temp:Abs-Feuchte:Windchill:Wind:
Aussen-T/F 1326 07-06-2014 00:35:00 15.8 C 10.5 g/m*3 15.8 C 0 km/h
1327 07-06-2014 00:40:00 15.7 C 10.57 g/m*3 15.7 C 0 km/h
1328 07-06-2014 00:45:00 15.6 C 10.64 g/m*3 15.6 C 0 km/h
1329 07-06-2014 00:50:00 15.4 C 10.38 g/m*3 15.4 C 0 km/h
1330 07-06-2014 00:55:00 15.2 C 10.38 g/m*3 15.2 C 0 km/h
1331 07-06-2014 01:00:00 15.2 C 10.38 g/m*3 15.2 C 0 km/h
1332 07-06-2014 01:05:00 15.1 C 10.45 g/m*3 15.1 C 0 km/h
1333 07-06-2014 01:10:00 15.1 C 10.45 g/m*3 15.1 C 0 km/h
1334 07-06-2014 01:15:00 14.9 C 10.32 g/m*3 14.9 C 0 km/h
1335 07-06-2014 01:20:00 14.9 C 10.32 g/m*3 14.9 C 0 km/h
1336 07-06-2014 01:25:00 14.8 C 10.39 g/m*3 14.8 C 0 km/h
1337 07-06-2014 01:30:00 14.8 C 10.39 g/m*3 14.8 C 0 km/h
1338 07-06-2014 01:35:00 14.6 C 10.26 g/m*3 14.6 C 0 km/h
1339 07-06-2014 01:40:00 14.5 C 10.32 g/m*3 14.5 C 0 km/h
1340 07-06-2014 01:45:00 14.4 C 10.26 g/m*3 14.4 C 0 km/h
1341 07-06-2014 01:50:00 14.2 C 10.01 g/m*3 14.2 C 0 km/h
1342 07-06-2014 01:55:00 14.1 C 9.95 g/m*3 14.1 C 0 km/h
1343 07-06-2014 02:00:00 14.1 C 10.07 g/m*3 14.1 C 0 km/h
1344 07-06-2014 02:05:00 14 C 10.01 g/m*3 14 C 0 km/h
1345 07-06-2014 02:10:00 14 C 10.01 g/m*3 14 C 0 km/h
1346 07-06-2014 02:15:00 14 C 10.13 g/m*3 14 C 0 km/h
1347 07-06-2014 02:20:00 14 C 10.01 g/m*3 14 C 0 km/h
1348 07-06-2014 02:25:00 14 C 10.01 g/m*3 14 C 0 km/h
1349 07-06-2014 02:30:00 14 C 10.01 g/m*3 14 C 0 km/h
1350 07-06-2014 02:35:00 13.9 C 9.95 g/m*3 13.9 C 0 km/h
Sensor: Nr:Datum:Temp:Abs-Feuchte:Windchill:Wind:
Aussen-T/F 1351 07-06-2014 02:40:00 13.8 C 10.01 g/m*3 13.8 C 0 km/h
1352 07-06-2014 02:45:00 13.7 C 9.95 g/m*3 13.7 C 0 km/h
1353 07-06-2014 02:50:00 13.7 C 9.95 g/m*3 13.7 C 0 km/h
1354 07-06-2014 02:55:00 13.6 C 10 g/m*3 13.6 C 0 km/h
1355 07-06-2014 03:00:00 13.5 C 9.94 g/m*3 13.5 C 0 km/h
1356 07-06-2014 03:05:00 13.4 C 9.88 g/m*3 13.4 C 0 km/h
1357 07-06-2014 03:10:00 13.4 C 9.88 g/m*3 13.4 C 0 km/h
1358 07-06-2014 03:15:00 13.3 C 9.94 g/m*3 13.3 C 0 km/h
1359 07-06-2014 03:20:00 13.3 C 9.94 g/m*3 13.3 C 0 km/h
1360 07-06-2014 03:25:00 13.2 C 9.87 g/m*3 13.2 C 0 km/h
1361 07-06-2014 03:30:00 13.1 C 9.81 g/m*3 13.1 C 0 km/h
1362 07-06-2014 03:35:00 12.9 C 9.81 g/m*3 12.9 C 0 km/h
1363 07-06-2014 03:40:00 12.9 C 9.81 g/m*3 12.9 C 0 km/h
1364 07-06-2014 03:45:00 12.8 C 9.74 g/m*3 12.8 C 0 km/h
1365 07-06-2014 03:50:00 12.8 C 9.74 g/m*3 12.8 C 0 km/h
1366 07-06-2014 03:55:00 12.8 C 9.74 g/m*3 12.8 C 0 km/h
1367 07-06-2014 04:00:00 12.7 C 9.68 g/m*3 12.7 C 0 km/h
1368 07-06-2014 04:05:00 12.7 C 9.68 g/m*3 12.7 C 0 km/h
1369 07-06-2014 04:10:00 12.7 C 9.8 g/m*3 12.7 C 0 km/h
1370 07-06-2014 04:15:00 12.6 C 9.74 g/m*3 12.6 C 0 km/h
1371 07-06-2014 04:20:00 12.5 C 9.68 g/m*3 12.5 C 0 km/h
1372 07-06-2014 04:25:00 12.4 C 9.72 g/m*3 12.4 C 0 km/h
1373 07-06-2014 04:30:00 12.4 C 9.72 g/m*3 12.4 C 0 km/h
1374 07-06-2014 04:35:00 12.3 C 9.77 g/m*3 12.3 C 0 km/h
1375 07-06-2014 04:40:00 12.3 C 9.66 g/m*3 12.3 C 0 km/h
Sensor: Nr:Datum:Temp:Abs-Feuchte:Windchill:Wind:
Aussen-T/F 1376 07-06-2014 04:45:00 12.3 C 9.66 g/m*3 12.3 C 0 km/h
1377 07-06-2014 04:50:00 12.2 C 9.6 g/m*3 12.2 C 0 km/h
1378 07-06-2014 04:55:00 12.2 C 9.6 g/m*3 12.2 C 0 km/h
1379 07-06-2014 05:00:00 12.2 C 9.6 g/m*3 12.2 C 0 km/h
1380 07-06-2014 05:05:00 12.2 C 9.71 g/m*3 12.2 C 0 km/h
1381 07-06-2014 05:10:00 12.1 C 9.65 g/m*3 12.1 C 0 km/h
1382 07-06-2014 05:15:00 12.1 C 9.65 g/m*3 12.1 C 0 km/h
1383 07-06-2014 05:20:00 12.1 C 9.65 g/m*3 12.1 C 0 km/h
1384 07-06-2014 05:25:00 12.1 C 9.76 g/m*3 12.1 C 0 km/h
1385 07-06-2014 05:30:00 12.1 C 9.76 g/m*3 12.1 C 0 km/h
1386 07-06-2014 05:35:00 12.1 C 9.76 g/m*3 12.1 C 0 km/h
1387 07-06-2014 05:40:00 12 C 9.7 g/m*3 12 C 0 km/h
1388 07-06-2014 05:45:00 12 C 9.7 g/m*3 12 C 0 km/h
1389 07-06-2014 05:50:00 12 C 9.7 g/m*3 12 C 0 km/h
1390 07-06-2014 05:55:00 12.1 C 9.76 g/m*3 12.1 C 0 km/h
1391 07-06-2014 06:00:00 12.1 C 9.76 g/m*3 12.1 C 0 km/h
1392 07-06-2014 06:05:00 12.1 C 9.76 g/m*3 12.1 C 0 km/h
1393 07-06-2014 06:10:00 12.2 C 9.82 g/m*3 12.2 C 0 km/h
1394 07-06-2014 06:15:00 12.2 C 9.82 g/m*3 12.2 C 0 km/h
1395 07-06-2014 06:20:00 12.2 C 9.82 g/m*3 12.2 C 0 km/h
1396 07-06-2014 06:25:00 12.2 C 9.82 g/m*3 12.2 C 0 km/h
1397 07-06-2014 06:30:00 12.2 C 9.93 g/m*3 12.2 C 0 km/h
1398 07-06-2014 06:35:00 12.2 C 9.93 g/m*3 12.2 C 0 km/h
1399 07-06-2014 06:40:00 12.2 C 9.93 g/m*3 12.2 C 0 km/h
1400 07-06-2014 06:45:00 12.3 C 9.99 g/m*3 12.3 C 0 km/h
Sensor: Nr:Datum:Temp:Abs-Feuchte:Windchill:Wind:
Aussen-T/F 1401 07-06-2014 06:50:00 12.3 C 9.99 g/m*3 12.3 C 0 km/h
1402 07-06-2014 06:55:00 12.4 C 10.05 g/m*3 12.4 C 0 km/h
1403 07-06-2014 07:00:00 12.6 C 10.18 g/m*3 12.6 C 0 km/h
1404 07-06-2014 07:05:00 12.7 C 10.24 g/m*3 12.7 C 0 km/h
1405 07-06-2014 07:10:00 12.8 C 10.19 g/m*3 12.8 C 0 km/h
1406 07-06-2014 07:15:00 12.9 C 10.26 g/m*3 12.9 C 0 km/h
1407 07-06-2014 07:20:00 13.1 C 10.38 g/m*3 13.1 C 0 km/h
1408 07-06-2014 07:25:00 13.1 C 10.27 g/m*3 13.1 C 0 km/h
1409 07-06-2014 07:30:00 13.2 C 10.33 g/m*3 13.2 C 0 km/h
1410 07-06-2014 07:35:00 13.3 C 10.4 g/m*3 13.3 C 0 km/h
1411 07-06-2014 07:40:00 13.4 C 10.46 g/m*3 13.4 C 0 km/h
1412 07-06-2014 07:45:00 13.6 C 10.71 g/m*3 13.6 C 0 km/h
1413 07-06-2014 07:50:00 13.8 C 10.72 g/m*3 13.8 C 0 km/h
1414 07-06-2014 07:55:00 14.1 C 10.68 g/m*3 14.1 C 1.6 km/h
1415 07-06-2014 08:00:00 14.4 C 10.88 g/m*3 14.4 C 0 km/h
1416 07-06-2014 08:05:00 14.6 C 10.89 g/m*3 14.6 C 0 km/h
1417 07-06-2014 08:10:00 14.9 C 11.09 g/m*3 14.9 C 0 km/h
1418 07-06-2014 08:15:00 15.2 C 11.16 g/m*3 15.2 C 0 km/h
1419 07-06-2014 08:20:00 15.6 C 11.17 g/m*3 15.6 C 0 km/h
1420 07-06-2014 08:25:00 15.8 C 11.31 g/m*3 15.8 C 0 km/h
1421 07-06-2014 08:30:00 16.1 C 11.38 g/m*3 16.1 C 0 km/h
1422 07-06-2014 08:35:00 16.3 C 11.52 g/m*3 16.3 C 0 km/h
1423 07-06-2014 08:40:00 16.4 C 11.45 g/m*3 16.4 C 0 km/h
1424 07-06-2014 08:45:00 16.7 C 11.51 g/m*3 16.7 C 0 km/h
1425 07-06-2014 08:50:00 16.8 C 11.58 g/m*3 16.8 C 0 km/h
Sensor: Nr:Datum:Temp:Abs-Feuchte:Windchill:Wind:
Aussen-T/F 1426 07-06-2014 08:55:00 17.1 C 11.65 g/m*3 17.1 C 0 km/h
1427 07-06-2014 09:00:00 17.3 C 11.93 g/m*3 17.3 C 1.6 km/h
1428 07-06-2014 09:05:00 17.5 C 11.78 g/m*3 17.5 C 0 km/h
1429 07-06-2014 09:10:00 17.7 C 11.92 g/m*3 17.7 C 0 km/h
1430 07-06-2014 09:15:00 17.4 C 11.86 g/m*3 17.4 C 0 km/h
1431 07-06-2014 09:20:00 17.4 C 11.86 g/m*3 17.4 C 0 km/h
1432 07-06-2014 09:25:00 17.4 C 12 g/m*3 17.4 C 0 km/h
1433 07-06-2014 09:30:00 17.3 C 12.08 g/m*3 17.3 C 0 km/h
1434 07-06-2014 09:35:00 17.2 C 12.01 g/m*3 17.2 C 0 km/h
1435 07-06-2014 09:40:00 17.3 C 12.08 g/m*3 17.3 C 0 km/h
1436 07-06-2014 09:45:00 17.4 C 12.3 g/m*3 17.4 C 0 km/h
1437 07-06-2014 09:50:00 17.6 C 12.45 g/m*3 17.6 C 0 km/h
1438 07-06-2014 09:55:00 18 C 12.59 g/m*3 18 C 0 km/h
1439 07-06-2014 10:00:00 18.4 C 12.74 g/m*3 18.4 C 0 km/h
1440 07-06-2014 10:05:00 18.9 C 12.96 g/m*3 18.9 C 0 km/h
1441 07-06-2014 10:10:00 19.3 C 13.1 g/m*3 19.3 C 0 km/h
1442 07-06-2014 10:15:00 19.8 C 13.32 g/m*3 19.8 C 0 km/h
1443 07-06-2014 10:20:00 20 C 13.48 g/m*3 20 C 0 km/h
1444 07-06-2014 10:25:00 20.4 C 13.44 g/m*3 20.4 C 0 km/h
1445 07-06-2014 10:30:00 20.6 C 13.42 g/m*3 20.6 C 0 km/h
1446 07-06-2014 10:35:00 20.8 C 13.76 g/m*3 20.8 C 0 km/h
1447 07-06-2014 10:40:00 21.1 C 13.82 g/m*3 21.1 C 0 km/h
1448 07-06-2014 10:45:00 21.4 C 13.87 g/m*3 21.4 C 0 km/h
1449 07-06-2014 10:50:00 21.4 C 14.25 g/m*3 21.4 C 0 km/h
1450 07-06-2014 10:55:00 21.6 C 14.41 g/m*3 21.6 C 0 km/h
Sensor: Nr:Datum:Temp:Abs-Feuchte:Windchill:Wind:
Aussen-T/F 1451 07-06-2014 11:00:00 21.8 C 14.2 g/m*3 21.8 C 1.6 km/h
1452 07-06-2014 11:05:00 21.8 C 14.58 g/m*3 21.8 C 0 km/h
1453 07-06-2014 11:10:00 22.1 C 14.64 g/m*3 22.1 C 1.6 km/h
1454 07-06-2014 11:15:00 22.9 C 14.31 g/m*3 22.9 C 3.2 km/h
1455 07-06-2014 11:20:00 23.8 C 14.84 g/m*3 23.8 C 4.8 km/h
1456 07-06-2014 11:25:00 24.2 C 15.18 g/m*3 24.2 C 1.6 km/h
1457 07-06-2014 11:30:00 24.8 C 13.88 g/m*3 24.8 C 4.8 km/h
1458 07-06-2014 11:35:00 25.4 C 13.42 g/m*3 25.4 C 6.4 km/h
1459 07-06-2014 11:40:00 26.2 C 13.05 g/m*3 26.2 C 9.7 km/h
1460 07-06-2014 11:45:00 26.9 C 14.08 g/m*3 26.9 C 8.1 km/h
1461 07-06-2014 11:50:00 27.4 C 13.16 g/m*3 27.4 C 1.6 km/h
1462 07-06-2014 11:55:00 27.7 C 13.37 g/m*3 27.7 C 3.2 km/h
1463 07-06-2014 12:00:00 27.8 C 13.99 g/m*3 27.8 C 4.8 km/h
1464 07-06-2014 12:05:00 28.1 C 13.4 g/m*3 28.1 C 8.1 km/h
1465 07-06-2014 12:10:00 28.7 C 14.69 g/m*3 28.7 C 8.1 km/h
1466 07-06-2014 12:15:00 28.8 C 12.79 g/m*3 28.8 C 4.8 km/h
1467 07-06-2014 12:20:00 28.7 C 14.13 g/m*3 28.7 C 4.8 km/h
1468 07-06-2014 12:25:00 28.5 C 13.42 g/m*3 28.5 C 4.8 km/h
1469 07-06-2014 12:30:00 28.5 C 12.58 g/m*3 28.5 C 6.4 km/h
1470 07-06-2014 12:35:00 28.6 C 12.93 g/m*3 28.6 C 6.4 km/h
1471 07-06-2014 12:40:00 28.7 C 12.72 g/m*3 28.7 C 6.4 km/h
1472 07-06-2014 12:45:00 28.9 C 14.57 g/m*3 28.9 C 6.4 km/h
1473 07-06-2014 12:50:00 29.1 C 12.71 g/m*3 29.1 C 4.8 km/h
1474 07-06-2014 12:55:00 29.2 C 13.94 g/m*3 29.2 C 6.4 km/h
1475 07-06-2014 13:00:00 29.2 C 12.2 g/m*3 29.2 C 6.4 km/h
Sensor: Nr:Datum:Temp:Abs-Feuchte:Windchill:Wind:
Aussen-T/F 1476 07-06-2014 13:05:00 29.2 C 13.36 g/m*3 29.2 C 4.8 km/h
1477 07-06-2014 13:10:00 29.3 C 14.31 g/m*3 29.3 C 3.2 km/h
1478 07-06-2014 13:15:00 29.4 C 13.8 g/m*3 29.4 C 8.1 km/h
1479 07-06-2014 13:20:00 29.6 C 12.46 g/m*3 29.6 C 8.1 km/h
1480 07-06-2014 13:25:00 29.8 C 13.2 g/m*3 29.8 C 4.8 km/h
1481 07-06-2014 13:30:00 30.1 C 12.5 g/m*3 30.1 C 4.8 km/h
1482 07-06-2014 13:35:00 30.3 C 12.94 g/m*3 30.3 C 3.2 km/h
1483 07-06-2014 13:40:00 30.2 C 15.02 g/m*3 30.2 C 8.1 km/h
1484 07-06-2014 13:45:00 30.4 C 13.94 g/m*3 30.4 C 8.1 km/h
1485 07-06-2014 13:50:00 30.3 C 12.33 g/m*3 30.3 C 8.1 km/h
1486 07-06-2014 13:55:00 30.1 C 12.81 g/m*3 30.1 C 8.1 km/h
1487 07-06-2014 14:00:00 30.2 C 12.57 g/m*3 30.2 C 6.4 km/h
1488 07-06-2014 14:05:00 30.3 C 13.25 g/m*3 30.3 C 3.2 km/h
1489 07-06-2014 14:10:00 30.4 C 12.7 g/m*3 30.4 C 9.7 km/h
1490 07-06-2014 14:15:00 30.6 C 12.53 g/m*3 30.6 C 3.2 km/h
1491 07-06-2014 14:20:00 30.6 C 13.47 g/m*3 30.6 C 11.3 km/h
1492 07-06-2014 14:25:00 30.7 C 12.91 g/m*3 30.7 C 9.7 km/h
1493 07-06-2014 14:30:00 30.7 C 11.34 g/m*3 30.7 C 6.4 km/h
1494 07-06-2014 14:35:00 30.7 C 11.34 g/m*3 30.7 C 8.1 km/h
1495 07-06-2014 14:40:00 30.9 C 11.78 g/m*3 30.9 C 9.7 km/h
1496 07-06-2014 14:45:00 30.9 C 13.37 g/m*3 30.9 C 6.4 km/h
1497 07-06-2014 14:50:00 30.7 C 15.12 g/m*3 30.7 C 4.8 km/h
1498 07-06-2014 14:55:00 30.6 C 12.53 g/m*3 30.6 C 4.8 km/h
1499 07-06-2014 15:00:00 30.8 C 13.3 g/m*3 30.8 C 8.1 km/h
1500 07-06-2014 15:05:00 31.1 C 12.87 g/m*3 31.1 C 6.4 km/h
Sensor: Nr:Datum:Temp:Abs-Feuchte:Windchill:Wind:
Aussen-T/F 1501 07-06-2014 15:10:00 31.1 C 11.26 g/m*3 31.1 C 11.3 km/h
1502 07-06-2014 15:15:00 31.1 C 12.23 g/m*3 31.1 C 4.8 km/h
1503 07-06-2014 15:20:00 31.2 C 11.97 g/m*3 31.2 C 1.6 km/h
1504 07-06-2014 15:25:00 31.3 C 12.03 g/m*3 31.3 C 4.8 km/h
1505 07-06-2014 15:30:00 31.3 C 12.68 g/m*3 31.3 C 1.6 km/h
1506 07-06-2014 15:35:00 31.1 C 14.48 g/m*3 31.1 C 1.6 km/h
1507 07-06-2014 15:40:00 30.6 C 13.78 g/m*3 30.6 C 3.2 km/h
1508 07-06-2014 15:45:00 30.5 C 12.46 g/m*3 30.5 C 3.2 km/h
1509 07-06-2014 15:50:00 30.5 C 13.4 g/m*3 30.5 C 4.8 km/h
1510 07-06-2014 15:55:00 30.1 C 15.24 g/m*3 30.1 C 4.8 km/h
1511 07-06-2014 16:00:00 29.3 C 14.6 g/m*3 29.3 C 4.8 km/h
1512 07-06-2014 16:05:00 28.8 C 15.63 g/m*3 28.8 C 3.2 km/h
1513 07-06-2014 16:10:00 28.6 C 15.46 g/m*3 28.6 C 1.6 km/h
1514 07-06-2014 16:15:00 28.2 C 15.95 g/m*3 28.2 C 0 km/h
1515 07-06-2014 16:20:00 27.8 C 16.14 g/m*3 27.8 C 1.6 km/h
1516 07-06-2014 16:25:00 27.8 C 16.41 g/m*3 27.8 C 1.6 km/h
1517 07-06-2014 16:30:00 27.8 C 16.41 g/m*3 27.8 C 1.6 km/h
1518 07-06-2014 16:35:00 27.7 C 16.58 g/m*3 27.7 C 0 km/h
1519 07-06-2014 16:40:00 27.4 C 16.31 g/m*3 27.4 C 1.6 km/h
1520 07-06-2014 16:45:00 27.2 C 16.39 g/m*3 27.2 C 1.6 km/h
1521 07-06-2014 16:50:00 26.9 C 16.64 g/m*3 26.9 C 1.6 km/h
1522 07-06-2014 16:55:00 26.7 C 16.45 g/m*3 26.7 C 0 km/h
1523 07-06-2014 17:00:00 26.4 C 16.18 g/m*3 26.4 C 0 km/h
1524 07-06-2014 17:05:00 26.3 C 16.59 g/m*3 26.3 C 0 km/h
1525 07-06-2014 17:10:00 26.1 C 16.65 g/m*3 26.1 C 0 km/h
Sensor: Nr:Datum:Temp:Abs-Feuchte:Windchill:Wind:
Aussen-T/F 1526 07-06-2014 17:15:00 25.8 C 16.37 g/m*3 25.8 C 0 km/h
1527 07-06-2014 17:20:00 25.6 C 16.43 g/m*3 25.6 C 1.6 km/h
1528 07-06-2014 17:25:00 25.4 C 16.48 g/m*3 25.4 C 1.6 km/h
1529 07-06-2014 17:30:00 25.2 C 16.3 g/m*3 25.2 C 1.6 km/h
1530 07-06-2014 17:35:00 25.1 C 15.97 g/m*3 25.1 C 0 km/h
1531 07-06-2014 17:40:00 25 C 16.34 g/m*3 25 C 0 km/h
1532 07-06-2014 17:45:00 24.9 C 16.02 g/m*3 24.9 C 0 km/h
1533 07-06-2014 17:50:00 24.9 C 16.25 g/m*3 24.9 C 0 km/h
1534 07-06-2014 17:55:00 25.1 C 16.67 g/m*3 25.1 C 0 km/h
1535 07-06-2014 18:00:00 25.5 C 17.05 g/m*3 25.5 C 0 km/h
1536 07-06-2014 18:05:00 25.9 C 17.43 g/m*3 25.9 C 1.6 km/h
1537 07-06-2014 18:10:00 26.5 C 17.52 g/m*3 26.5 C 0 km/h
1538 07-06-2014 18:15:00 26.6 C 17.12 g/m*3 26.6 C 1.6 km/h
1539 07-06-2014 18:20:00 26.4 C 17.43 g/m*3 26.4 C 3.2 km/h
1540 07-06-2014 18:25:00 26.5 C 17.52 g/m*3 26.5 C 0 km/h
1541 07-06-2014 18:30:00 26.8 C 17.82 g/m*3 26.8 C 0 km/h
1542 07-06-2014 18:35:00 27.1 C 17.6 g/m*3 27.1 C 0 km/h
1543 07-06-2014 18:40:00 26.9 C 17.4 g/m*3 26.9 C 0 km/h
1544 07-06-2014 18:45:00 26.7 C 17.21 g/m*3 26.7 C 0 km/h
1545 07-06-2014 18:50:00 26.3 C 17.08 g/m*3 26.3 C 1.6 km/h
1546 07-06-2014 18:55:00 25.8 C 16.85 g/m*3 25.8 C 1.6 km/h
1547 07-06-2014 19:00:00 25.7 C 17 g/m*3 25.7 C 0 km/h
1548 07-06-2014 19:05:00 25.6 C 16.67 g/m*3 25.6 C 0 km/h
1549 07-06-2014 19:10:00 25.2 C 16.53 g/m*3 25.2 C 1.6 km/h
1550 07-06-2014 19:15:00 24.9 C 16.48 g/m*3 24.9 C 0 km/h
Sensor: Nr:Datum:Temp:Abs-Feuchte:Windchill:Wind:
Aussen-T/F 1551 07-06-2014 19:20:00 24.6 C 16.21 g/m*3 24.6 C 0 km/h
1552 07-06-2014 19:25:00 24.4 C 16.02 g/m*3 24.4 C 0 km/h
1553 07-06-2014 19:30:00 24.4 C 16.25 g/m*3 24.4 C 1.6 km/h
1554 07-06-2014 19:35:00 24.4 C 16.25 g/m*3 24.4 C 0 km/h
1555 07-06-2014 19:40:00 24.7 C 16.3 g/m*3 24.7 C 0 km/h
1556 07-06-2014 19:45:00 24.9 C 16.25 g/m*3 24.9 C 0 km/h
1557 07-06-2014 19:50:00 25 C 16.34 g/m*3 25 C 1.6 km/h
1558 07-06-2014 19:55:00 25 C 16.57 g/m*3 25 C 1.6 km/h
1559 07-06-2014 20:00:00 24.9 C 16.02 g/m*3 24.9 C 0 km/h
1560 07-06-2014 20:05:00 24.9 C 16.02 g/m*3 24.9 C 0 km/h
1561 07-06-2014 20:10:00 24.8 C 15.93 g/m*3 24.8 C 1.6 km/h
1562 07-06-2014 20:15:00 24.7 C 15.62 g/m*3 24.7 C 0 km/h
1563 07-06-2014 20:20:00 24.6 C 15.75 g/m*3 24.6 C 1.6 km/h
1564 07-06-2014 20:25:00 24.4 C 15.58 g/m*3 24.4 C 0 km/h
1565 07-06-2014 20:30:00 24.3 C 15.49 g/m*3 24.3 C 0 km/h
1566 07-06-2014 20:35:00 24.1 C 15.32 g/m*3 24.1 C 1.6 km/h
1567 07-06-2014 20:40:00 23.9 C 15.36 g/m*3 23.9 C 1.6 km/h
1568 07-06-2014 20:45:00 23.8 C 15.27 g/m*3 23.8 C 0 km/h
1569 07-06-2014 20:50:00 23.6 C 15.1 g/m*3 23.6 C 0 km/h
1570 07-06-2014 20:55:00 23.4 C 15.14 g/m*3 23.4 C 0 km/h
1571 07-06-2014 21:00:00 23.2 C 14.97 g/m*3 23.2 C 0 km/h
1572 07-06-2014 21:05:00 23.1 C 14.88 g/m*3 23.1 C 0 km/h
1573 07-06-2014 21:10:00 23 C 14.8 g/m*3 23 C 1.6 km/h
1574 07-06-2014 21:15:00 22.8 C 14.63 g/m*3 22.8 C 1.6 km/h
1575 07-06-2014 21:20:00 22.7 C 14.75 g/m*3 22.7 C 1.6 km/h
Sensor: Nr:Datum:Temp:Abs-Feuchte:Windchill:Wind:
Aussen-T/F 1576 07-06-2014 21:25:00 22.5 C 14.58 g/m*3 22.5 C 1.6 km/h
1577 07-06-2014 21:30:00 22.3 C 14.61 g/m*3 22.3 C 1.6 km/h
1578 07-06-2014 21:35:00 22.2 C 14.53 g/m*3 22.2 C 1.6 km/h
1579 07-06-2014 21:40:00 22 C 14.56 g/m*3 22 C 1.6 km/h
1580 07-06-2014 21:45:00 21.9 C 14.47 g/m*3 21.9 C 1.6 km/h
1581 07-06-2014 21:50:00 21.8 C 14.39 g/m*3 21.8 C 1.6 km/h
1582 07-06-2014 21:55:00 21.8 C 14.39 g/m*3 21.8 C 1.6 km/h
1583 07-06-2014 22:00:00 21.7 C 14.31 g/m*3 21.7 C 1.6 km/h
1584 07-06-2014 22:05:00 21.6 C 14.22 g/m*3 21.6 C 1.6 km/h
1585 07-06-2014 22:10:00 21.6 C 14.22 g/m*3 21.6 C 0 km/h
1586 07-06-2014 22:15:00 21.4 C 14.25 g/m*3 21.4 C 0 km/h
1587 07-06-2014 22:20:00 21.2 C 14.08 g/m*3 21.2 C 0 km/h
1588 07-06-2014 22:25:00 21.1 C 14.19 g/m*3 21.1 C 1.6 km/h
1589 07-06-2014 22:30:00 21 C 13.92 g/m*3 21 C 0 km/h
1590 07-06-2014 22:35:00 20.9 C 14.02 g/m*3 20.9 C 1.6 km/h
1591 07-06-2014 22:40:00 20.9 C 13.84 g/m*3 20.9 C 1.6 km/h
1592 07-06-2014 22:45:00 20.9 C 14.02 g/m*3 20.9 C 0 km/h
1593 07-06-2014 22:50:00 20.8 C 13.94 g/m*3 20.8 C 1.6 km/h
1594 07-06-2014 22:55:00 20.8 C 13.76 g/m*3 20.8 C 1.6 km/h
1595 07-06-2014 23:00:00 20.8 C 13.94 g/m*3 20.8 C 1.6 km/h
1596 07-06-2014 23:05:00 20.7 C 13.86 g/m*3 20.7 C 0 km/h
1597 07-06-2014 23:10:00 20.7 C 13.86 g/m*3 20.7 C 1.6 km/h
1598 07-06-2014 23:15:00 20.6 C 13.78 g/m*3 20.6 C 0 km/h
1599 07-06-2014 23:20:00 20.4 C 13.62 g/m*3 20.4 C 0 km/h
1600 07-06-2014 23:25:00 20.3 C 13.72 g/m*3 20.3 C 0 km/h
Sensor: Nr:Datum:Temp:Abs-Feuchte:Windchill:Wind:
Aussen-T/F 1601 07-06-2014 23:30:00 20.1 C 13.73 g/m*3 20.1 C 0 km/h
1602 07-06-2014 23:35:00 20 C 13.65 g/m*3 20 C 1.6 km/h
1603 07-06-2014 23:40:00 19.9 C 13.74 g/m*3 19.9 C 0 km/h
1604 07-06-2014 23:45:00 19.8 C 13.66 g/m*3 19.8 C 0 km/h
1605 07-06-2014 23:50:00 19.7 C 13.58 g/m*3 19.7 C 0 km/h
1606 07-06-2014 23:55:00 19.6 C 13.51 g/m*3 19.6 C 0 km/h
1607 08-06-2014 00:00:00 19.5 C 13.43 g/m*3 19.5 C 0 km/h
1608 08-06-2014 00:05:00 19.3 C 13.44 g/m*3 19.3 C 0 km/h
1609 08-06-2014 00:10:00 19.3 C 13.44 g/m*3 19.3 C 0 km/h
1610 08-06-2014 00:15:00 19.2 C 13.52 g/m*3 19.2 C 0 km/h
1611 08-06-2014 00:20:00 19.1 C 13.44 g/m*3 19.1 C 0 km/h
1612 08-06-2014 00:25:00 18.9 C 13.45 g/m*3 18.9 C 0 km/h
1613 08-06-2014 00:30:00 18.8 C 13.37 g/m*3 18.8 C 0 km/h
1614 08-06-2014 00:35:00 18.7 C 13.29 g/m*3 18.7 C 0 km/h
1615 08-06-2014 00:40:00 18.7 C 13.29 g/m*3 18.7 C 1.6 km/h
1616 08-06-2014 00:45:00 18.7 C 13.29 g/m*3 18.7 C 0 km/h
1617 08-06-2014 00:50:00 18.7 C 13.29 g/m*3 18.7 C 0 km/h
1618 08-06-2014 00:55:00 18.7 C 13.29 g/m*3 18.7 C 0 km/h
1619 08-06-2014 01:00:00 18.6 C 13.21 g/m*3 18.6 C 0 km/h
1620 08-06-2014 01:05:00 18.4 C 13.05 g/m*3 18.4 C 1.6 km/h
1621 08-06-2014 01:10:00 18.4 C 13.21 g/m*3 18.4 C 0 km/h
1622 08-06-2014 01:15:00 18.3 C 13.13 g/m*3 18.3 C 0 km/h
1623 08-06-2014 01:20:00 18.2 C 13.21 g/m*3 18.2 C 0 km/h
1624 08-06-2014 01:25:00 18.1 C 13.13 g/m*3 18.1 C 0 km/h
1625 08-06-2014 01:30:00 18 C 13.21 g/m*3 18 C 0 km/h
Sensor: Nr:Datum:Temp:Abs-Feuchte:Windchill:Wind:
Aussen-T/F 1626 08-06-2014 01:35:00 17.9 C 13.13 g/m*3 17.9 C 0 km/h
1627 08-06-2014 01:40:00 17.9 C 13.13 g/m*3 17.9 C 0 km/h
1628 08-06-2014 01:45:00 17.8 C 13.05 g/m*3 17.8 C 0 km/h
1629 08-06-2014 01:50:00 17.8 C 13.05 g/m*3 17.8 C 0 km/h
1630 08-06-2014 01:55:00 17.7 C 12.98 g/m*3 17.7 C 1.6 km/h
1631 08-06-2014 02:00:00 17.7 C 12.98 g/m*3 17.7 C 0 km/h
1632 08-06-2014 02:05:00 17.6 C 13.05 g/m*3 17.6 C 0 km/h
1633 08-06-2014 02:10:00 17.5 C 12.97 g/m*3 17.5 C 0 km/h
1634 08-06-2014 02:15:00 17.4 C 12.89 g/m*3 17.4 C 0 km/h
1635 08-06-2014 02:20:00 17.3 C 12.82 g/m*3 17.3 C 0 km/h
1636 08-06-2014 02:25:00 17.3 C 12.82 g/m*3 17.3 C 0 km/h
1637 08-06-2014 02:30:00 17.2 C 12.74 g/m*3 17.2 C 0 km/h
1638 08-06-2014 02:35:00 17.1 C 12.81 g/m*3 17.1 C 0 km/h
1639 08-06-2014 02:40:00 17.1 C 12.81 g/m*3 17.1 C 0 km/h
1640 08-06-2014 02:45:00 17 C 12.73 g/m*3 17 C 0 km/h
1641 08-06-2014 02:50:00 16.9 C 12.66 g/m*3 16.9 C 0 km/h
1642 08-06-2014 02:55:00 16.9 C 12.66 g/m*3 16.9 C 0 km/h
1643 08-06-2014 03:00:00 16.9 C 12.66 g/m*3 16.9 C 0 km/h
1644 08-06-2014 03:05:00 16.8 C 12.58 g/m*3 16.8 C 0 km/h
1645 08-06-2014 03:10:00 16.8 C 12.58 g/m*3 16.8 C 0 km/h
1646 08-06-2014 03:15:00 16.7 C 12.51 g/m*3 16.7 C 0 km/h
1647 08-06-2014 03:20:00 16.7 C 12.65 g/m*3 16.7 C 0 km/h
1648 08-06-2014 03:25:00 16.6 C 12.57 g/m*3 16.6 C 0 km/h
1649 08-06-2014 03:30:00 16.4 C 12.42 g/m*3 16.4 C 0 km/h
1650 08-06-2014 03:35:00 16.4 C 12.56 g/m*3 16.4 C 0 km/h
Sensor: Nr:Datum:Temp:Abs-Feuchte:Windchill:Wind:
Aussen-T/F 1651 08-06-2014 03:40:00 16.3 C 12.49 g/m*3 16.3 C 0 km/h
1652 08-06-2014 03:45:00 16.3 C 12.62 g/m*3 16.3 C 0 km/h
1653 08-06-2014 03:50:00 16.3 C 12.62 g/m*3 16.3 C 0 km/h
1654 08-06-2014 03:55:00 16.3 C 12.62 g/m*3 16.3 C 0 km/h
1655 08-06-2014 04:00:00 16.3 C 12.62 g/m*3 16.3 C 0 km/h
1656 08-06-2014 04:05:00 16.3 C 12.62 g/m*3 16.3 C 0 km/h
1657 08-06-2014 04:10:00 16.3 C 12.62 g/m*3 16.3 C 0 km/h
1658 08-06-2014 04:15:00 16.2 C 12.55 g/m*3 16.2 C 0 km/h
1659 08-06-2014 04:20:00 16.2 C 12.55 g/m*3 16.2 C 0 km/h
1660 08-06-2014 04:25:00 16.2 C 12.55 g/m*3 16.2 C 0 km/h
1661 08-06-2014 04:30:00 16.2 C 12.69 g/m*3 16.2 C 0 km/h
1662 08-06-2014 04:35:00 16.2 C 12.55 g/m*3 16.2 C 0 km/h
1663 08-06-2014 04:40:00 16.2 C 12.55 g/m*3 16.2 C 0 km/h
1664 08-06-2014 04:45:00 16.2 C 12.55 g/m*3 16.2 C 0 km/h
1665 08-06-2014 04:50:00 16 C 12.4 g/m*3 16 C 0 km/h
1666 08-06-2014 04:55:00 15.9 C 12.32 g/m*3 15.9 C 0 km/h
1667 08-06-2014 05:00:00 15.8 C 12.38 g/m*3 15.8 C 0 km/h
1668 08-06-2014 05:05:00 15.8 C 12.38 g/m*3 15.8 C 0 km/h
1669 08-06-2014 05:10:00 15.8 C 12.38 g/m*3 15.8 C 1.6 km/h
1670 08-06-2014 05:15:00 15.8 C 12.38 g/m*3 15.8 C 0 km/h
1671 08-06-2014 05:20:00 15.8 C 12.38 g/m*3 15.8 C 0 km/h
1672 08-06-2014 05:25:00 15.8 C 12.38 g/m*3 15.8 C 0 km/h
1673 08-06-2014 05:30:00 15.7 C 12.31 g/m*3 15.7 C 0 km/h
1674 08-06-2014 05:35:00 15.7 C 12.31 g/m*3 15.7 C 0 km/h
1675 08-06-2014 05:40:00 15.6 C 12.23 g/m*3 15.6 C 0 km/h
Sensor: Nr:Datum:Temp:Abs-Feuchte:Windchill:Wind:
Aussen-T/F 1676 08-06-2014 05:45:00 15.6 C 12.37 g/m*3 15.6 C 0 km/h
1677 08-06-2014 05:50:00 15.6 C 12.37 g/m*3 15.6 C 0 km/h
1678 08-06-2014 05:55:00 15.6 C 12.37 g/m*3 15.6 C 0 km/h
1679 08-06-2014 06:00:00 15.5 C 12.29 g/m*3 15.5 C 0 km/h
1680 08-06-2014 06:05:00 15.6 C 12.37 g/m*3 15.6 C 0 km/h
1681 08-06-2014 06:10:00 15.6 C 12.5 g/m*3 15.6 C 0 km/h
1682 08-06-2014 06:15:00 15.7 C 12.58 g/m*3 15.7 C 0 km/h
1683 08-06-2014 06:20:00 15.8 C 12.65 g/m*3 15.8 C 0 km/h
1684 08-06-2014 06:25:00 15.9 C 12.73 g/m*3 15.9 C 0 km/h
1685 08-06-2014 06:30:00 16.1 C 12.88 g/m*3 16.1 C 0 km/h
1686 08-06-2014 06:35:00 16.2 C 12.82 g/m*3 16.2 C 0 km/h
1687 08-06-2014 06:40:00 16.4 C 12.98 g/m*3 16.4 C 0 km/h
1688 08-06-2014 06:45:00 16.5 C 13.06 g/m*3 16.5 C 0 km/h
1689 08-06-2014 06:50:00 16.6 C 13.14 g/m*3 16.6 C 0 km/h
1690 08-06-2014 06:55:00 16.8 C 13.15 g/m*3 16.8 C 0 km/h
1691 08-06-2014 07:00:00 16.9 C 13.09 g/m*3 16.9 C 0 km/h
1692 08-06-2014 07:05:00 17 C 13.02 g/m*3 17 C 0 km/h
1693 08-06-2014 07:10:00 17 C 13.02 g/m*3 17 C 0 km/h
1694 08-06-2014 07:15:00 17.1 C 13.1 g/m*3 17.1 C 0 km/h
1695 08-06-2014 07:20:00 17.1 C 13.1 g/m*3 17.1 C 0 km/h
1696 08-06-2014 07:25:00 17.1 C 13.1 g/m*3 17.1 C 0 km/h
1697 08-06-2014 07:30:00 17.2 C 13.33 g/m*3 17.2 C 0 km/h
1698 08-06-2014 07:35:00 17.2 C 13.33 g/m*3 17.2 C 0 km/h
1699 08-06-2014 07:40:00 17.2 C 13.33 g/m*3 17.2 C 0 km/h
1700 08-06-2014 07:45:00 17.3 C 13.26 g/m*3 17.3 C 1.6 km/h
Sensor: Nr:Datum:Temp:Abs-Feuchte:Windchill:Wind:
Aussen-T/F 1701 08-06-2014 07:50:00 17.5 C 13.42 g/m*3 17.5 C 0 km/h
1702 08-06-2014 07:55:00 17.7 C 13.58 g/m*3 17.7 C 0 km/h
1703 08-06-2014 08:00:00 18.1 C 13.75 g/m*3 18.1 C 0 km/h
1704 08-06-2014 08:05:00 18.3 C 13.76 g/m*3 18.3 C 0 km/h
1705 08-06-2014 08:10:00 18.6 C 13.85 g/m*3 18.6 C 0 km/h
1706 08-06-2014 08:15:00 18.8 C 14.01 g/m*3 18.8 C 0 km/h
1707 08-06-2014 08:20:00 19.1 C 13.93 g/m*3 19.1 C 0 km/h
1708 08-06-2014 08:25:00 19.2 C 14.02 g/m*3 19.2 C 0 km/h
1709 08-06-2014 08:30:00 19.4 C 14.18 g/m*3 19.4 C 0 km/h
1710 08-06-2014 08:35:00 19.7 C 14.26 g/m*3 19.7 C 0 km/h
1711 08-06-2014 08:40:00 19.9 C 14.43 g/m*3 19.9 C 0 km/h
1712 08-06-2014 08:45:00 20 C 14.17 g/m*3 20 C 0 km/h
1713 08-06-2014 08:50:00 20.1 C 14.43 g/m*3 20.1 C 0 km/h
1714 08-06-2014 08:55:00 20.1 C 14.43 g/m*3 20.1 C 0 km/h
1715 08-06-2014 09:00:00 20.4 C 14.51 g/m*3 20.4 C 0 km/h
1716 08-06-2014 09:05:00 20.6 C 14.5 g/m*3 20.6 C 0 km/h
1717 08-06-2014 09:10:00 20.6 C 14.5 g/m*3 20.6 C 0 km/h
1718 08-06-2014 09:15:00 20.6 C 14.68 g/m*3 20.6 C 0 km/h
1719 08-06-2014 09:20:00 20.4 C 14.68 g/m*3 20.4 C 0 km/h
1720 08-06-2014 09:25:00 20.3 C 14.6 g/m*3 20.3 C 0 km/h
1721 08-06-2014 09:30:00 20.3 C 14.6 g/m*3 20.3 C 0 km/h
1722 08-06-2014 09:35:00 20.3 C 14.77 g/m*3 20.3 C 0 km/h
1723 08-06-2014 09:40:00 20.4 C 14.86 g/m*3 20.4 C 0 km/h
1724 08-06-2014 09:45:00 20.5 C 14.95 g/m*3 20.5 C 0 km/h
1725 08-06-2014 09:50:00 20.8 C 15.21 g/m*3 20.8 C 0 km/h
Sensor: Nr:Datum:Temp:Abs-Feuchte:Windchill:Wind:
Aussen-T/F 1726 08-06-2014 09:55:00 21.1 C 15.29 g/m*3 21.1 C 0 km/h
1727 08-06-2014 10:00:00 21.6 C 15.55 g/m*3 21.6 C 0 km/h
1728 08-06-2014 10:05:00 21.9 C 15.63 g/m*3 21.9 C 0 km/h
1729 08-06-2014 10:10:00 22.2 C 15.71 g/m*3 22.2 C 0 km/h
1730 08-06-2014 10:15:00 22.4 C 15.89 g/m*3 22.4 C 0 km/h
1731 08-06-2014 10:20:00 22.7 C 15.96 g/m*3 22.7 C 0 km/h
1732 08-06-2014 10:25:00 22.9 C 16.14 g/m*3 22.9 C 0 km/h
1733 08-06-2014 10:30:00 22.8 C 15.85 g/m*3 22.8 C 0 km/h
1734 08-06-2014 10:35:00 22.9 C 16.14 g/m*3 22.9 C 0 km/h
1735 08-06-2014 10:40:00 23.1 C 16.33 g/m*3 23.1 C 0 km/h
1736 08-06-2014 10:45:00 23.3 C 16.52 g/m*3 23.3 C 0 km/h
1737 08-06-2014 10:50:00 23.4 C 16.4 g/m*3 23.4 C 0 km/h
1738 08-06-2014 10:55:00 23.2 C 16.22 g/m*3 23.2 C 0 km/h
1739 08-06-2014 11:00:00 23.2 C 16.22 g/m*3 23.2 C 0 km/h
1740 08-06-2014 11:05:00 23.3 C 16.1 g/m*3 23.3 C 0 km/h
1741 08-06-2014 11:10:00 23.7 C 15.4 g/m*3 23.7 C 0 km/h
1742 08-06-2014 11:15:00 24.6 C 16.43 g/m*3 24.6 C 0 km/h
1743 08-06-2014 11:20:00 25.3 C 16.86 g/m*3 25.3 C 0 km/h
1744 08-06-2014 11:25:00 25.6 C 16.19 g/m*3 25.6 C 0 km/h
1745 08-06-2014 11:30:00 25.5 C 16.1 g/m*3 25.5 C 0 km/h
1746 08-06-2014 11:35:00 25.3 C 16.62 g/m*3 25.3 C 0 km/h
1747 08-06-2014 11:40:00 25.4 C 16.24 g/m*3 25.4 C 0 km/h
1748 08-06-2014 11:45:00 25.8 C 16.61 g/m*3 25.8 C 0 km/h
1749 08-06-2014 11:50:00 25.7 C 16.28 g/m*3 25.7 C 0 km/h
1750 08-06-2014 11:55:00 25.5 C 15.86 g/m*3 25.5 C 1.6 km/h
Sensor: Nr:Datum:Temp:Abs-Feuchte:Windchill:Wind:
Aussen-T/F 1751 08-06-2014 12:00:00 26 C 16.55 g/m*3 26 C 4.8 km/h
1752 08-06-2014 12:05:00 26.9 C 15.87 g/m*3 26.9 C 4.8 km/h
1753 08-06-2014 12:10:00 27.7 C 15.25 g/m*3 27.7 C 4.8 km/h
1754 08-06-2014 12:15:00 28.3 C 15.48 g/m*3 28.3 C 8.1 km/h
1755 08-06-2014 12:20:00 28.8 C 14.77 g/m*3 28.8 C 6.4 km/h
1756 08-06-2014 12:25:00 29.2 C 16.55 g/m*3 29.2 C 3.2 km/h
1757 08-06-2014 12:30:00 29.2 C 15.97 g/m*3 29.2 C 4.8 km/h
1758 08-06-2014 12:35:00 29.1 C 14.73 g/m*3 29.1 C 6.4 km/h
1759 08-06-2014 12:40:00 29.5 C 15.64 g/m*3 29.5 C 6.4 km/h
1760 08-06-2014 12:45:00 29.7 C 14.92 g/m*3 29.7 C 1.6 km/h
1761 08-06-2014 12:50:00 29.9 C 14.78 g/m*3 29.9 C 3.2 km/h
1762 08-06-2014 12:55:00 30.1 C 14.63 g/m*3 30.1 C 4.8 km/h
1763 08-06-2014 13:00:00 30.3 C 14.49 g/m*3 30.3 C 6.4 km/h
1764 08-06-2014 13:05:00 30.6 C 14.72 g/m*3 30.6 C 6.4 km/h
1765 08-06-2014 13:10:00 30.8 C 14.88 g/m*3 30.8 C 4.8 km/h
1766 08-06-2014 13:15:00 30.8 C 14.88 g/m*3 30.8 C 6.4 km/h
1767 08-06-2014 13:20:00 30.8 C 14.56 g/m*3 30.8 C 6.4 km/h
1768 08-06-2014 13:25:00 30.9 C 16.23 g/m*3 30.9 C 6.4 km/h
1769 08-06-2014 13:30:00 31.1 C 15.44 g/m*3 31.1 C 4.8 km/h
1770 08-06-2014 13:35:00 31.2 C 14.88 g/m*3 31.2 C 8.1 km/h
1771 08-06-2014 13:40:00 31.5 C 14.79 g/m*3 31.5 C 9.7 km/h
1772 08-06-2014 13:45:00 31.6 C 14.54 g/m*3 31.6 C 9.7 km/h
1773 08-06-2014 13:50:00 31.7 C 15.95 g/m*3 31.7 C 6.4 km/h
1774 08-06-2014 13:55:00 31.9 C 15.45 g/m*3 31.9 C 4.8 km/h
1775 08-06-2014 14:00:00 32 C 15.53 g/m*3 32 C 8.1 km/h
Sensor: Nr:Datum:Temp:Abs-Feuchte:Windchill:Wind:
Aussen-T/F 1776 08-06-2014 14:05:00 32.2 C 15.35 g/m*3 32.2 C 3.2 km/h
1777 08-06-2014 14:10:00 32.2 C 16.04 g/m*3 32.2 C 6.4 km/h
1778 08-06-2014 14:15:00 32.3 C 15.78 g/m*3 32.3 C 9.7 km/h
1779 08-06-2014 14:20:00 32.4 C 15.86 g/m*3 32.4 C 9.7 km/h
1780 08-06-2014 14:25:00 32.3 C 16.12 g/m*3 32.3 C 11.3 km/h
1781 08-06-2014 14:30:00 32.3 C 15.44 g/m*3 32.3 C 8.1 km/h
1782 08-06-2014 14:35:00 32.4 C 14.83 g/m*3 32.4 C 8.1 km/h
1783 08-06-2014 14:40:00 32.7 C 14.72 g/m*3 32.7 C 6.4 km/h
1784 08-06-2014 14:45:00 32.7 C 15.77 g/m*3 32.7 C 4.8 km/h
1785 08-06-2014 14:50:00 32.8 C 14.79 g/m*3 32.8 C 4.8 km/h
1786 08-06-2014 14:55:00 32.8 C 14.09 g/m*3 32.8 C 8.1 km/h
1787 08-06-2014 15:00:00 32.5 C 14.21 g/m*3 32.5 C 4.8 km/h
1788 08-06-2014 15:05:00 32.6 C 14.64 g/m*3 32.6 C 6.4 km/h
1789 08-06-2014 15:10:00 32.8 C 14.79 g/m*3 32.8 C 6.4 km/h
1790 08-06-2014 15:15:00 33.2 C 14.75 g/m*3 33.2 C 6.4 km/h
1791 08-06-2014 15:20:00 33.6 C 14.7 g/m*3 33.6 C 4.8 km/h
1792 08-06-2014 15:25:00 33.7 C 13.67 g/m*3 33.7 C 8.1 km/h
1793 08-06-2014 15:30:00 33.6 C 14.33 g/m*3 33.6 C 8.1 km/h
1794 08-06-2014 15:35:00 33.2 C 14.39 g/m*3 33.2 C 8.1 km/h
1795 08-06-2014 15:40:00 32.8 C 15.85 g/m*3 32.8 C 0 km/h
1796 08-06-2014 15:45:00 31.7 C 16.28 g/m*3 31.7 C 1.6 km/h
1797 08-06-2014 15:50:00 30.6 C 16.91 g/m*3 30.6 C 0 km/h
1798 08-06-2014 15:55:00 29.3 C 16.93 g/m*3 29.3 C 1.6 km/h
1799 08-06-2014 16:00:00 29.2 C 16.55 g/m*3 29.2 C 6.4 km/h
1800 08-06-2014 16:05:00 30.5 C 16.51 g/m*3 30.5 C 6.4 km/h
Sensor: Nr:Datum:Temp:Abs-Feuchte:Windchill:Wind:
Aussen-T/F 1801 08-06-2014 16:10:00 31.1 C 16.09 g/m*3 31.1 C 11.3 km/h
1802 08-06-2014 16:15:00 31.8 C 16.37 g/m*3 31.8 C 14.5 km/h
1803 08-06-2014 16:20:00 32.4 C 15.86 g/m*3 32.4 C 11.3 km/h
1804 08-06-2014 16:25:00 32.7 C 17.17 g/m*3 32.7 C 8.1 km/h
1805 08-06-2014 16:30:00 32.8 C 16.55 g/m*3 32.8 C 11.3 km/h
1806 08-06-2014 16:35:00 32.7 C 15.77 g/m*3 32.7 C 8.1 km/h
1807 08-06-2014 16:40:00 32.4 C 16.21 g/m*3 32.4 C 8.1 km/h
1808 08-06-2014 16:45:00 32.5 C 15.95 g/m*3 32.5 C 8.1 km/h
1809 08-06-2014 16:50:00 32.9 C 15.58 g/m*3 32.9 C 6.4 km/h
1810 08-06-2014 16:55:00 32.9 C 16.29 g/m*3 32.9 C 9.7 km/h
1811 08-06-2014 17:00:00 33.1 C 17.18 g/m*3 33.1 C 9.7 km/h
1812 08-06-2014 17:05:00 33.6 C 16.53 g/m*3 33.6 C 4.8 km/h
1813 08-06-2014 17:10:00 33.7 C 15.51 g/m*3 33.7 C 6.4 km/h
1814 08-06-2014 17:15:00 33.6 C 16.17 g/m*3 33.6 C 6.4 km/h
1815 08-06-2014 17:20:00 33.9 C 16.05 g/m*3 33.9 C 8.1 km/h
1816 08-06-2014 17:25:00 34 C 16.51 g/m*3 34 C 4.8 km/h
1817 08-06-2014 17:30:00 33.8 C 16.71 g/m*3 33.8 C 4.8 km/h
1818 08-06-2014 17:35:00 33.6 C 16.9 g/m*3 33.6 C 6.4 km/h
1819 08-06-2014 17:40:00 33.5 C 14.98 g/m*3 33.5 C 4.8 km/h
1820 08-06-2014 17:45:00 33.4 C 14.91 g/m*3 33.4 C 3.2 km/h
1821 08-06-2014 17:50:00 33.6 C 17.64 g/m*3 33.6 C 6.4 km/h
1822 08-06-2014 17:55:00 33.7 C 15.51 g/m*3 33.7 C 6.4 km/h
1823 08-06-2014 18:00:00 33.7 C 15.88 g/m*3 33.7 C 9.7 km/h
1824 08-06-2014 18:05:00 33.6 C 15.8 g/m*3 33.6 C 6.4 km/h
1825 08-06-2014 18:10:00 33.4 C 16 g/m*3 33.4 C 6.4 km/h
Sensor: Nr:Datum:Temp:Abs-Feuchte:Windchill:Wind:
Aussen-T/F 1826 08-06-2014 18:15:00 33.5 C 16.81 g/m*3 33.5 C 8.1 km/h
1827 08-06-2014 18:20:00 33.6 C 15.8 g/m*3 33.6 C 4.8 km/h
1828 08-06-2014 18:25:00 33.6 C 16.53 g/m*3 33.6 C 6.4 km/h
1829 08-06-2014 18:30:00 33.4 C 15.63 g/m*3 33.4 C 8.1 km/h
1830 08-06-2014 18:35:00 33.4 C 15.27 g/m*3 33.4 C 3.2 km/h
1831 08-06-2014 18:40:00 33.4 C 15.63 g/m*3 33.4 C 6.4 km/h
1832 08-06-2014 18:45:00 33.4 C 16.36 g/m*3 33.4 C 9.7 km/h
1833 08-06-2014 18:50:00 33.2 C 16.91 g/m*3 33.2 C 11.3 km/h
1834 08-06-2014 18:55:00 33 C 16.02 g/m*3 33 C 8.1 km/h
1835 08-06-2014 19:00:00 32.8 C 16.2 g/m*3 32.8 C 9.7 km/h
1836 08-06-2014 19:05:00 32.5 C 16.29 g/m*3 32.5 C 8.1 km/h
1837 08-06-2014 19:10:00 32.3 C 16.81 g/m*3 32.3 C 8.1 km/h
1838 08-06-2014 19:15:00 32.1 C 16.29 g/m*3 32.1 C 9.7 km/h
1839 08-06-2014 19:20:00 31.8 C 16.7 g/m*3 31.8 C 8.1 km/h
1840 08-06-2014 19:25:00 31.6 C 16.52 g/m*3 31.6 C 4.8 km/h
1841 08-06-2014 19:30:00 31.3 C 16.59 g/m*3 31.3 C 8.1 km/h
1842 08-06-2014 19:35:00 31.1 C 16.41 g/m*3 31.1 C 6.4 km/h
1843 08-06-2014 19:40:00 30.8 C 16.15 g/m*3 30.8 C 8.1 km/h
1844 08-06-2014 19:45:00 30.6 C 16.6 g/m*3 30.6 C 8.1 km/h
1845 08-06-2014 19:50:00 30.4 C 16.42 g/m*3 30.4 C 6.4 km/h
1846 08-06-2014 19:55:00 30.4 C 16.42 g/m*3 30.4 C 6.4 km/h
1847 08-06-2014 20:00:00 30.3 C 16.64 g/m*3 30.3 C 4.8 km/h
1848 08-06-2014 20:05:00 30.2 C 16.86 g/m*3 30.2 C 6.4 km/h
1849 08-06-2014 20:10:00 30.1 C 16.46 g/m*3 30.1 C 6.4 km/h
1850 08-06-2014 20:15:00 29.8 C 16.2 g/m*3 29.8 C 8.1 km/h
Sensor: Nr:Datum:Temp:Abs-Feuchte:Windchill:Wind:
Aussen-T/F 1851 08-06-2014 20:20:00 29.6 C 16.02 g/m*3 29.6 C 9.7 km/h
1852 08-06-2014 20:25:00 29.4 C 16.15 g/m*3 29.4 C 8.1 km/h
1853 08-06-2014 20:30:00 29.2 C 16.26 g/m*3 29.2 C 8.1 km/h
1854 08-06-2014 20:35:00 28.9 C 16 g/m*3 28.9 C 6.4 km/h
1855 08-06-2014 20:40:00 28.7 C 16.11 g/m*3 28.7 C 8.1 km/h
1856 08-06-2014 20:45:00 28.5 C 16.21 g/m*3 28.5 C 8.1 km/h
1857 08-06-2014 20:50:00 28.3 C 16.03 g/m*3 28.3 C 9.7 km/h
1858 08-06-2014 20:55:00 28.1 C 16.13 g/m*3 28.1 C 6.4 km/h
1859 08-06-2014 21:00:00 27.7 C 17.12 g/m*3 27.7 C 8.1 km/h
1860 08-06-2014 21:05:00 26.9 C 16.89 g/m*3 26.9 C 1.6 km/h
1861 08-06-2014 21:10:00 26.1 C 16.89 g/m*3 26.1 C 0 km/h
1862 08-06-2014 21:15:00 25.5 C 16.81 g/m*3 25.5 C 0 km/h
1863 08-06-2014 21:20:00 25.1 C 16.67 g/m*3 25.1 C 0 km/h
1864 08-06-2014 21:25:00 24.9 C 16.71 g/m*3 24.9 C 0 km/h
1865 08-06-2014 21:30:00 24.7 C 16.75 g/m*3 24.7 C 0 km/h
1866 08-06-2014 21:35:00 24.4 C 16.69 g/m*3 24.4 C 0 km/h
1867 08-06-2014 21:40:00 24.2 C 16.72 g/m*3 24.2 C 1.6 km/h
1868 08-06-2014 21:45:00 23.9 C 16.44 g/m*3 23.9 C 1.6 km/h
1869 08-06-2014 21:50:00 23.8 C 16.56 g/m*3 23.8 C 0 km/h
1870 08-06-2014 21:55:00 23.8 C 16.78 g/m*3 23.8 C 0 km/h
1871 08-06-2014 22:00:00 23.7 C 16.68 g/m*3 23.7 C 1.6 km/h
1872 08-06-2014 22:05:00 23.5 C 16.71 g/m*3 23.5 C 0 km/h
1873 08-06-2014 22:10:00 23.4 C 16.61 g/m*3 23.4 C 0 km/h
1874 08-06-2014 22:15:00 23.3 C 16.73 g/m*3 23.3 C 0 km/h
1875 08-06-2014 22:20:00 23.2 C 16.63 g/m*3 23.2 C 0 km/h
Sensor: Nr:Datum:Temp:Abs-Feuchte:Windchill:Wind:
Aussen-T/F 1876 08-06-2014 22:25:00 23.1 C 16.54 g/m*3 23.1 C 0 km/h
1877 08-06-2014 22:30:00 23.2 C 16.63 g/m*3 23.2 C 1.6 km/h
1878 08-06-2014 22:35:00 23.1 C 16.54 g/m*3 23.1 C 0 km/h
1879 08-06-2014 22:40:00 23 C 16.65 g/m*3 23 C 1.6 km/h
1880 08-06-2014 22:45:00 22.9 C 16.55 g/m*3 22.9 C 0 km/h
1881 08-06-2014 22:50:00 22.8 C 16.66 g/m*3 22.8 C 0 km/h
1882 08-06-2014 22:55:00 22.7 C 16.57 g/m*3 22.7 C 0 km/h
1883 08-06-2014 23:00:00 22.6 C 16.47 g/m*3 22.6 C 0 km/h
1884 08-06-2014 23:05:00 22.5 C 16.38 g/m*3 22.5 C 0 km/h
1885 08-06-2014 23:10:00 22.4 C 16.28 g/m*3 22.4 C 0 km/h
1886 08-06-2014 23:15:00 22.3 C 16.39 g/m*3 22.3 C 0 km/h
1887 08-06-2014 23:20:00 22.3 C 16.39 g/m*3 22.3 C 0 km/h
1888 08-06-2014 23:25:00 22.2 C 16.3 g/m*3 22.2 C 0 km/h
1889 08-06-2014 23:30:00 22.2 C 16.3 g/m*3 22.2 C 0 km/h
1890 08-06-2014 23:35:00 22.1 C 16.4 g/m*3 22.1 C 0 km/h
1891 08-06-2014 23:40:00 21.9 C 16.21 g/m*3 21.9 C 0 km/h
1892 08-06-2014 23:45:00 21.9 C 16.21 g/m*3 21.9 C 0 km/h
1893 08-06-2014 23:50:00 21.8 C 16.12 g/m*3 21.8 C 0 km/h
1894 08-06-2014 23:55:00 21.7 C 16.21 g/m*3 21.7 C 0 km/h

Legende:
   Min
   Max


Maximal/Minimal-Werte vom 02.06.2014 - 08.06.2014

Sensor Min Max Avg
Temp
(Aussen-T/F)
6.8 °C
06-06-2014  05:30:00
34 °C
08-06-2014  17:25:00
17.76 °C
Abs-Feuchte
(Aussen-T/F)
6.51 g/m*3
05-06-2014  19:45:00
17.82 g/m*3
07-06-2014  18:30:00
10.74 g/m*3
Windchill
(Aussen-T/F)
6.8 C
06-06-2014  05:30:00
34 C
08-06-2014  17:25:00
17.74 C

Die Daten stammen von einer Davis Vantage Pro 2 Wetter-Station und werden unter Linux mit der Software wview2wettercgi und aufbereitet. Alle Angaben erfolgen ohne Gewähr für ihre Vollständigkeit oder Richtigkeit.
Kontakt: Rainer Krienke krienke@uni-koblenz.de . Meine Webseiten an der Uni Koblenz oder privat.
Version: $Revision: 0.78 $